<?xml version="1.0" encoding="UTF-8" standalone="no" ?>
<gpx xmlns="http://www.topografix.com/GPX/1/1" xmlns:xsi="http://www.w3.org/2001/XMLSchema-instance" xsi:schemaLocation="http://www.topografix.com/GPX/1/1 http://www.topografix.com/GPX/1/1/gpx.xsd" version="1.1" creator="VisuGPX - https://www.visugpx.com">
  <metadata>
    <name>Mont Racine</name>
  </metadata>
  <trk>
    <name><![CDATA[Mont Racine]]></name>
    <extensions>
      <line xmlns="http://www.topografix.com/GPX/gpx_style/0/2">
        <color>0000FF</color>
        <width>4</width>
      </line>
    </extensions>
    <trkseg>
      <trkpt lat="47.04082" lon="6.80307">
        <ele>1027.7999954224</ele>
        <time>2022-07-03T08:20:03.000Z</time>
      </trkpt>
      <trkpt lat="47.04081" lon="6.80306">
        <ele>1027.7999954224</ele>
        <time>2022-07-03T08:20:03.693Z</time>
      </trkpt>
      <trkpt lat="47.04081" lon="6.80307">
        <ele>1027.8999938965</ele>
        <time>2022-07-03T08:20:05.960Z</time>
      </trkpt>
      <trkpt lat="47.04095" lon="6.80315">
        <ele>1028.1999969482</ele>
        <time>2022-07-03T08:20:21.008Z</time>
      </trkpt>
      <trkpt lat="47.04115" lon="6.80326">
        <ele>1028.6999969482</ele>
        <time>2022-07-03T08:20:43.288Z</time>
      </trkpt>
      <trkpt lat="47.04146" lon="6.80343">
        <ele>1029</ele>
        <time>2022-07-03T08:21:12.808Z</time>
      </trkpt>
      <trkpt lat="47.04172" lon="6.80357">
        <ele>1029.0999984741</ele>
        <time>2022-07-03T08:21:36.261Z</time>
      </trkpt>
      <trkpt lat="47.04177" lon="6.80361">
        <ele>1029.1999969482</ele>
        <time>2022-07-03T08:21:41.865Z</time>
      </trkpt>
      <trkpt lat="47.04174" lon="6.80366">
        <ele>1029.1999969482</ele>
        <time>2022-07-03T08:21:45.615Z</time>
      </trkpt>
      <trkpt lat="47.04155" lon="6.80401">
        <ele>1029</ele>
        <time>2022-07-03T08:22:08.277Z</time>
      </trkpt>
      <trkpt lat="47.04139" lon="6.80428">
        <ele>1029.0999984741</ele>
        <time>2022-07-03T08:22:29.064Z</time>
      </trkpt>
      <trkpt lat="47.04121" lon="6.80458">
        <ele>1029.2999954224</ele>
        <time>2022-07-03T08:22:52.964Z</time>
      </trkpt>
      <trkpt lat="47.04104" lon="6.80488">
        <ele>1029.5999984741</ele>
        <time>2022-07-03T08:23:17.288Z</time>
      </trkpt>
      <trkpt lat="47.04082" lon="6.80522">
        <ele>1030.0999984741</ele>
        <time>2022-07-03T08:23:47.781Z</time>
      </trkpt>
      <trkpt lat="47.04064" lon="6.80549">
        <ele>1030.5999984741</ele>
        <time>2022-07-03T08:24:13.459Z</time>
      </trkpt>
      <trkpt lat="47.04054" lon="6.80564">
        <ele>1030.8999938965</ele>
        <time>2022-07-03T08:24:27.947Z</time>
      </trkpt>
      <trkpt lat="47.04049" lon="6.80575">
        <ele>1031.0999984741</ele>
        <time>2022-07-03T08:24:37.192Z</time>
      </trkpt>
      <trkpt lat="47.04045" lon="6.80585">
        <ele>1031.2999954224</ele>
        <time>2022-07-03T08:24:45.578Z</time>
      </trkpt>
      <trkpt lat="47.04042" lon="6.80597">
        <ele>1031.5</ele>
        <time>2022-07-03T08:24:54.639Z</time>
      </trkpt>
      <trkpt lat="47.0404" lon="6.80608">
        <ele>1031.6999969482</ele>
        <time>2022-07-03T08:25:02.979Z</time>
      </trkpt>
      <trkpt lat="47.04039" lon="6.8062">
        <ele>1031.8999938965</ele>
        <time>2022-07-03T08:25:11.650Z</time>
      </trkpt>
      <trkpt lat="47.04036" lon="6.80669">
        <ele>1032.8999938965</ele>
        <time>2022-07-03T08:25:49.428Z</time>
      </trkpt>
      <trkpt lat="47.04033" lon="6.80703">
        <ele>1033.7999954224</ele>
        <time>2022-07-03T08:26:18.988Z</time>
      </trkpt>
      <trkpt lat="47.04029" lon="6.80742">
        <ele>1034.5999984741</ele>
        <time>2022-07-03T08:26:49.251Z</time>
      </trkpt>
      <trkpt lat="47.04024" lon="6.80789">
        <ele>1035.5</ele>
        <time>2022-07-03T08:27:24.868Z</time>
      </trkpt>
      <trkpt lat="47.04021" lon="6.80807">
        <ele>1035.7999954224</ele>
        <time>2022-07-03T08:27:38.062Z</time>
      </trkpt>
      <trkpt lat="47.04017" lon="6.80821">
        <ele>1036.0999984741</ele>
        <time>2022-07-03T08:27:49.589Z</time>
      </trkpt>
      <trkpt lat="47.04012" lon="6.80835">
        <ele>1036.3999938965</ele>
        <time>2022-07-03T08:28:01.453Z</time>
      </trkpt>
      <trkpt lat="47.04005" lon="6.80847">
        <ele>1036.6999969482</ele>
        <time>2022-07-03T08:28:13.289Z</time>
      </trkpt>
      <trkpt lat="47.04003" lon="6.8085">
        <ele>1036.8999938965</ele>
        <time>2022-07-03T08:28:18.048Z</time>
      </trkpt>
      <trkpt lat="47.04004" lon="6.80851">
        <ele>1036.8999938965</ele>
        <time>2022-07-03T08:28:18.542Z</time>
      </trkpt>
      <trkpt lat="47.04003" lon="6.8085">
        <ele>1036.8999938965</ele>
        <time>2022-07-03T08:28:19.036Z</time>
      </trkpt>
      <trkpt lat="47.04005" lon="6.80847">
        <ele>1036.6999969482</ele>
        <time>2022-07-03T08:28:19.609Z</time>
      </trkpt>
      <trkpt lat="47.03989" lon="6.8087">
        <ele>1037.1999969482</ele>
        <time>2022-07-03T08:28:42.638Z</time>
      </trkpt>
      <trkpt lat="47.03962" lon="6.80908">
        <ele>1037.8999938965</ele>
        <time>2022-07-03T08:29:19.673Z</time>
      </trkpt>
      <trkpt lat="47.03929" lon="6.80955">
        <ele>1038.5</ele>
        <time>2022-07-03T08:30:02.452Z</time>
      </trkpt>
      <trkpt lat="47.03912" lon="6.80978">
        <ele>1038.7999954224</ele>
        <time>2022-07-03T08:30:23.910Z</time>
      </trkpt>
      <trkpt lat="47.03903" lon="6.80992">
        <ele>1038.7999954224</ele>
        <time>2022-07-03T08:30:34.679Z</time>
      </trkpt>
      <trkpt lat="47.03897" lon="6.81002">
        <ele>1038.8999938965</ele>
        <time>2022-07-03T08:30:42.910Z</time>
      </trkpt>
      <trkpt lat="47.03894" lon="6.81013">
        <ele>1039</ele>
        <time>2022-07-03T08:30:50.413Z</time>
      </trkpt>
      <trkpt lat="47.03892" lon="6.81025">
        <ele>1039.0999984741</ele>
        <time>2022-07-03T08:30:58.149Z</time>
      </trkpt>
      <trkpt lat="47.0389" lon="6.81035">
        <ele>1039.2999954224</ele>
        <time>2022-07-03T08:31:06.002Z</time>
      </trkpt>
      <trkpt lat="47.03888" lon="6.81075">
        <ele>1039.8999938965</ele>
        <time>2022-07-03T08:31:33.969Z</time>
      </trkpt>
      <trkpt lat="47.03886" lon="6.81093">
        <ele>1040.2999954224</ele>
        <time>2022-07-03T08:31:48.423Z</time>
      </trkpt>
      <trkpt lat="47.03883" lon="6.81106">
        <ele>1040.5</ele>
        <time>2022-07-03T08:31:57.911Z</time>
      </trkpt>
      <trkpt lat="47.03879" lon="6.81121">
        <ele>1040.6999969482</ele>
        <time>2022-07-03T08:32:08.743Z</time>
      </trkpt>
      <trkpt lat="47.03874" lon="6.81132">
        <ele>1041</ele>
        <time>2022-07-03T08:32:19.345Z</time>
      </trkpt>
      <trkpt lat="47.03869" lon="6.81142">
        <ele>1041.2999954224</ele>
        <time>2022-07-03T08:32:29.616Z</time>
      </trkpt>
      <trkpt lat="47.03873" lon="6.81152">
        <ele>1041.5</ele>
        <time>2022-07-03T08:32:38.025Z</time>
      </trkpt>
      <trkpt lat="47.03886" lon="6.8118">
        <ele>1042.0999984741</ele>
        <time>2022-07-03T08:33:02.852Z</time>
      </trkpt>
      <trkpt lat="47.03899" lon="6.81204">
        <ele>1042.7999954224</ele>
        <time>2022-07-03T08:33:27.559Z</time>
      </trkpt>
      <trkpt lat="47.03904" lon="6.81218">
        <ele>1043.0999984741</ele>
        <time>2022-07-03T08:33:39.390Z</time>
      </trkpt>
      <trkpt lat="47.03908" lon="6.81234">
        <ele>1043.3999938965</ele>
        <time>2022-07-03T08:33:51.803Z</time>
      </trkpt>
      <trkpt lat="47.03917" lon="6.81272">
        <ele>1044.5</ele>
        <time>2022-07-03T08:34:27.327Z</time>
      </trkpt>
      <trkpt lat="47.03923" lon="6.81298">
        <ele>1045.0999984741</ele>
        <time>2022-07-03T08:34:49.012Z</time>
      </trkpt>
      <trkpt lat="47.03927" lon="6.81312">
        <ele>1045.3999938965</ele>
        <time>2022-07-03T08:35:00.550Z</time>
      </trkpt>
      <trkpt lat="47.03932" lon="6.8133">
        <ele>1045.7999954224</ele>
        <time>2022-07-03T08:35:15.545Z</time>
      </trkpt>
      <trkpt lat="47.03935" lon="6.8134">
        <ele>1046.0999984741</ele>
        <time>2022-07-03T08:35:25.204Z</time>
      </trkpt>
      <trkpt lat="47.0394" lon="6.8135">
        <ele>1046.5</ele>
        <time>2022-07-03T08:35:37.141Z</time>
      </trkpt>
      <trkpt lat="47.03945" lon="6.81359">
        <ele>1046.8999938965</ele>
        <time>2022-07-03T08:35:48.522Z</time>
      </trkpt>
      <trkpt lat="47.03953" lon="6.81372">
        <ele>1047.5</ele>
        <time>2022-07-03T08:36:05.606Z</time>
      </trkpt>
      <trkpt lat="47.0396" lon="6.8138">
        <ele>1047.7999954224</ele>
        <time>2022-07-03T08:36:16.139Z</time>
      </trkpt>
      <trkpt lat="47.0397" lon="6.8139">
        <ele>1048.0999984741</ele>
        <time>2022-07-03T08:36:28.990Z</time>
      </trkpt>
      <trkpt lat="47.03981" lon="6.81399">
        <ele>1048.5999984741</ele>
        <time>2022-07-03T08:36:45.159Z</time>
      </trkpt>
      <trkpt lat="47.0399" lon="6.81408">
        <ele>1049.0999984741</ele>
        <time>2022-07-03T08:37:00.375Z</time>
      </trkpt>
      <trkpt lat="47.04003" lon="6.81422">
        <ele>1049.5</ele>
        <time>2022-07-03T08:37:17.501Z</time>
      </trkpt>
      <trkpt lat="47.04018" lon="6.81443">
        <ele>1050.1999969482</ele>
        <time>2022-07-03T08:37:42.066Z</time>
      </trkpt>
      <trkpt lat="47.0403" lon="6.81464">
        <ele>1050.8999938965</ele>
        <time>2022-07-03T08:38:05.328Z</time>
      </trkpt>
      <trkpt lat="47.04047" lon="6.81498">
        <ele>1051.8999938965</ele>
        <time>2022-07-03T08:38:39.884Z</time>
      </trkpt>
      <trkpt lat="47.04056" lon="6.81515">
        <ele>1052.5</ele>
        <time>2022-07-03T08:38:59.096Z</time>
      </trkpt>
      <trkpt lat="47.04064" lon="6.81534">
        <ele>1053.0999984741</ele>
        <time>2022-07-03T08:39:18.608Z</time>
      </trkpt>
      <trkpt lat="47.04071" lon="6.81548">
        <ele>1053.6999969482</ele>
        <time>2022-07-03T08:39:35.633Z</time>
      </trkpt>
      <trkpt lat="47.04098" lon="6.81593">
        <ele>1055.5</ele>
        <time>2022-07-03T08:40:31.744Z</time>
      </trkpt>
      <trkpt lat="47.04107" lon="6.8161">
        <ele>1056.1999969482</ele>
        <time>2022-07-03T08:40:52.442Z</time>
      </trkpt>
      <trkpt lat="47.0411" lon="6.81619">
        <ele>1056.3999938965</ele>
        <time>2022-07-03T08:41:00.052Z</time>
      </trkpt>
      <trkpt lat="47.04116" lon="6.81637">
        <ele>1057.0999984741</ele>
        <time>2022-07-03T08:41:19.838Z</time>
      </trkpt>
      <trkpt lat="47.0412" lon="6.81647">
        <ele>1057.5</ele>
        <time>2022-07-03T08:41:31.180Z</time>
      </trkpt>
      <trkpt lat="47.04125" lon="6.81656">
        <ele>1057.8999938965</ele>
        <time>2022-07-03T08:41:42.562Z</time>
      </trkpt>
      <trkpt lat="47.04143" lon="6.81686">
        <ele>1059.2999954224</ele>
        <time>2022-07-03T08:42:21.877Z</time>
      </trkpt>
      <trkpt lat="47.04148" lon="6.81698">
        <ele>1059.3999938965</ele>
        <time>2022-07-03T08:42:30.585Z</time>
      </trkpt>
      <trkpt lat="47.04152" lon="6.81712">
        <ele>1059.6999969482</ele>
        <time>2022-07-03T08:42:42.123Z</time>
      </trkpt>
      <trkpt lat="47.04155" lon="6.81723">
        <ele>1060</ele>
        <time>2022-07-03T08:42:52.160Z</time>
      </trkpt>
      <trkpt lat="47.04155" lon="6.81727">
        <ele>1060.1999969482</ele>
        <time>2022-07-03T08:42:56.744Z</time>
      </trkpt>
      <trkpt lat="47.04157" lon="6.8174">
        <ele>1060.5</ele>
        <time>2022-07-03T08:43:07.405Z</time>
      </trkpt>
      <trkpt lat="47.04158" lon="6.81757">
        <ele>1061.0999984741</ele>
        <time>2022-07-03T08:43:24.210Z</time>
      </trkpt>
      <trkpt lat="47.04157" lon="6.81776">
        <ele>1061.8999938965</ele>
        <time>2022-07-03T08:43:44.390Z</time>
      </trkpt>
      <trkpt lat="47.04155" lon="6.81813">
        <ele>1063.0999984741</ele>
        <time>2022-07-03T08:44:20.012Z</time>
      </trkpt>
      <trkpt lat="47.04154" lon="6.81847">
        <ele>1064.7999954224</ele>
        <time>2022-07-03T08:44:59.189Z</time>
      </trkpt>
      <trkpt lat="47.04155" lon="6.81872">
        <ele>1065.5999984741</ele>
        <time>2022-07-03T08:45:23.130Z</time>
      </trkpt>
      <trkpt lat="47.04154" lon="6.81889">
        <ele>1066.2999954224</ele>
        <time>2022-07-03T08:45:40.966Z</time>
      </trkpt>
      <trkpt lat="47.04152" lon="6.81908">
        <ele>1067</ele>
        <time>2022-07-03T08:46:00.136Z</time>
      </trkpt>
      <trkpt lat="47.04151" lon="6.81918">
        <ele>1067.1999969482</ele>
        <time>2022-07-03T08:46:07.830Z</time>
      </trkpt>
      <trkpt lat="47.04147" lon="6.81929">
        <ele>1067.5999984741</ele>
        <time>2022-07-03T08:46:19.745Z</time>
      </trkpt>
      <trkpt lat="47.04145" lon="6.81936">
        <ele>1067.7999954224</ele>
        <time>2022-07-03T08:46:26.311Z</time>
      </trkpt>
      <trkpt lat="47.04141" lon="6.81946">
        <ele>1068.1999969482</ele>
        <time>2022-07-03T08:46:37.697Z</time>
      </trkpt>
      <trkpt lat="47.04131" lon="6.81969">
        <ele>1069.3999938965</ele>
        <time>2022-07-03T08:47:07.110Z</time>
      </trkpt>
      <trkpt lat="47.04119" lon="6.81992">
        <ele>1070.8999938965</ele>
        <time>2022-07-03T08:47:41.202Z</time>
      </trkpt>
      <trkpt lat="47.0411" lon="6.82011">
        <ele>1071.6999969482</ele>
        <time>2022-07-03T08:48:03.841Z</time>
      </trkpt>
      <trkpt lat="47.041" lon="6.82028">
        <ele>1072.6999969482</ele>
        <time>2022-07-03T08:48:28.286Z</time>
      </trkpt>
      <trkpt lat="47.0409" lon="6.82046">
        <ele>1073.8999938965</ele>
        <time>2022-07-03T08:48:55.561Z</time>
      </trkpt>
      <trkpt lat="47.04084" lon="6.82055">
        <ele>1074.5</ele>
        <time>2022-07-03T08:49:09.639Z</time>
      </trkpt>
      <trkpt lat="47.04079" lon="6.82061">
        <ele>1075</ele>
        <time>2022-07-03T08:49:20.949Z</time>
      </trkpt>
      <trkpt lat="47.04071" lon="6.8207">
        <ele>1075.7999954224</ele>
        <time>2022-07-03T08:49:38.824Z</time>
      </trkpt>
      <trkpt lat="47.04068" lon="6.82075">
        <ele>1076.1999969482</ele>
        <time>2022-07-03T08:49:47.480Z</time>
      </trkpt>
      <trkpt lat="47.04064" lon="6.82082">
        <ele>1076.6999969482</ele>
        <time>2022-07-03T08:49:58.615Z</time>
      </trkpt>
      <trkpt lat="47.04063" lon="6.82089">
        <ele>1077.1999969482</ele>
        <time>2022-07-03T08:50:09.265Z</time>
      </trkpt>
      <trkpt lat="47.04061" lon="6.82098">
        <ele>1077.7999954224</ele>
        <time>2022-07-03T08:50:22.116Z</time>
      </trkpt>
      <trkpt lat="47.0406" lon="6.82112">
        <ele>1078.5</ele>
        <time>2022-07-03T08:50:38.334Z</time>
      </trkpt>
      <trkpt lat="47.04058" lon="6.82122">
        <ele>1079.1999969482</ele>
        <time>2022-07-03T08:50:53.245Z</time>
      </trkpt>
      <trkpt lat="47.04055" lon="6.82136">
        <ele>1080.0999984741</ele>
        <time>2022-07-03T08:51:12.647Z</time>
      </trkpt>
      <trkpt lat="47.04053" lon="6.82146">
        <ele>1080.6999969482</ele>
        <time>2022-07-03T08:51:25.797Z</time>
      </trkpt>
      <trkpt lat="47.04053" lon="6.82156">
        <ele>1081.5</ele>
        <time>2022-07-03T08:51:43.272Z</time>
      </trkpt>
      <trkpt lat="47.04054" lon="6.8217">
        <ele>1082.3999938965</ele>
        <time>2022-07-03T08:52:02.555Z</time>
      </trkpt>
      <trkpt lat="47.04057" lon="6.82189">
        <ele>1083.5</ele>
        <time>2022-07-03T08:52:26.769Z</time>
      </trkpt>
      <trkpt lat="47.04056" lon="6.82197">
        <ele>1084.0999984741</ele>
        <time>2022-07-03T08:52:39.595Z</time>
      </trkpt>
      <trkpt lat="47.04054" lon="6.82216">
        <ele>1085.0999984741</ele>
        <time>2022-07-03T08:53:02.252Z</time>
      </trkpt>
      <trkpt lat="47.0405" lon="6.82237">
        <ele>1085.6999969482</ele>
        <time>2022-07-03T08:53:21.605Z</time>
      </trkpt>
      <trkpt lat="47.04042" lon="6.82262">
        <ele>1086.6999969482</ele>
        <time>2022-07-03T08:53:49.085Z</time>
      </trkpt>
      <trkpt lat="47.04039" lon="6.82269">
        <ele>1087.0999984741</ele>
        <time>2022-07-03T08:53:58.454Z</time>
      </trkpt>
      <trkpt lat="47.04036" lon="6.82274">
        <ele>1087.2999954224</ele>
        <time>2022-07-03T08:54:04.705Z</time>
      </trkpt>
      <trkpt lat="47.04034" lon="6.82277">
        <ele>1087.3999938965</ele>
        <time>2022-07-03T08:54:08.110Z</time>
      </trkpt>
      <trkpt lat="47.04031" lon="6.82281">
        <ele>1087.6999969482</ele>
        <time>2022-07-03T08:54:15.013Z</time>
      </trkpt>
      <trkpt lat="47.04017" lon="6.82294">
        <ele>1088.5999984741</ele>
        <time>2022-07-03T08:54:39.420Z</time>
      </trkpt>
      <trkpt lat="47.0401" lon="6.823">
        <ele>1089.0999984741</ele>
        <time>2022-07-03T08:54:51.980Z</time>
      </trkpt>
      <trkpt lat="47.04005" lon="6.82303">
        <ele>1089.5</ele>
        <time>2022-07-03T08:55:01.168Z</time>
      </trkpt>
      <trkpt lat="47.04004" lon="6.82305">
        <ele>1089.6999969482</ele>
        <time>2022-07-03T08:55:05.574Z</time>
      </trkpt>
      <trkpt lat="47.04001" lon="6.82311">
        <ele>1089.7999954224</ele>
        <time>2022-07-03T08:55:10.692Z</time>
      </trkpt>
      <trkpt lat="47.03997" lon="6.82326">
        <ele>1090.6999969482</ele>
        <time>2022-07-03T08:55:30.562Z</time>
      </trkpt>
      <trkpt lat="47.03996" lon="6.82334">
        <ele>1091.1999969482</ele>
        <time>2022-07-03T08:55:41.345Z</time>
      </trkpt>
      <trkpt lat="47.03995" lon="6.8234">
        <ele>1091.3999938965</ele>
        <time>2022-07-03T08:55:47.330Z</time>
      </trkpt>
      <trkpt lat="47.03995" lon="6.82351">
        <ele>1091.6999969482</ele>
        <time>2022-07-03T08:55:56.994Z</time>
      </trkpt>
      <trkpt lat="47.03995" lon="6.82363">
        <ele>1092.0999984741</ele>
        <time>2022-07-03T08:56:08.605Z</time>
      </trkpt>
      <trkpt lat="47.03997" lon="6.82376">
        <ele>1092.5</ele>
        <time>2022-07-03T08:56:21.071Z</time>
      </trkpt>
      <trkpt lat="47.04" lon="6.82386">
        <ele>1092.7999954224</ele>
        <time>2022-07-03T08:56:30.774Z</time>
      </trkpt>
      <trkpt lat="47.04006" lon="6.82396">
        <ele>1093.5</ele>
        <time>2022-07-03T08:56:46.556Z</time>
      </trkpt>
      <trkpt lat="47.04018" lon="6.82412">
        <ele>1094.3999938965</ele>
        <time>2022-07-03T08:57:10.699Z</time>
      </trkpt>
      <trkpt lat="47.04033" lon="6.82428">
        <ele>1095.5</ele>
        <time>2022-07-03T08:57:39.001Z</time>
      </trkpt>
      <trkpt lat="47.04038" lon="6.82436">
        <ele>1096</ele>
        <time>2022-07-03T08:57:50.957Z</time>
      </trkpt>
      <trkpt lat="47.04041" lon="6.82443">
        <ele>1096.3999938965</ele>
        <time>2022-07-03T08:58:00.289Z</time>
      </trkpt>
      <trkpt lat="47.04043" lon="6.82452">
        <ele>1096.6999969482</ele>
        <time>2022-07-03T08:58:09.339Z</time>
      </trkpt>
      <trkpt lat="47.04046" lon="6.82471">
        <ele>1097.8999938965</ele>
        <time>2022-07-03T08:58:35.216Z</time>
      </trkpt>
      <trkpt lat="47.0405" lon="6.82483">
        <ele>1098.5999984741</ele>
        <time>2022-07-03T08:58:50.993Z</time>
      </trkpt>
      <trkpt lat="47.04056" lon="6.82492">
        <ele>1099.1999969482</ele>
        <time>2022-07-03T08:59:05.122Z</time>
      </trkpt>
      <trkpt lat="47.04062" lon="6.82498">
        <ele>1099.5999984741</ele>
        <time>2022-07-03T08:59:15.918Z</time>
      </trkpt>
      <trkpt lat="47.04078" lon="6.8251">
        <ele>1100.8999938965</ele>
        <time>2022-07-03T08:59:46.069Z</time>
      </trkpt>
      <trkpt lat="47.04091" lon="6.8252">
        <ele>1102.0999984741</ele>
        <time>2022-07-03T09:00:12.612Z</time>
      </trkpt>
      <trkpt lat="47.04095" lon="6.82523">
        <ele>1102.5999984741</ele>
        <time>2022-07-03T09:00:23.380Z</time>
      </trkpt>
      <trkpt lat="47.04099" lon="6.82528">
        <ele>1103.0999984741</ele>
        <time>2022-07-03T09:00:34.060Z</time>
      </trkpt>
      <trkpt lat="47.04103" lon="6.82534">
        <ele>1103.6999969482</ele>
        <time>2022-07-03T09:00:46.853Z</time>
      </trkpt>
      <trkpt lat="47.04106" lon="6.82543">
        <ele>1104.6999969482</ele>
        <time>2022-07-03T09:01:08.533Z</time>
      </trkpt>
      <trkpt lat="47.04111" lon="6.82555">
        <ele>1105.8999938965</ele>
        <time>2022-07-03T09:01:35.531Z</time>
      </trkpt>
      <trkpt lat="47.04117" lon="6.82566">
        <ele>1106.3999938965</ele>
        <time>2022-07-03T09:01:49.461Z</time>
      </trkpt>
      <trkpt lat="47.04125" lon="6.82576">
        <ele>1106.8999938965</ele>
        <time>2022-07-03T09:02:04.280Z</time>
      </trkpt>
      <trkpt lat="47.04142" lon="6.82593">
        <ele>1109.1999969482</ele>
        <time>2022-07-03T09:02:53.779Z</time>
      </trkpt>
      <trkpt lat="47.0416" lon="6.82611">
        <ele>1111.2999954224</ele>
        <time>2022-07-03T09:03:38.599Z</time>
      </trkpt>
      <trkpt lat="47.04174" lon="6.82622">
        <ele>1112.5</ele>
        <time>2022-07-03T09:04:05.924Z</time>
      </trkpt>
      <trkpt lat="47.04194" lon="6.82637">
        <ele>1114.1999969482</ele>
        <time>2022-07-03T09:04:44.582Z</time>
      </trkpt>
      <trkpt lat="47.04241" lon="6.82678">
        <ele>1117.2999954224</ele>
        <time>2022-07-03T09:06:06.489Z</time>
      </trkpt>
      <trkpt lat="47.04284" lon="6.82712">
        <ele>1120</ele>
        <time>2022-07-03T09:07:18.939Z</time>
      </trkpt>
      <trkpt lat="47.04299" lon="6.82725">
        <ele>1121.1999969482</ele>
        <time>2022-07-03T09:07:47.408Z</time>
      </trkpt>
      <trkpt lat="47.04312" lon="6.82739">
        <ele>1122.5</ele>
        <time>2022-07-03T09:08:16.293Z</time>
      </trkpt>
      <trkpt lat="47.04323" lon="6.82748">
        <ele>1123.2999954224</ele>
        <time>2022-07-03T09:08:36.057Z</time>
      </trkpt>
      <trkpt lat="47.04328" lon="6.82752">
        <ele>1123.6999969482</ele>
        <time>2022-07-03T09:08:45.505Z</time>
      </trkpt>
      <trkpt lat="47.04342" lon="6.82758">
        <ele>1125</ele>
        <time>2022-07-03T09:09:13.575Z</time>
      </trkpt>
      <trkpt lat="47.04352" lon="6.82762">
        <ele>1125.6999969482</ele>
        <time>2022-07-03T09:09:30.365Z</time>
      </trkpt>
      <trkpt lat="47.04357" lon="6.82765">
        <ele>1126.0999984741</ele>
        <time>2022-07-03T09:09:39.518Z</time>
      </trkpt>
      <trkpt lat="47.04381" lon="6.82785">
        <ele>1127.2999954224</ele>
        <time>2022-07-03T09:10:17.095Z</time>
      </trkpt>
      <trkpt lat="47.04422" lon="6.82816">
        <ele>1129.1999969482</ele>
        <time>2022-07-03T09:11:17.760Z</time>
      </trkpt>
      <trkpt lat="47.04442" lon="6.82827">
        <ele>1130</ele>
        <time>2022-07-03T09:11:44.399Z</time>
      </trkpt>
      <trkpt lat="47.04463" lon="6.82837">
        <ele>1130.7999954224</ele>
        <time>2022-07-03T09:12:11.475Z</time>
      </trkpt>
      <trkpt lat="47.04505" lon="6.8286">
        <ele>1133.2999954224</ele>
        <time>2022-07-03T09:13:18.170Z</time>
      </trkpt>
      <trkpt lat="47.04537" lon="6.82875">
        <ele>1135.5</ele>
        <time>2022-07-03T09:14:11.705Z</time>
      </trkpt>
      <trkpt lat="47.04564" lon="6.82889">
        <ele>1137.3999938965</ele>
        <time>2022-07-03T09:14:57.619Z</time>
      </trkpt>
      <trkpt lat="47.04577" lon="6.82897">
        <ele>1138.1999969482</ele>
        <time>2022-07-03T09:15:18.740Z</time>
      </trkpt>
      <trkpt lat="47.04589" lon="6.82906">
        <ele>1139</ele>
        <time>2022-07-03T09:15:39.294Z</time>
      </trkpt>
      <trkpt lat="47.04621" lon="6.82932">
        <ele>1140.8999938965</ele>
        <time>2022-07-03T09:16:32.364Z</time>
      </trkpt>
      <trkpt lat="47.04663" lon="6.82968">
        <ele>1143.6999969482</ele>
        <time>2022-07-03T09:17:45.661Z</time>
      </trkpt>
      <trkpt lat="47.04683" lon="6.82983">
        <ele>1145.2999954224</ele>
        <time>2022-07-03T09:18:23.068Z</time>
      </trkpt>
      <trkpt lat="47.04694" lon="6.82993">
        <ele>1146.0999984741</ele>
        <time>2022-07-03T09:18:43.111Z</time>
      </trkpt>
      <trkpt lat="47.04725" lon="6.83024">
        <ele>1148.5</ele>
        <time>2022-07-03T09:19:42.252Z</time>
      </trkpt>
      <trkpt lat="47.04739" lon="6.83037">
        <ele>1149.5</ele>
        <time>2022-07-03T09:20:07.714Z</time>
      </trkpt>
      <trkpt lat="47.04745" lon="6.83044">
        <ele>1150</ele>
        <time>2022-07-03T09:20:19.905Z</time>
      </trkpt>
      <trkpt lat="47.04752" lon="6.83054">
        <ele>1150.5999984741</ele>
        <time>2022-07-03T09:20:35.037Z</time>
      </trkpt>
      <trkpt lat="47.04764" lon="6.83074">
        <ele>1151.5</ele>
        <time>2022-07-03T09:21:00.954Z</time>
      </trkpt>
      <trkpt lat="47.04801" lon="6.83124">
        <ele>1154.3999938965</ele>
        <time>2022-07-03T09:22:16.759Z</time>
      </trkpt>
      <trkpt lat="47.04812" lon="6.83138">
        <ele>1155.5</ele>
        <time>2022-07-03T09:22:41.856Z</time>
      </trkpt>
      <trkpt lat="47.04816" lon="6.83143">
        <ele>1156</ele>
        <time>2022-07-03T09:22:52.536Z</time>
      </trkpt>
      <trkpt lat="47.04833" lon="6.83156">
        <ele>1157.7999954224</ele>
        <time>2022-07-03T09:23:31.065Z</time>
      </trkpt>
      <trkpt lat="47.04846" lon="6.83166">
        <ele>1159.2999954224</ele>
        <time>2022-07-03T09:24:03.010Z</time>
      </trkpt>
      <trkpt lat="47.04862" lon="6.83177">
        <ele>1161</ele>
        <time>2022-07-03T09:24:39.300Z</time>
      </trkpt>
      <trkpt lat="47.04897" lon="6.83194">
        <ele>1164.5</ele>
        <time>2022-07-03T09:25:54.125Z</time>
      </trkpt>
      <trkpt lat="47.04907" lon="6.832">
        <ele>1165.6999969482</ele>
        <time>2022-07-03T09:26:19.901Z</time>
      </trkpt>
      <trkpt lat="47.04955" lon="6.83228">
        <ele>1170.8999938965</ele>
        <time>2022-07-03T09:28:10.639Z</time>
      </trkpt>
      <trkpt lat="47.04962" lon="6.83232">
        <ele>1171.6999969482</ele>
        <time>2022-07-03T09:28:27.712Z</time>
      </trkpt>
      <trkpt lat="47.04983" lon="6.83239">
        <ele>1174</ele>
        <time>2022-07-03T09:29:16.835Z</time>
      </trkpt>
      <trkpt lat="47.05006" lon="6.83251">
        <ele>1176.3999938965</ele>
        <time>2022-07-03T09:30:07.987Z</time>
      </trkpt>
      <trkpt lat="47.05024" lon="6.83261">
        <ele>1178.3999938965</ele>
        <time>2022-07-03T09:30:50.609Z</time>
      </trkpt>
      <trkpt lat="47.05036" lon="6.83265">
        <ele>1179.7999954224</ele>
        <time>2022-07-03T09:31:20.895Z</time>
      </trkpt>
      <trkpt lat="47.05047" lon="6.83268">
        <ele>1180.8999938965</ele>
        <time>2022-07-03T09:31:44.340Z</time>
      </trkpt>
      <trkpt lat="47.05059" lon="6.83275">
        <ele>1182.1999969482</ele>
        <time>2022-07-03T09:32:12.024Z</time>
      </trkpt>
      <trkpt lat="47.05081" lon="6.83292">
        <ele>1184.7999954224</ele>
        <time>2022-07-03T09:33:07.444Z</time>
      </trkpt>
      <trkpt lat="47.05116" lon="6.83315">
        <ele>1188.6999969482</ele>
        <time>2022-07-03T09:34:30.494Z</time>
      </trkpt>
      <trkpt lat="47.05134" lon="6.83329">
        <ele>1190.7999954224</ele>
        <time>2022-07-03T09:35:15.229Z</time>
      </trkpt>
      <trkpt lat="47.05151" lon="6.83343">
        <ele>1192.7999954224</ele>
        <time>2022-07-03T09:35:57.829Z</time>
      </trkpt>
      <trkpt lat="47.05171" lon="6.83362">
        <ele>1195.3999938965</ele>
        <time>2022-07-03T09:36:53.516Z</time>
      </trkpt>
      <trkpt lat="47.0518" lon="6.83371">
        <ele>1196.5999984741</ele>
        <time>2022-07-03T09:37:19.256Z</time>
      </trkpt>
      <trkpt lat="47.05187" lon="6.83379">
        <ele>1197.5</ele>
        <time>2022-07-03T09:37:38.422Z</time>
      </trkpt>
      <trkpt lat="47.05198" lon="6.83388">
        <ele>1198.6999969482</ele>
        <time>2022-07-03T09:38:04.067Z</time>
      </trkpt>
      <trkpt lat="47.05209" lon="6.83396">
        <ele>1199.5999984741</ele>
        <time>2022-07-03T09:38:24.837Z</time>
      </trkpt>
      <trkpt lat="47.05223" lon="6.83409">
        <ele>1200.5999984741</ele>
        <time>2022-07-03T09:38:50.299Z</time>
      </trkpt>
      <trkpt lat="47.05239" lon="6.83423">
        <ele>1201.6999969482</ele>
        <time>2022-07-03T09:39:18.665Z</time>
      </trkpt>
      <trkpt lat="47.05253" lon="6.83436">
        <ele>1202.7999954224</ele>
        <time>2022-07-03T09:39:45.254Z</time>
      </trkpt>
      <trkpt lat="47.05257" lon="6.8344">
        <ele>1203.0999984741</ele>
        <time>2022-07-03T09:39:52.773Z</time>
      </trkpt>
      <trkpt lat="47.05261" lon="6.83445">
        <ele>1203.3999938965</ele>
        <time>2022-07-03T09:40:00.636Z</time>
      </trkpt>
      <trkpt lat="47.05276" lon="6.83468">
        <ele>1205</ele>
        <time>2022-07-03T09:40:37.409Z</time>
      </trkpt>
      <trkpt lat="47.05289" lon="6.83492">
        <ele>1206.6999969482</ele>
        <time>2022-07-03T09:41:15.078Z</time>
      </trkpt>
      <trkpt lat="47.053" lon="6.83511">
        <ele>1208</ele>
        <time>2022-07-03T09:41:44.549Z</time>
      </trkpt>
      <trkpt lat="47.05315" lon="6.83531">
        <ele>1209.6999969482</ele>
        <time>2022-07-03T09:42:21.825Z</time>
      </trkpt>
      <trkpt lat="47.05341" lon="6.83559">
        <ele>1213.5999984741</ele>
        <time>2022-07-03T09:43:48.056Z</time>
      </trkpt>
      <trkpt lat="47.0536" lon="6.83582">
        <ele>1216.0999984741</ele>
        <time>2022-07-03T09:44:41.294Z</time>
      </trkpt>
      <trkpt lat="47.05384" lon="6.83613">
        <ele>1220.6999969482</ele>
        <time>2022-07-03T09:46:22.369Z</time>
      </trkpt>
      <trkpt lat="47.05416" lon="6.83653">
        <ele>1226.1999969482</ele>
        <time>2022-07-03T09:48:30.391Z</time>
      </trkpt>
      <trkpt lat="47.05425" lon="6.83662">
        <ele>1227.5999984741</ele>
        <time>2022-07-03T09:49:02.469Z</time>
      </trkpt>
      <trkpt lat="47.05429" lon="6.83667">
        <ele>1228.1999969482</ele>
        <time>2022-07-03T09:49:15.480Z</time>
      </trkpt>
      <trkpt lat="47.05431" lon="6.83671">
        <ele>1228.3999938965</ele>
        <time>2022-07-03T09:49:20.659Z</time>
      </trkpt>
      <trkpt lat="47.05436" lon="6.8368">
        <ele>1228.8999938965</ele>
        <time>2022-07-03T09:49:33.011Z</time>
      </trkpt>
      <trkpt lat="47.05439" lon="6.83689">
        <ele>1229.3999938965</ele>
        <time>2022-07-03T09:49:44.570Z</time>
      </trkpt>
      <trkpt lat="47.05464" lon="6.83754">
        <ele>1233.2999954224</ele>
        <time>2022-07-03T09:51:12.829Z</time>
      </trkpt>
      <trkpt lat="47.05479" lon="6.83791">
        <ele>1236.7999954224</ele>
        <time>2022-07-03T09:52:29.859Z</time>
      </trkpt>
      <trkpt lat="47.05481" lon="6.838">
        <ele>1237.5999984741</ele>
        <time>2022-07-03T09:52:47.725Z</time>
      </trkpt>
      <trkpt lat="47.05482" lon="6.83806">
        <ele>1238.0999984741</ele>
        <time>2022-07-03T09:52:58.665Z</time>
      </trkpt>
      <trkpt lat="47.05482" lon="6.83811">
        <ele>1238.3999938965</ele>
        <time>2022-07-03T09:53:05.165Z</time>
      </trkpt>
      <trkpt lat="47.05481" lon="6.83821">
        <ele>1239.0999984741</ele>
        <time>2022-07-03T09:53:20.072Z</time>
      </trkpt>
      <trkpt lat="47.05472" lon="6.83879">
        <ele>1243.2999954224</ele>
        <time>2022-07-03T09:54:49.565Z</time>
      </trkpt>
      <trkpt lat="47.05472" lon="6.8389">
        <ele>1244.2999954224</ele>
        <time>2022-07-03T09:55:13.131Z</time>
      </trkpt>
      <trkpt lat="47.05476" lon="6.83926">
        <ele>1248</ele>
        <time>2022-07-03T09:56:31.660Z</time>
      </trkpt>
      <trkpt lat="47.05479" lon="6.83944">
        <ele>1249.1999969482</ele>
        <time>2022-07-03T09:56:57.310Z</time>
      </trkpt>
      <trkpt lat="47.0548" lon="6.83954">
        <ele>1249.7999954224</ele>
        <time>2022-07-03T09:57:10.342Z</time>
      </trkpt>
      <trkpt lat="47.05485" lon="6.83972">
        <ele>1251.1999969482</ele>
        <time>2022-07-03T09:57:40.218Z</time>
      </trkpt>
      <trkpt lat="47.05491" lon="6.8399">
        <ele>1253</ele>
        <time>2022-07-03T09:58:22.401Z</time>
      </trkpt>
      <trkpt lat="47.05499" lon="6.84029">
        <ele>1257.1999969482</ele>
        <time>2022-07-03T09:59:50.090Z</time>
      </trkpt>
      <trkpt lat="47.05501" lon="6.84038">
        <ele>1258.5999984741</ele>
        <time>2022-07-03T10:00:10.612Z</time>
      </trkpt>
      <trkpt lat="47.05505" lon="6.84047">
        <ele>1260.1999969482</ele>
        <time>2022-07-03T10:00:33.663Z</time>
      </trkpt>
      <trkpt lat="47.05512" lon="6.84056">
        <ele>1261.5999984741</ele>
        <time>2022-07-03T10:01:03.215Z</time>
      </trkpt>
      <trkpt lat="47.05529" lon="6.84076">
        <ele>1263.5999984741</ele>
        <time>2022-07-03T10:01:46.180Z</time>
      </trkpt>
      <trkpt lat="47.05526" lon="6.84084">
        <ele>1264.0999984741</ele>
        <time>2022-07-03T10:01:57.331Z</time>
      </trkpt>
      <trkpt lat="47.05525" lon="6.84087">
        <ele>1264.5</ele>
        <time>2022-07-03T10:02:04.435Z</time>
      </trkpt>
      <trkpt lat="47.05523" lon="6.84093">
        <ele>1265.2999954224</ele>
        <time>2022-07-03T10:02:18.887Z</time>
      </trkpt>
      <trkpt lat="47.05521" lon="6.84102">
        <ele>1266.2999954224</ele>
        <time>2022-07-03T10:02:39.227Z</time>
      </trkpt>
      <trkpt lat="47.0552" lon="6.84111">
        <ele>1267.2999954224</ele>
        <time>2022-07-03T10:02:58.742Z</time>
      </trkpt>
      <trkpt lat="47.0552" lon="6.84119">
        <ele>1268</ele>
        <time>2022-07-03T10:03:14.756Z</time>
      </trkpt>
      <trkpt lat="47.05521" lon="6.84127">
        <ele>1268.7999954224</ele>
        <time>2022-07-03T10:03:32.316Z</time>
      </trkpt>
      <trkpt lat="47.05523" lon="6.84149">
        <ele>1270.5999984741</ele>
        <time>2022-07-03T10:04:11.889Z</time>
      </trkpt>
      <trkpt lat="47.05525" lon="6.84175">
        <ele>1272.2999954224</ele>
        <time>2022-07-03T10:04:48.219Z</time>
      </trkpt>
      <trkpt lat="47.0553" lon="6.842">
        <ele>1273.8999938965</ele>
        <time>2022-07-03T10:05:22.707Z</time>
      </trkpt>
      <trkpt lat="47.05535" lon="6.84225">
        <ele>1276.5</ele>
        <time>2022-07-03T10:06:18.946Z</time>
      </trkpt>
      <trkpt lat="47.05545" lon="6.84262">
        <ele>1280.2999954224</ele>
        <time>2022-07-03T10:07:44.625Z</time>
      </trkpt>
      <trkpt lat="47.05569" lon="6.84341">
        <ele>1288.3999938965</ele>
        <time>2022-07-03T10:10:50.701Z</time>
      </trkpt>
      <trkpt lat="47.05575" lon="6.84364">
        <ele>1290.3999938965</ele>
        <time>2022-07-03T10:11:34.697Z</time>
      </trkpt>
      <trkpt lat="47.05583" lon="6.84391">
        <ele>1293.2999954224</ele>
        <time>2022-07-03T10:12:38.185Z</time>
      </trkpt>
      <trkpt lat="47.05592" lon="6.84423">
        <ele>1296.0999984741</ele>
        <time>2022-07-03T10:13:39.620Z</time>
      </trkpt>
      <trkpt lat="47.05604" lon="6.84462">
        <ele>1300</ele>
        <time>2022-07-03T10:15:11.621Z</time>
      </trkpt>
      <trkpt lat="47.05617" lon="6.84505">
        <ele>1304.1999969482</ele>
        <time>2022-07-03T10:16:49.449Z</time>
      </trkpt>
      <trkpt lat="47.05629" lon="6.84547">
        <ele>1308.0999984741</ele>
        <time>2022-07-03T10:18:17.619Z</time>
      </trkpt>
      <trkpt lat="47.05633" lon="6.84562">
        <ele>1309.5</ele>
        <time>2022-07-03T10:18:49.605Z</time>
      </trkpt>
      <trkpt lat="47.05635" lon="6.84572">
        <ele>1310.2999954224</ele>
        <time>2022-07-03T10:19:06.875Z</time>
      </trkpt>
      <trkpt lat="47.05636" lon="6.84584">
        <ele>1311</ele>
        <time>2022-07-03T10:19:22.217Z</time>
      </trkpt>
      <trkpt lat="47.05634" lon="6.84592">
        <ele>1311.5</ele>
        <time>2022-07-03T10:19:33.089Z</time>
      </trkpt>
      <trkpt lat="47.05632" lon="6.84601">
        <ele>1312.2999954224</ele>
        <time>2022-07-03T10:19:51.045Z</time>
      </trkpt>
      <trkpt lat="47.0563" lon="6.84606">
        <ele>1312.7999954224</ele>
        <time>2022-07-03T10:20:02.418Z</time>
      </trkpt>
      <trkpt lat="47.05629" lon="6.84612">
        <ele>1313.5</ele>
        <time>2022-07-03T10:20:15.887Z</time>
      </trkpt>
      <trkpt lat="47.05628" lon="6.8462">
        <ele>1314</ele>
        <time>2022-07-03T10:20:26.637Z</time>
      </trkpt>
      <trkpt lat="47.05629" lon="6.84629">
        <ele>1314.5</ele>
        <time>2022-07-03T10:20:37.779Z</time>
      </trkpt>
      <trkpt lat="47.05629" lon="6.84635">
        <ele>1314.8999938965</ele>
        <time>2022-07-03T10:20:46.301Z</time>
      </trkpt>
      <trkpt lat="47.05632" lon="6.84652">
        <ele>1315.8999938965</ele>
        <time>2022-07-03T10:21:08.292Z</time>
      </trkpt>
      <trkpt lat="47.05637" lon="6.84677">
        <ele>1317.5</ele>
        <time>2022-07-03T10:21:42.780Z</time>
      </trkpt>
      <trkpt lat="47.05641" lon="6.847">
        <ele>1318.6999969482</ele>
        <time>2022-07-03T10:22:10.297Z</time>
      </trkpt>
      <trkpt lat="47.05643" lon="6.84718">
        <ele>1319.5</ele>
        <time>2022-07-03T10:22:29.946Z</time>
      </trkpt>
      <trkpt lat="47.05645" lon="6.84741">
        <ele>1320.6999969482</ele>
        <time>2022-07-03T10:22:57.212Z</time>
      </trkpt>
      <trkpt lat="47.05646" lon="6.84771">
        <ele>1322.2999954224</ele>
        <time>2022-07-03T10:23:33.155Z</time>
      </trkpt>
      <trkpt lat="47.05647" lon="6.84787">
        <ele>1322.8999938965</ele>
        <time>2022-07-03T10:23:49.370Z</time>
      </trkpt>
      <trkpt lat="47.05651" lon="6.84804">
        <ele>1323.5</ele>
        <time>2022-07-03T10:24:06.773Z</time>
      </trkpt>
      <trkpt lat="47.05652" lon="6.84811">
        <ele>1323.6999969482</ele>
        <time>2022-07-03T10:24:13.205Z</time>
      </trkpt>
      <trkpt lat="47.05653" lon="6.84812">
        <ele>1323.6999969482</ele>
        <time>2022-07-03T10:24:14.164Z</time>
      </trkpt>
      <trkpt lat="47.05654" lon="6.84817">
        <ele>1323.8999938965</ele>
        <time>2022-07-03T10:24:19.445Z</time>
      </trkpt>
      <trkpt lat="47.05654" lon="6.84829">
        <ele>1324.2999954224</ele>
        <time>2022-07-03T10:24:31.056Z</time>
      </trkpt>
      <trkpt lat="47.05658" lon="6.84866">
        <ele>1325.6999969482</ele>
        <time>2022-07-03T10:25:08.849Z</time>
      </trkpt>
      <trkpt lat="47.0566" lon="6.84907">
        <ele>1327.0999984741</ele>
        <time>2022-07-03T10:25:48.981Z</time>
      </trkpt>
      <trkpt lat="47.05661" lon="6.84954">
        <ele>1328.5999984741</ele>
        <time>2022-07-03T10:26:33.909Z</time>
      </trkpt>
      <trkpt lat="47.05661" lon="6.84967">
        <ele>1329.1999969482</ele>
        <time>2022-07-03T10:26:48.277Z</time>
      </trkpt>
      <trkpt lat="47.05661" lon="6.84984">
        <ele>1330</ele>
        <time>2022-07-03T10:27:07.222Z</time>
      </trkpt>
      <trkpt lat="47.0566" lon="6.84997">
        <ele>1330.8999938965</ele>
        <time>2022-07-03T10:27:26.387Z</time>
      </trkpt>
      <trkpt lat="47.05657" lon="6.85008">
        <ele>1331.7999954224</ele>
        <time>2022-07-03T10:27:45.719Z</time>
      </trkpt>
      <trkpt lat="47.05652" lon="6.85022">
        <ele>1332.6999969482</ele>
        <time>2022-07-03T10:28:05.484Z</time>
      </trkpt>
      <trkpt lat="47.05635" lon="6.85054">
        <ele>1334.2999954224</ele>
        <time>2022-07-03T10:28:47.194Z</time>
      </trkpt>
      <trkpt lat="47.05628" lon="6.85069">
        <ele>1334.5</ele>
        <time>2022-07-03T10:28:59.149Z</time>
      </trkpt>
      <trkpt lat="47.05601" lon="6.85143">
        <ele>1335.7999954224</ele>
        <time>2022-07-03T10:29:58.295Z</time>
      </trkpt>
      <trkpt lat="47.05583" lon="6.85186">
        <ele>1335.2999954224</ele>
        <time>2022-07-03T10:30:08.527Z</time>
      </trkpt>
      <trkpt lat="47.05568" lon="6.85225">
        <ele>1332.8999938965</ele>
        <time>2022-07-03T10:30:14.521Z</time>
      </trkpt>
      <trkpt lat="47.05563" lon="6.85244">
        <ele>1332.0999984741</ele>
        <time>2022-07-03T10:30:17.206Z</time>
      </trkpt>
      <trkpt lat="47.05561" lon="6.85256">
        <ele>1331.8999938965</ele>
        <time>2022-07-03T10:30:19.444Z</time>
      </trkpt>
      <trkpt lat="47.05561" lon="6.85262">
        <ele>1331.7999954224</ele>
        <time>2022-07-03T10:30:20.509Z</time>
      </trkpt>
      <trkpt lat="47.05562" lon="6.85279">
        <ele>1331.6999969482</ele>
        <time>2022-07-03T10:30:24.269Z</time>
      </trkpt>
      <trkpt lat="47.05565" lon="6.85293">
        <ele>1331.5999984741</ele>
        <time>2022-07-03T10:30:27.409Z</time>
      </trkpt>
      <trkpt lat="47.05577" lon="6.85338">
        <ele>1331.2999954224</ele>
        <time>2022-07-03T10:30:37.924Z</time>
      </trkpt>
      <trkpt lat="47.05587" lon="6.85375">
        <ele>1331.2999954224</ele>
        <time>2022-07-03T10:31:00.137Z</time>
      </trkpt>
      <trkpt lat="47.05592" lon="6.85398">
        <ele>1331.2999954224</ele>
        <time>2022-07-03T10:31:13.591Z</time>
      </trkpt>
      <trkpt lat="47.05597" lon="6.85439">
        <ele>1331.1999969482</ele>
        <time>2022-07-03T10:31:35.644Z</time>
      </trkpt>
      <trkpt lat="47.05601" lon="6.8547">
        <ele>1331.5</ele>
        <time>2022-07-03T10:31:55.844Z</time>
      </trkpt>
      <trkpt lat="47.05602" lon="6.8548">
        <ele>1331.6999969482</ele>
        <time>2022-07-03T10:32:03.528Z</time>
      </trkpt>
      <trkpt lat="47.05602" lon="6.85492">
        <ele>1331.8999938965</ele>
        <time>2022-07-03T10:32:12.146Z</time>
      </trkpt>
      <trkpt lat="47.05602" lon="6.855">
        <ele>1331.7999954224</ele>
        <time>2022-07-03T10:32:13.701Z</time>
      </trkpt>
      <trkpt lat="47.056" lon="6.85514">
        <ele>1331.6999969482</ele>
        <time>2022-07-03T10:32:16.758Z</time>
      </trkpt>
      <trkpt lat="47.05599" lon="6.85525">
        <ele>1331.6999969482</ele>
        <time>2022-07-03T10:32:22.980Z</time>
      </trkpt>
      <trkpt lat="47.05597" lon="6.85537">
        <ele>1331.5999984741</ele>
        <time>2022-07-03T10:32:25.571Z</time>
      </trkpt>
      <trkpt lat="47.05596" lon="6.85544">
        <ele>1331.5</ele>
        <time>2022-07-03T10:32:26.920Z</time>
      </trkpt>
      <trkpt lat="47.05593" lon="6.85552">
        <ele>1331.2999954224</ele>
        <time>2022-07-03T10:32:28.426Z</time>
      </trkpt>
      <trkpt lat="47.0559" lon="6.85558">
        <ele>1331.0999984741</ele>
        <time>2022-07-03T10:32:29.579Z</time>
      </trkpt>
      <trkpt lat="47.05586" lon="6.85563">
        <ele>1330.8999938965</ele>
        <time>2022-07-03T10:32:30.780Z</time>
      </trkpt>
      <trkpt lat="47.05581" lon="6.85569">
        <ele>1330.5999984741</ele>
        <time>2022-07-03T10:32:32.169Z</time>
      </trkpt>
      <trkpt lat="47.05575" lon="6.85575">
        <ele>1330.1999969482</ele>
        <time>2022-07-03T10:32:33.599Z</time>
      </trkpt>
      <trkpt lat="47.05568" lon="6.8558">
        <ele>1329.8999938965</ele>
        <time>2022-07-03T10:32:35.372Z</time>
      </trkpt>
      <trkpt lat="47.05563" lon="6.85584">
        <ele>1329.6999969482</ele>
        <time>2022-07-03T10:32:36.724Z</time>
      </trkpt>
      <trkpt lat="47.0556" lon="6.85588">
        <ele>1329.3999938965</ele>
        <time>2022-07-03T10:32:37.511Z</time>
      </trkpt>
      <trkpt lat="47.05558" lon="6.85595">
        <ele>1329.0999984741</ele>
        <time>2022-07-03T10:32:38.510Z</time>
      </trkpt>
      <trkpt lat="47.05557" lon="6.85602">
        <ele>1328.8999938965</ele>
        <time>2022-07-03T10:32:39.599Z</time>
      </trkpt>
      <trkpt lat="47.05553" lon="6.85603">
        <ele>1329</ele>
        <time>2022-07-03T10:32:43.865Z</time>
      </trkpt>
      <trkpt lat="47.0555" lon="6.85607">
        <ele>1329.0999984741</ele>
        <time>2022-07-03T10:32:48.168Z</time>
      </trkpt>
      <trkpt lat="47.05537" lon="6.85599">
        <ele>1329.7999954224</ele>
        <time>2022-07-03T10:33:08.310Z</time>
      </trkpt>
      <trkpt lat="47.05532" lon="6.85597">
        <ele>1330.0999984741</ele>
        <time>2022-07-03T10:33:16.108Z</time>
      </trkpt>
      <trkpt lat="47.05528" lon="6.85596">
        <ele>1330.5</ele>
        <time>2022-07-03T10:33:24.639Z</time>
      </trkpt>
      <trkpt lat="47.05528" lon="6.85594">
        <ele>1330.5999984741</ele>
        <time>2022-07-03T10:33:26.931Z</time>
      </trkpt>
      <trkpt lat="47.05531" lon="6.85586">
        <ele>1332.0999984741</ele>
        <time>2022-07-03T10:33:46.481Z</time>
      </trkpt>
      <trkpt lat="47.05533" lon="6.85582">
        <ele>1333.2999954224</ele>
        <time>2022-07-03T10:33:57.427Z</time>
      </trkpt>
      <trkpt lat="47.05534" lon="6.85578">
        <ele>1334.1999969482</ele>
        <time>2022-07-03T10:34:06.482Z</time>
      </trkpt>
      <trkpt lat="47.0554" lon="6.85569">
        <ele>1337.0999984741</ele>
        <time>2022-07-03T10:34:33.565Z</time>
      </trkpt>
      <trkpt lat="47.0554" lon="6.85566">
        <ele>1338.1999969482</ele>
        <time>2022-07-03T10:34:40.080Z</time>
      </trkpt>
      <trkpt lat="47.05542" lon="6.85565">
        <ele>1338.8999938965</ele>
        <time>2022-07-03T10:34:46.909Z</time>
      </trkpt>
      <trkpt lat="47.05542" lon="6.85563">
        <ele>1339.3999938965</ele>
        <time>2022-07-03T10:34:51.158Z</time>
      </trkpt>
      <trkpt lat="47.05543" lon="6.85563">
        <ele>1339.6999969482</ele>
        <time>2022-07-03T10:34:54.284Z</time>
      </trkpt>
      <trkpt lat="47.05544" lon="6.85561">
        <ele>1340.0999984741</ele>
        <time>2022-07-03T10:34:59.559Z</time>
      </trkpt>
      <trkpt lat="47.05545" lon="6.8556">
        <ele>1340.6999969482</ele>
        <time>2022-07-03T10:35:03.420Z</time>
      </trkpt>
      <trkpt lat="47.05545" lon="6.85559">
        <ele>1341</ele>
        <time>2022-07-03T10:35:05.403Z</time>
      </trkpt>
      <trkpt lat="47.05545" lon="6.85558">
        <ele>1341.1999969482</ele>
        <time>2022-07-03T10:35:07.687Z</time>
      </trkpt>
      <trkpt lat="47.05544" lon="6.85558">
        <ele>1341.5999984741</ele>
        <time>2022-07-03T10:35:11.096Z</time>
      </trkpt>
      <trkpt lat="47.05541" lon="6.85557">
        <ele>1342.3999938965</ele>
        <time>2022-07-03T10:35:20.744Z</time>
      </trkpt>
      <trkpt lat="47.05539" lon="6.85557">
        <ele>1343</ele>
        <time>2022-07-03T10:35:26.995Z</time>
      </trkpt>
      <trkpt lat="47.05537" lon="6.85556">
        <ele>1343.6999969482</ele>
        <time>2022-07-03T10:35:33.645Z</time>
      </trkpt>
      <trkpt lat="47.05537" lon="6.85555">
        <ele>1344</ele>
        <time>2022-07-03T10:35:35.628Z</time>
      </trkpt>
      <trkpt lat="47.05536" lon="6.85555">
        <ele>1344.3999938965</ele>
        <time>2022-07-03T10:35:38.766Z</time>
      </trkpt>
      <trkpt lat="47.05536" lon="6.85554">
        <ele>1344.6999969482</ele>
        <time>2022-07-03T10:35:40.749Z</time>
      </trkpt>
      <trkpt lat="47.05539" lon="6.8555">
        <ele>1346.0999984741</ele>
        <time>2022-07-03T10:35:53.404Z</time>
      </trkpt>
      <trkpt lat="47.05538" lon="6.85547">
        <ele>1347.0999984741</ele>
        <time>2022-07-03T10:36:00.630Z</time>
      </trkpt>
      <trkpt lat="47.05537" lon="6.85547">
        <ele>1347.5999984741</ele>
        <time>2022-07-03T10:36:03.756Z</time>
      </trkpt>
      <trkpt lat="47.05535" lon="6.85548">
        <ele>1348</ele>
        <time>2022-07-03T10:36:10.314Z</time>
      </trkpt>
      <trkpt lat="47.05533" lon="6.85547">
        <ele>1348.8999938965</ele>
        <time>2022-07-03T10:36:16.963Z</time>
      </trkpt>
      <trkpt lat="47.05531" lon="6.85545">
        <ele>1349.5</ele>
        <time>2022-07-03T10:36:24.522Z</time>
      </trkpt>
      <trkpt lat="47.05531" lon="6.85543">
        <ele>1350</ele>
        <time>2022-07-03T10:36:28.771Z</time>
      </trkpt>
      <trkpt lat="47.0553" lon="6.85543">
        <ele>1350.0999984741</ele>
        <time>2022-07-03T10:36:30.901Z</time>
      </trkpt>
      <trkpt lat="47.0553" lon="6.85544">
        <ele>1350.1999969482</ele>
        <time>2022-07-03T10:36:32.884Z</time>
      </trkpt>
      <trkpt lat="47.05529" lon="6.85544">
        <ele>1350.5999984741</ele>
        <time>2022-07-03T10:36:36.294Z</time>
      </trkpt>
      <trkpt lat="47.05529" lon="6.85543">
        <ele>1350.8999938965</ele>
        <time>2022-07-03T10:36:38.276Z</time>
      </trkpt>
      <trkpt lat="47.0553" lon="6.85542">
        <ele>1351.3999938965</ele>
        <time>2022-07-03T10:36:42.371Z</time>
      </trkpt>
      <trkpt lat="47.0553" lon="6.8554">
        <ele>1352.0999984741</ele>
        <time>2022-07-03T10:36:46.620Z</time>
      </trkpt>
      <trkpt lat="47.0553" lon="6.85538">
        <ele>1352.5</ele>
        <time>2022-07-03T10:36:50.869Z</time>
      </trkpt>
      <trkpt lat="47.05527" lon="6.85537">
        <ele>1353.6999969482</ele>
        <time>2022-07-03T10:37:00.516Z</time>
      </trkpt>
      <trkpt lat="47.05525" lon="6.85536">
        <ele>1354.1999969482</ele>
        <time>2022-07-03T10:37:07.433Z</time>
      </trkpt>
      <trkpt lat="47.05525" lon="6.85535">
        <ele>1354.5999984741</ele>
        <time>2022-07-03T10:37:09.416Z</time>
      </trkpt>
      <trkpt lat="47.05525" lon="6.85534">
        <ele>1354.7999954224</ele>
        <time>2022-07-03T10:37:11.700Z</time>
      </trkpt>
      <trkpt lat="47.05525" lon="6.85533">
        <ele>1355.0999984741</ele>
        <time>2022-07-03T10:37:13.966Z</time>
      </trkpt>
      <trkpt lat="47.05527" lon="6.85531">
        <ele>1355.7999954224</ele>
        <time>2022-07-03T10:37:21.525Z</time>
      </trkpt>
      <trkpt lat="47.05529" lon="6.85529">
        <ele>1356.5999984741</ele>
        <time>2022-07-03T10:37:29.083Z</time>
      </trkpt>
      <trkpt lat="47.05534" lon="6.85526">
        <ele>1357.8999938965</ele>
        <time>2022-07-03T10:37:46.173Z</time>
      </trkpt>
      <trkpt lat="47.05534" lon="6.85525">
        <ele>1358.1999969482</ele>
        <time>2022-07-03T10:37:48.439Z</time>
      </trkpt>
      <trkpt lat="47.05533" lon="6.85523">
        <ele>1359.0999984741</ele>
        <time>2022-07-03T10:37:53.714Z</time>
      </trkpt>
      <trkpt lat="47.05533" lon="6.85521">
        <ele>1359.7999954224</ele>
        <time>2022-07-03T10:37:57.963Z</time>
      </trkpt>
      <trkpt lat="47.05531" lon="6.85521">
        <ele>1360.0999984741</ele>
        <time>2022-07-03T10:38:04.214Z</time>
      </trkpt>
      <trkpt lat="47.0553" lon="6.85521">
        <ele>1360.5</ele>
        <time>2022-07-03T10:38:07.340Z</time>
      </trkpt>
      <trkpt lat="47.05527" lon="6.85521">
        <ele>1361.0999984741</ele>
        <time>2022-07-03T10:38:16.722Z</time>
      </trkpt>
      <trkpt lat="47.0552" lon="6.8552">
        <ele>1362.3999938965</ele>
        <time>2022-07-03T10:38:39.001Z</time>
      </trkpt>
      <trkpt lat="47.05519" lon="6.8552">
        <ele>1362.6999969482</ele>
        <time>2022-07-03T10:38:42.127Z</time>
      </trkpt>
      <trkpt lat="47.05516" lon="6.8552">
        <ele>1363.3999938965</ele>
        <time>2022-07-03T10:38:51.788Z</time>
      </trkpt>
      <trkpt lat="47.05515" lon="6.8552">
        <ele>1363.6999969482</ele>
        <time>2022-07-03T10:38:54.914Z</time>
      </trkpt>
      <trkpt lat="47.05514" lon="6.8552">
        <ele>1364.1999969482</ele>
        <time>2022-07-03T10:38:58.040Z</time>
      </trkpt>
      <trkpt lat="47.05511" lon="6.85519">
        <ele>1365.0999984741</ele>
        <time>2022-07-03T10:39:07.687Z</time>
      </trkpt>
      <trkpt lat="47.05511" lon="6.85517">
        <ele>1365.5999984741</ele>
        <time>2022-07-03T10:39:11.936Z</time>
      </trkpt>
      <trkpt lat="47.05511" lon="6.85515">
        <ele>1366.5</ele>
        <time>2022-07-03T10:39:16.468Z</time>
      </trkpt>
      <trkpt lat="47.05509" lon="6.85513">
        <ele>1367.6999969482</ele>
        <time>2022-07-03T10:39:24.027Z</time>
      </trkpt>
      <trkpt lat="47.05509" lon="6.85512">
        <ele>1367.7999954224</ele>
        <time>2022-07-03T10:39:26.010Z</time>
      </trkpt>
      <trkpt lat="47.0551" lon="6.8551">
        <ele>1368.2999954224</ele>
        <time>2022-07-03T10:39:31.516Z</time>
      </trkpt>
      <trkpt lat="47.05513" lon="6.85509">
        <ele>1368.7999954224</ele>
        <time>2022-07-03T10:39:41.378Z</time>
      </trkpt>
      <trkpt lat="47.05521" lon="6.85498">
        <ele>1371.2999954224</ele>
        <time>2022-07-03T10:40:15.908Z</time>
      </trkpt>
      <trkpt lat="47.05523" lon="6.85495">
        <ele>1372</ele>
        <time>2022-07-03T10:40:24.939Z</time>
      </trkpt>
      <trkpt lat="47.05522" lon="6.85495">
        <ele>1372.1999969482</ele>
        <time>2022-07-03T10:40:28.360Z</time>
      </trkpt>
      <trkpt lat="47.0552" lon="6.85495">
        <ele>1372.6999969482</ele>
        <time>2022-07-03T10:40:34.612Z</time>
      </trkpt>
      <trkpt lat="47.0552" lon="6.85492">
        <ele>1373.1999969482</ele>
        <time>2022-07-03T10:40:41.127Z</time>
      </trkpt>
      <trkpt lat="47.0552" lon="6.85489">
        <ele>1374</ele>
        <time>2022-07-03T10:40:47.365Z</time>
      </trkpt>
      <trkpt lat="47.05521" lon="6.85488">
        <ele>1374.3999938965</ele>
        <time>2022-07-03T10:40:51.226Z</time>
      </trkpt>
      <trkpt lat="47.05519" lon="6.85486">
        <ele>1375.3999938965</ele>
        <time>2022-07-03T10:40:58.785Z</time>
      </trkpt>
      <trkpt lat="47.05517" lon="6.85486">
        <ele>1375.7999954224</ele>
        <time>2022-07-03T10:41:05.320Z</time>
      </trkpt>
      <trkpt lat="47.05516" lon="6.85486">
        <ele>1376</ele>
        <time>2022-07-03T10:41:08.446Z</time>
      </trkpt>
      <trkpt lat="47.05516" lon="6.85482">
        <ele>1376.6999969482</ele>
        <time>2022-07-03T10:41:17.227Z</time>
      </trkpt>
      <trkpt lat="47.05516" lon="6.85472">
        <ele>1378.6999969482</ele>
        <time>2022-07-03T10:41:38.758Z</time>
      </trkpt>
      <trkpt lat="47.05514" lon="6.85468">
        <ele>1380.0999984741</ele>
        <time>2022-07-03T10:41:49.308Z</time>
      </trkpt>
      <trkpt lat="47.05512" lon="6.85465">
        <ele>1381</ele>
        <time>2022-07-03T10:41:58.337Z</time>
      </trkpt>
      <trkpt lat="47.05509" lon="6.8546">
        <ele>1382.5</ele>
        <time>2022-07-03T10:42:12.828Z</time>
      </trkpt>
      <trkpt lat="47.05505" lon="6.85461">
        <ele>1384.1999969482</ele>
        <time>2022-07-03T10:42:25.814Z</time>
      </trkpt>
      <trkpt lat="47.05504" lon="6.85461">
        <ele>1384.7999954224</ele>
        <time>2022-07-03T10:42:28.940Z</time>
      </trkpt>
      <trkpt lat="47.05502" lon="6.8546">
        <ele>1385.5</ele>
        <time>2022-07-03T10:42:35.590Z</time>
      </trkpt>
      <trkpt lat="47.05501" lon="6.85461">
        <ele>1385.8999938965</ele>
        <time>2022-07-03T10:42:39.291Z</time>
      </trkpt>
      <trkpt lat="47.05498" lon="6.8546">
        <ele>1387.2999954224</ele>
        <time>2022-07-03T10:42:48.876Z</time>
      </trkpt>
      <trkpt lat="47.05494" lon="6.85459">
        <ele>1388.3999938965</ele>
        <time>2022-07-03T10:43:01.862Z</time>
      </trkpt>
      <trkpt lat="47.05492" lon="6.85458">
        <ele>1388.8999938965</ele>
        <time>2022-07-03T10:43:08.511Z</time>
      </trkpt>
      <trkpt lat="47.05491" lon="6.85459">
        <ele>1389.0999984741</ele>
        <time>2022-07-03T10:43:12.213Z</time>
      </trkpt>
      <trkpt lat="47.05487" lon="6.85456">
        <ele>1390.1999969482</ele>
        <time>2022-07-03T10:43:26.312Z</time>
      </trkpt>
      <trkpt lat="47.05486" lon="6.85454">
        <ele>1390.5999984741</ele>
        <time>2022-07-03T10:43:31.587Z</time>
      </trkpt>
      <trkpt lat="47.05485" lon="6.85454">
        <ele>1390.7999954224</ele>
        <time>2022-07-03T10:43:34.997Z</time>
      </trkpt>
      <trkpt lat="47.05482" lon="6.85454">
        <ele>1391.0999984741</ele>
        <time>2022-07-03T10:43:41.385Z</time>
      </trkpt>
      <trkpt lat="47.05482" lon="6.85453">
        <ele>1391.3999938965</ele>
        <time>2022-07-03T10:43:43.651Z</time>
      </trkpt>
      <trkpt lat="47.05481" lon="6.85451">
        <ele>1392.0999984741</ele>
        <time>2022-07-03T10:43:48.926Z</time>
      </trkpt>
      <trkpt lat="47.0548" lon="6.85451">
        <ele>1392.5</ele>
        <time>2022-07-03T10:43:52.052Z</time>
      </trkpt>
      <trkpt lat="47.05478" lon="6.85451">
        <ele>1392.7999954224</ele>
        <time>2022-07-03T10:43:58.310Z</time>
      </trkpt>
      <trkpt lat="47.05475" lon="6.8545">
        <ele>1393.6999969482</ele>
        <time>2022-07-03T10:44:08.173Z</time>
      </trkpt>
      <trkpt lat="47.05473" lon="6.85448">
        <ele>1394.6999969482</ele>
        <time>2022-07-03T10:44:15.894Z</time>
      </trkpt>
      <trkpt lat="47.05472" lon="6.85446">
        <ele>1395.8999938965</ele>
        <time>2022-07-03T10:44:21.169Z</time>
      </trkpt>
      <trkpt lat="47.05471" lon="6.85444">
        <ele>1396.2999954224</ele>
        <time>2022-07-03T10:44:26.444Z</time>
      </trkpt>
      <trkpt lat="47.05468" lon="6.85441">
        <ele>1396.6999969482</ele>
        <time>2022-07-03T10:44:35.036Z</time>
      </trkpt>
      <trkpt lat="47.05467" lon="6.85439">
        <ele>1397</ele>
        <time>2022-07-03T10:44:40.541Z</time>
      </trkpt>
      <trkpt lat="47.05466" lon="6.85435">
        <ele>1397.8999938965</ele>
        <time>2022-07-03T10:44:49.596Z</time>
      </trkpt>
      <trkpt lat="47.05465" lon="6.8543">
        <ele>1400.2999954224</ele>
        <time>2022-07-03T10:45:00.805Z</time>
      </trkpt>
      <trkpt lat="47.05465" lon="6.85426">
        <ele>1401.6999969482</ele>
        <time>2022-07-03T10:45:09.591Z</time>
      </trkpt>
      <trkpt lat="47.05461" lon="6.85424">
        <ele>1402.5</ele>
        <time>2022-07-03T10:45:23.066Z</time>
      </trkpt>
      <trkpt lat="47.05455" lon="6.85423">
        <ele>1403.5</ele>
        <time>2022-07-03T10:45:41.957Z</time>
      </trkpt>
      <trkpt lat="47.05449" lon="6.85421">
        <ele>1404.6999969482</ele>
        <time>2022-07-03T10:46:01.527Z</time>
      </trkpt>
      <trkpt lat="47.05445" lon="6.85418">
        <ele>1406.1999969482</ele>
        <time>2022-07-03T10:46:15.626Z</time>
      </trkpt>
      <trkpt lat="47.05441" lon="6.85412">
        <ele>1408.5999984741</ele>
        <time>2022-07-03T10:46:33.685Z</time>
      </trkpt>
      <trkpt lat="47.05439" lon="6.85408">
        <ele>1410.3999938965</ele>
        <time>2022-07-03T10:46:44.235Z</time>
      </trkpt>
      <trkpt lat="47.05435" lon="6.85404">
        <ele>1411.5999984741</ele>
        <time>2022-07-03T10:46:59.747Z</time>
      </trkpt>
      <trkpt lat="47.05431" lon="6.85397">
        <ele>1413.7999954224</ele>
        <time>2022-07-03T10:47:19.504Z</time>
      </trkpt>
      <trkpt lat="47.05429" lon="6.8539">
        <ele>1415.5</ele>
        <time>2022-07-03T10:47:35.767Z</time>
      </trkpt>
      <trkpt lat="47.05423" lon="6.8538">
        <ele>1417.7999954224</ele>
        <time>2022-07-03T10:48:04.533Z</time>
      </trkpt>
      <trkpt lat="47.05417" lon="6.85371">
        <ele>1418.5999984741</ele>
        <time>2022-07-03T10:48:21.658Z</time>
      </trkpt>
      <trkpt lat="47.0541" lon="6.85359">
        <ele>1418.5</ele>
        <time>2022-07-03T10:48:25.089Z</time>
      </trkpt>
      <trkpt lat="47.05396" lon="6.85336">
        <ele>1418</ele>
        <time>2022-07-03T10:48:30.687Z</time>
      </trkpt>
      <trkpt lat="47.05377" lon="6.85304">
        <ele>1415.7999954224</ele>
        <time>2022-07-03T10:48:36.379Z</time>
      </trkpt>
      <trkpt lat="47.05365" lon="6.8528">
        <ele>1413.7999954224</ele>
        <time>2022-07-03T10:48:40.358Z</time>
      </trkpt>
      <trkpt lat="47.05366" lon="6.85281">
        <ele>1413.7999954224</ele>
        <time>2022-07-03T10:48:40.982Z</time>
      </trkpt>
      <trkpt lat="47.05365" lon="6.8528">
        <ele>1413.8999938965</ele>
        <time>2022-07-03T10:48:43.315Z</time>
      </trkpt>
      <trkpt lat="47.05358" lon="6.85266">
        <ele>1411.8999938965</ele>
        <time>2022-07-03T10:48:45.640Z</time>
      </trkpt>
      <trkpt lat="47.05348" lon="6.85248">
        <ele>1408.6999969482</ele>
        <time>2022-07-03T10:48:48.753Z</time>
      </trkpt>
      <trkpt lat="47.0533" lon="6.85215">
        <ele>1403.6999969482</ele>
        <time>2022-07-03T10:48:54.405Z</time>
      </trkpt>
      <trkpt lat="47.05322" lon="6.85201">
        <ele>1402.1999969482</ele>
        <time>2022-07-03T10:48:56.849Z</time>
      </trkpt>
      <trkpt lat="47.05296" lon="6.85157">
        <ele>1399</ele>
        <time>2022-07-03T10:49:04.644Z</time>
      </trkpt>
      <trkpt lat="47.0529" lon="6.85149">
        <ele>1397.8999938965</ele>
        <time>2022-07-03T10:49:06.242Z</time>
      </trkpt>
      <trkpt lat="47.05274" lon="6.8513">
        <ele>1393.5</ele>
        <time>2022-07-03T10:49:10.280Z</time>
      </trkpt>
      <trkpt lat="47.05257" lon="6.85108">
        <ele>1387.8999938965</ele>
        <time>2022-07-03T10:49:14.741Z</time>
      </trkpt>
      <trkpt lat="47.05245" lon="6.85091">
        <ele>1384.5</ele>
        <time>2022-07-03T10:49:18.010Z</time>
      </trkpt>
      <trkpt lat="47.05232" lon="6.85068">
        <ele>1381</ele>
        <time>2022-07-03T10:49:22.010Z</time>
      </trkpt>
      <trkpt lat="47.05221" lon="6.85054">
        <ele>1379.0999984741</ele>
        <time>2022-07-03T10:49:24.874Z</time>
      </trkpt>
      <trkpt lat="47.05209" lon="6.85041">
        <ele>1376.2999954224</ele>
        <time>2022-07-03T10:49:27.797Z</time>
      </trkpt>
      <trkpt lat="47.05204" lon="6.85038">
        <ele>1375.5999984741</ele>
        <time>2022-07-03T10:49:28.866Z</time>
      </trkpt>
      <trkpt lat="47.052" lon="6.85038">
        <ele>1375.0999984741</ele>
        <time>2022-07-03T10:49:29.644Z</time>
      </trkpt>
      <trkpt lat="47.05198" lon="6.85037">
        <ele>1375</ele>
        <time>2022-07-03T10:49:30.079Z</time>
      </trkpt>
      <trkpt lat="47.05197" lon="6.85035">
        <ele>1374.7999954224</ele>
        <time>2022-07-03T10:49:30.421Z</time>
      </trkpt>
      <trkpt lat="47.05186" lon="6.85023">
        <ele>1373.6999969482</ele>
        <time>2022-07-03T10:49:33.118Z</time>
      </trkpt>
      <trkpt lat="47.05177" lon="6.85012">
        <ele>1372.8999938965</ele>
        <time>2022-07-03T10:49:35.410Z</time>
      </trkpt>
      <trkpt lat="47.05162" lon="6.84992">
        <ele>1372.8999938965</ele>
        <time>2022-07-03T10:49:52.018Z</time>
      </trkpt>
      <trkpt lat="47.05159" lon="6.84984">
        <ele>1373.2999954224</ele>
        <time>2022-07-03T10:50:01.850Z</time>
      </trkpt>
      <trkpt lat="47.0515" lon="6.84966">
        <ele>1374.5999984741</ele>
        <time>2022-07-03T10:50:30.245Z</time>
      </trkpt>
      <trkpt lat="47.0514" lon="6.84947">
        <ele>1377.2999954224</ele>
        <time>2022-07-03T10:51:21.861Z</time>
      </trkpt>
      <trkpt lat="47.05128" lon="6.84918">
        <ele>1380.3999938965</ele>
        <time>2022-07-03T10:52:34.842Z</time>
      </trkpt>
      <trkpt lat="47.05118" lon="6.84895">
        <ele>1383.3999938965</ele>
        <time>2022-07-03T10:53:33.687Z</time>
      </trkpt>
      <trkpt lat="47.05114" lon="6.84882">
        <ele>1384.7999954224</ele>
        <time>2022-07-03T10:54:04.278Z</time>
      </trkpt>
      <trkpt lat="47.0511" lon="6.84874">
        <ele>1385.1999969482</ele>
        <time>2022-07-03T10:54:14.570Z</time>
      </trkpt>
      <trkpt lat="47.05103" lon="6.84864">
        <ele>1385.2999954224</ele>
        <time>2022-07-03T10:54:23.460Z</time>
      </trkpt>
      <trkpt lat="47.051" lon="6.84858">
        <ele>1385.2999954224</ele>
        <time>2022-07-03T10:54:27.622Z</time>
      </trkpt>
      <trkpt lat="47.05092" lon="6.84841">
        <ele>1385.2999954224</ele>
        <time>2022-07-03T10:54:39.102Z</time>
      </trkpt>
      <trkpt lat="47.05091" lon="6.84838">
        <ele>1385.2999954224</ele>
        <time>2022-07-03T10:54:40.975Z</time>
      </trkpt>
      <trkpt lat="47.05086" lon="6.84822">
        <ele>1385.1999969482</ele>
        <time>2022-07-03T10:54:44.836Z</time>
      </trkpt>
      <trkpt lat="47.0508" lon="6.84807">
        <ele>1385.0999984741</ele>
        <time>2022-07-03T10:54:48.671Z</time>
      </trkpt>
      <trkpt lat="47.05076" lon="6.84799">
        <ele>1384.8999938965</ele>
        <time>2022-07-03T10:54:50.360Z</time>
      </trkpt>
      <trkpt lat="47.05072" lon="6.84793">
        <ele>1384.5999984741</ele>
        <time>2022-07-03T10:54:51.513Z</time>
      </trkpt>
      <trkpt lat="47.05068" lon="6.84786">
        <ele>1384</ele>
        <time>2022-07-03T10:54:52.728Z</time>
      </trkpt>
      <trkpt lat="47.05062" lon="6.84776">
        <ele>1383.3999938965</ele>
        <time>2022-07-03T10:54:54.377Z</time>
      </trkpt>
      <trkpt lat="47.05058" lon="6.84769">
        <ele>1383.0999984741</ele>
        <time>2022-07-03T10:54:55.668Z</time>
      </trkpt>
      <trkpt lat="47.05051" lon="6.84753">
        <ele>1383</ele>
        <time>2022-07-03T10:54:59.907Z</time>
      </trkpt>
      <trkpt lat="47.05046" lon="6.84744">
        <ele>1382.7999954224</ele>
        <time>2022-07-03T10:55:01.962Z</time>
      </trkpt>
      <trkpt lat="47.0504" lon="6.84734">
        <ele>1382.3999938965</ele>
        <time>2022-07-03T10:55:03.960Z</time>
      </trkpt>
      <trkpt lat="47.05034" lon="6.84724">
        <ele>1382.1999969482</ele>
        <time>2022-07-03T10:55:06.416Z</time>
      </trkpt>
      <trkpt lat="47.05029" lon="6.84717">
        <ele>1382.0999984741</ele>
        <time>2022-07-03T10:55:08.478Z</time>
      </trkpt>
      <trkpt lat="47.05025" lon="6.84712">
        <ele>1382</ele>
        <time>2022-07-03T10:55:09.947Z</time>
      </trkpt>
      <trkpt lat="47.05014" lon="6.84703">
        <ele>1382.2999954224</ele>
        <time>2022-07-03T10:55:23.177Z</time>
      </trkpt>
      <trkpt lat="47.05001" lon="6.84694">
        <ele>1383.0999984741</ele>
        <time>2022-07-03T10:55:44.536Z</time>
      </trkpt>
      <trkpt lat="47.0499" lon="6.84685">
        <ele>1383.2999954224</ele>
        <time>2022-07-03T10:55:56.610Z</time>
      </trkpt>
      <trkpt lat="47.0497" lon="6.84668">
        <ele>1383.6999969482</ele>
        <time>2022-07-03T10:56:19.089Z</time>
      </trkpt>
      <trkpt lat="47.04953" lon="6.84655">
        <ele>1383.3999938965</ele>
        <time>2022-07-03T10:56:24.704Z</time>
      </trkpt>
      <trkpt lat="47.04933" lon="6.84641">
        <ele>1382.6999969482</ele>
        <time>2022-07-03T10:56:30.148Z</time>
      </trkpt>
      <trkpt lat="47.04927" lon="6.84633">
        <ele>1382.1999969482</ele>
        <time>2022-07-03T10:56:31.671Z</time>
      </trkpt>
      <trkpt lat="47.04919" lon="6.84622">
        <ele>1382.3999938965</ele>
        <time>2022-07-03T10:56:42.423Z</time>
      </trkpt>
      <trkpt lat="47.0491" lon="6.84607">
        <ele>1383.3999938965</ele>
        <time>2022-07-03T10:57:05.468Z</time>
      </trkpt>
      <trkpt lat="47.04906" lon="6.84602">
        <ele>1383.0999984741</ele>
        <time>2022-07-03T10:57:06.498Z</time>
      </trkpt>
      <trkpt lat="47.04901" lon="6.846">
        <ele>1382.5999984741</ele>
        <time>2022-07-03T10:57:07.510Z</time>
      </trkpt>
      <trkpt lat="47.04896" lon="6.84599">
        <ele>1382.1999969482</ele>
        <time>2022-07-03T10:57:08.510Z</time>
      </trkpt>
      <trkpt lat="47.04888" lon="6.84598">
        <ele>1381.8999938965</ele>
        <time>2022-07-03T10:57:10.370Z</time>
      </trkpt>
      <trkpt lat="47.04882" lon="6.84595">
        <ele>1381.8999938965</ele>
        <time>2022-07-03T10:57:15.517Z</time>
      </trkpt>
      <trkpt lat="47.04868" lon="6.84592">
        <ele>1381.2999954224</ele>
        <time>2022-07-03T10:57:18.652Z</time>
      </trkpt>
      <trkpt lat="47.04865" lon="6.84593">
        <ele>1381.0999984741</ele>
        <time>2022-07-03T10:57:19.201Z</time>
      </trkpt>
      <trkpt lat="47.0486" lon="6.84593">
        <ele>1381</ele>
        <time>2022-07-03T10:57:20.607Z</time>
      </trkpt>
      <trkpt lat="47.04854" lon="6.84592">
        <ele>1381</ele>
        <time>2022-07-03T10:57:25.504Z</time>
      </trkpt>
      <trkpt lat="47.04849" lon="6.84589">
        <ele>1381.0999984741</ele>
        <time>2022-07-03T10:57:30.891Z</time>
      </trkpt>
      <trkpt lat="47.04841" lon="6.84583">
        <ele>1381.3999938965</ele>
        <time>2022-07-03T10:57:41.453Z</time>
      </trkpt>
      <trkpt lat="47.04834" lon="6.84578">
        <ele>1381.5999984741</ele>
        <time>2022-07-03T10:57:49.832Z</time>
      </trkpt>
      <trkpt lat="47.04821" lon="6.84563">
        <ele>1381.5</ele>
        <time>2022-07-03T10:58:02.187Z</time>
      </trkpt>
      <trkpt lat="47.04806" lon="6.84548">
        <ele>1381.8999938965</ele>
        <time>2022-07-03T10:58:20.809Z</time>
      </trkpt>
      <trkpt lat="47.04799" lon="6.8454">
        <ele>1382.5</ele>
        <time>2022-07-03T10:58:35.194Z</time>
      </trkpt>
      <trkpt lat="47.04791" lon="6.8453">
        <ele>1383.3999938965</ele>
        <time>2022-07-03T10:58:54.826Z</time>
      </trkpt>
      <trkpt lat="47.04784" lon="6.84519">
        <ele>1384.5</ele>
        <time>2022-07-03T10:59:18.338Z</time>
      </trkpt>
      <trkpt lat="47.04768" lon="6.84491">
        <ele>1386.7999954224</ele>
        <time>2022-07-03T11:00:07.694Z</time>
      </trkpt>
      <trkpt lat="47.04751" lon="6.8446">
        <ele>1387.8999938965</ele>
        <time>2022-07-03T11:00:43.057Z</time>
      </trkpt>
      <trkpt lat="47.04745" lon="6.8445">
        <ele>1389.7999954224</ele>
        <time>2022-07-03T11:01:11.823Z</time>
      </trkpt>
      <trkpt lat="47.04737" lon="6.84442">
        <ele>1391.5999984741</ele>
        <time>2022-07-03T11:01:42.219Z</time>
      </trkpt>
      <trkpt lat="47.04726" lon="6.84433">
        <ele>1393.2999954224</ele>
        <time>2022-07-03T11:02:22.017Z</time>
      </trkpt>
      <trkpt lat="47.0472" lon="6.84428">
        <ele>1393.3999938965</ele>
        <time>2022-07-03T11:02:28.526Z</time>
      </trkpt>
      <trkpt lat="47.04715" lon="6.8442">
        <ele>1393.5999984741</ele>
        <time>2022-07-03T11:02:36.607Z</time>
      </trkpt>
      <trkpt lat="47.04706" lon="6.84411">
        <ele>1394</ele>
        <time>2022-07-03T11:02:50.020Z</time>
      </trkpt>
      <trkpt lat="47.04698" lon="6.844">
        <ele>1395</ele>
        <time>2022-07-03T11:03:11.538Z</time>
      </trkpt>
      <trkpt lat="47.04688" lon="6.84393">
        <ele>1396.7999954224</ele>
        <time>2022-07-03T11:03:46.594Z</time>
      </trkpt>
      <trkpt lat="47.04688" lon="6.84393">
        <ele>1397</ele>
        <time>2022-07-03T11:03:46.594Z</time>
      </trkpt>
      <trkpt lat="47.04676" lon="6.8439">
        <ele>1399</ele>
        <time>2022-07-03T11:04:24.944Z</time>
      </trkpt>
      <trkpt lat="47.0467" lon="6.84383">
        <ele>1400</ele>
        <time>2022-07-03T11:04:48.005Z</time>
      </trkpt>
      <trkpt lat="47.04669" lon="6.84383">
        <ele>1400</ele>
        <time>2022-07-03T11:04:48.816Z</time>
      </trkpt>
      <trkpt lat="47.04667" lon="6.84383">
        <ele>1400.2999954224</ele>
        <time>2022-07-03T11:04:55.067Z</time>
      </trkpt>
      <trkpt lat="47.04661" lon="6.84383">
        <ele>1401.5999984741</ele>
        <time>2022-07-03T11:05:14.108Z</time>
      </trkpt>
      <trkpt lat="47.04653" lon="6.84384">
        <ele>1403.1999969482</ele>
        <time>2022-07-03T11:05:39.475Z</time>
      </trkpt>
      <trkpt lat="47.04642" lon="6.84369">
        <ele>1405.3999938965</ele>
        <time>2022-07-03T11:06:26.841Z</time>
      </trkpt>
      <trkpt lat="47.04639" lon="6.84366">
        <ele>1405.8999938965</ele>
        <time>2022-07-03T11:06:38.259Z</time>
      </trkpt>
      <trkpt lat="47.04635" lon="6.84355">
        <ele>1406</ele>
        <time>2022-07-03T11:06:46.069Z</time>
      </trkpt>
      <trkpt lat="47.04634" lon="6.84353">
        <ele>1406.0999984741</ele>
        <time>2022-07-03T11:06:48.626Z</time>
      </trkpt>
      <trkpt lat="47.04633" lon="6.8435">
        <ele>1405.8999938965</ele>
        <time>2022-07-03T11:06:49.075Z</time>
      </trkpt>
      <trkpt lat="47.04629" lon="6.84344">
        <ele>1405.6999969482</ele>
        <time>2022-07-03T11:06:50.429Z</time>
      </trkpt>
      <trkpt lat="47.04625" lon="6.84339">
        <ele>1405.7999954224</ele>
        <time>2022-07-03T11:06:55.616Z</time>
      </trkpt>
      <trkpt lat="47.04621" lon="6.84335">
        <ele>1405.8999938965</ele>
        <time>2022-07-03T11:07:00.560Z</time>
      </trkpt>
      <trkpt lat="47.04618" lon="6.84333">
        <ele>1406</ele>
        <time>2022-07-03T11:07:04.273Z</time>
      </trkpt>
      <trkpt lat="47.04614" lon="6.84329">
        <ele>1405.8999938965</ele>
        <time>2022-07-03T11:07:05.609Z</time>
      </trkpt>
      <trkpt lat="47.04609" lon="6.84322">
        <ele>1405.3999938965</ele>
        <time>2022-07-03T11:07:06.969Z</time>
      </trkpt>
      <trkpt lat="47.04603" lon="6.84313">
        <ele>1404.6999969482</ele>
        <time>2022-07-03T11:07:08.654Z</time>
      </trkpt>
      <trkpt lat="47.04587" lon="6.84291">
        <ele>1402.5999984741</ele>
        <time>2022-07-03T11:07:12.960Z</time>
      </trkpt>
      <trkpt lat="47.04584" lon="6.84284">
        <ele>1402.7999954224</ele>
        <time>2022-07-03T11:07:19.827Z</time>
      </trkpt>
      <trkpt lat="47.04582" lon="6.84279">
        <ele>1402.8999938965</ele>
        <time>2022-07-03T11:07:24.031Z</time>
      </trkpt>
      <trkpt lat="47.04578" lon="6.84272">
        <ele>1402.6999969482</ele>
        <time>2022-07-03T11:07:25.536Z</time>
      </trkpt>
      <trkpt lat="47.04569" lon="6.84252">
        <ele>1402.7999954224</ele>
        <time>2022-07-03T11:07:39.727Z</time>
      </trkpt>
      <trkpt lat="47.04561" lon="6.84236">
        <ele>1403.0999984741</ele>
        <time>2022-07-03T11:07:53.612Z</time>
      </trkpt>
      <trkpt lat="47.04551" lon="6.8422">
        <ele>1403</ele>
        <time>2022-07-03T11:08:04.610Z</time>
      </trkpt>
      <trkpt lat="47.04546" lon="6.84213">
        <ele>1402.5</ele>
        <time>2022-07-03T11:08:05.958Z</time>
      </trkpt>
      <trkpt lat="47.04542" lon="6.8421">
        <ele>1401.5999984741</ele>
        <time>2022-07-03T11:08:06.859Z</time>
      </trkpt>
      <trkpt lat="47.04537" lon="6.84199">
        <ele>1401.5</ele>
        <time>2022-07-03T11:08:09.661Z</time>
      </trkpt>
      <trkpt lat="47.04533" lon="6.84193">
        <ele>1401.1999969482</ele>
        <time>2022-07-03T11:08:10.795Z</time>
      </trkpt>
      <trkpt lat="47.0453" lon="6.84191">
        <ele>1400.5999984741</ele>
        <time>2022-07-03T11:08:11.443Z</time>
      </trkpt>
      <trkpt lat="47.04529" lon="6.8419">
        <ele>1400.5999984741</ele>
        <time>2022-07-03T11:08:12.444Z</time>
      </trkpt>
      <trkpt lat="47.04527" lon="6.84185">
        <ele>1400.7999954224</ele>
        <time>2022-07-03T11:08:18.115Z</time>
      </trkpt>
      <trkpt lat="47.04526" lon="6.84183">
        <ele>1400.5999984741</ele>
        <time>2022-07-03T11:08:18.443Z</time>
      </trkpt>
      <trkpt lat="47.04522" lon="6.84179">
        <ele>1399.8999938965</ele>
        <time>2022-07-03T11:08:19.393Z</time>
      </trkpt>
      <trkpt lat="47.04518" lon="6.84175">
        <ele>1399.0999984741</ele>
        <time>2022-07-03T11:08:20.343Z</time>
      </trkpt>
      <trkpt lat="47.04515" lon="6.84173">
        <ele>1398.3999938965</ele>
        <time>2022-07-03T11:08:21.000Z</time>
      </trkpt>
      <trkpt lat="47.04513" lon="6.84171">
        <ele>1398.0999984741</ele>
        <time>2022-07-03T11:08:21.470Z</time>
      </trkpt>
      <trkpt lat="47.04511" lon="6.84168">
        <ele>1397.8999938965</ele>
        <time>2022-07-03T11:08:22.031Z</time>
      </trkpt>
      <trkpt lat="47.04508" lon="6.84164">
        <ele>1397.3999938965</ele>
        <time>2022-07-03T11:08:22.830Z</time>
      </trkpt>
      <trkpt lat="47.04504" lon="6.84157">
        <ele>1396.7999954224</ele>
        <time>2022-07-03T11:08:24.045Z</time>
      </trkpt>
      <trkpt lat="47.045" lon="6.84148">
        <ele>1395.8999938965</ele>
        <time>2022-07-03T11:08:25.488Z</time>
      </trkpt>
      <trkpt lat="47.04489" lon="6.84134">
        <ele>1395.5</ele>
        <time>2022-07-03T11:08:29.219Z</time>
      </trkpt>
      <trkpt lat="47.04469" lon="6.84117">
        <ele>1395.0999984741</ele>
        <time>2022-07-03T11:08:35.869Z</time>
      </trkpt>
      <trkpt lat="47.04443" lon="6.84096">
        <ele>1394.7999954224</ele>
        <time>2022-07-03T11:08:45.226Z</time>
      </trkpt>
      <trkpt lat="47.04427" lon="6.84079">
        <ele>1395.3999938965</ele>
        <time>2022-07-03T11:09:07.613Z</time>
      </trkpt>
      <trkpt lat="47.04421" lon="6.84076">
        <ele>1395.5</ele>
        <time>2022-07-03T11:09:13.706Z</time>
      </trkpt>
      <trkpt lat="47.04411" lon="6.84066">
        <ele>1396.5</ele>
        <time>2022-07-03T11:09:35.772Z</time>
      </trkpt>
      <trkpt lat="47.04399" lon="6.84055">
        <ele>1397</ele>
        <time>2022-07-03T11:09:52.882Z</time>
      </trkpt>
      <trkpt lat="47.04384" lon="6.84039">
        <ele>1397.8999938965</ele>
        <time>2022-07-03T11:10:19.153Z</time>
      </trkpt>
      <trkpt lat="47.04377" lon="6.8403">
        <ele>1398.5</ele>
        <time>2022-07-03T11:10:33.861Z</time>
      </trkpt>
      <trkpt lat="47.04374" lon="6.84026">
        <ele>1398.6999969482</ele>
        <time>2022-07-03T11:10:39.718Z</time>
      </trkpt>
      <trkpt lat="47.0437" lon="6.8402">
        <ele>1399.1999969482</ele>
        <time>2022-07-03T11:10:50.568Z</time>
      </trkpt>
      <trkpt lat="47.04366" lon="6.84016">
        <ele>1399.5</ele>
        <time>2022-07-03T11:10:58.087Z</time>
      </trkpt>
      <trkpt lat="47.04362" lon="6.84014">
        <ele>1399.7999954224</ele>
        <time>2022-07-03T11:11:05.069Z</time>
      </trkpt>
      <trkpt lat="47.04358" lon="6.8401">
        <ele>1400.1999969482</ele>
        <time>2022-07-03T11:11:13.927Z</time>
      </trkpt>
      <trkpt lat="47.04357" lon="6.84009">
        <ele>1400.1999969482</ele>
        <time>2022-07-03T11:11:14.928Z</time>
      </trkpt>
      <trkpt lat="47.04355" lon="6.84006">
        <ele>1400.5</ele>
        <time>2022-07-03T11:11:21.325Z</time>
      </trkpt>
      <trkpt lat="47.04353" lon="6.84004">
        <ele>1400.8999938965</ele>
        <time>2022-07-03T11:11:28.884Z</time>
      </trkpt>
      <trkpt lat="47.04351" lon="6.84">
        <ele>1401.5</ele>
        <time>2022-07-03T11:11:39.664Z</time>
      </trkpt>
      <trkpt lat="47.04349" lon="6.83996">
        <ele>1401.7999954224</ele>
        <time>2022-07-03T11:11:46.135Z</time>
      </trkpt>
      <trkpt lat="47.04344" lon="6.83991">
        <ele>1402.1999969482</ele>
        <time>2022-07-03T11:11:55.829Z</time>
      </trkpt>
      <trkpt lat="47.04341" lon="6.83987">
        <ele>1402.2999954224</ele>
        <time>2022-07-03T11:12:00.083Z</time>
      </trkpt>
      <trkpt lat="47.04337" lon="6.83985">
        <ele>1402.2999954224</ele>
        <time>2022-07-03T11:12:03.600Z</time>
      </trkpt>
      <trkpt lat="47.04331" lon="6.83979">
        <ele>1402.6999969482</ele>
        <time>2022-07-03T11:12:14.328Z</time>
      </trkpt>
      <trkpt lat="47.04328" lon="6.83973">
        <ele>1403.1999969482</ele>
        <time>2022-07-03T11:12:24.984Z</time>
      </trkpt>
      <trkpt lat="47.04326" lon="6.83971">
        <ele>1403.3999938965</ele>
        <time>2022-07-03T11:12:29.378Z</time>
      </trkpt>
      <trkpt lat="47.04311" lon="6.83963">
        <ele>1404.6999969482</ele>
        <time>2022-07-03T11:12:58.151Z</time>
      </trkpt>
      <trkpt lat="47.04303" lon="6.83956">
        <ele>1406.2999954224</ele>
        <time>2022-07-03T11:13:27.708Z</time>
      </trkpt>
      <trkpt lat="47.04292" lon="6.83946">
        <ele>1409</ele>
        <time>2022-07-03T11:14:08.667Z</time>
      </trkpt>
      <trkpt lat="47.04279" lon="6.83933">
        <ele>1410.6999969482</ele>
        <time>2022-07-03T11:14:45.047Z</time>
      </trkpt>
      <trkpt lat="47.04269" lon="6.83928">
        <ele>1410.3999938965</ele>
        <time>2022-07-03T11:14:47.730Z</time>
      </trkpt>
      <trkpt lat="47.04265" lon="6.83926">
        <ele>1410.0999984741</ele>
        <time>2022-07-03T11:14:48.568Z</time>
      </trkpt>
      <trkpt lat="47.04256" lon="6.83921">
        <ele>1409.8999938965</ele>
        <time>2022-07-03T11:14:51.204Z</time>
      </trkpt>
      <trkpt lat="47.04251" lon="6.83917">
        <ele>1410</ele>
        <time>2022-07-03T11:14:56.809Z</time>
      </trkpt>
      <trkpt lat="47.04246" lon="6.83914">
        <ele>1410.2999954224</ele>
        <time>2022-07-03T11:15:04.797Z</time>
      </trkpt>
      <trkpt lat="47.04241" lon="6.83911">
        <ele>1410.6999969482</ele>
        <time>2022-07-03T11:15:13.950Z</time>
      </trkpt>
      <trkpt lat="47.0423" lon="6.83901">
        <ele>1411.7999954224</ele>
        <time>2022-07-03T11:15:38.011Z</time>
      </trkpt>
      <trkpt lat="47.04223" lon="6.83895">
        <ele>1412.1999969482</ele>
        <time>2022-07-03T11:15:49.601Z</time>
      </trkpt>
      <trkpt lat="47.04218" lon="6.83892">
        <ele>1412.3999938965</ele>
        <time>2022-07-03T11:15:56.292Z</time>
      </trkpt>
      <trkpt lat="47.04214" lon="6.8389">
        <ele>1412.5</ele>
        <time>2022-07-03T11:16:00.676Z</time>
      </trkpt>
      <trkpt lat="47.04205" lon="6.83884">
        <ele>1412.6999969482</ele>
        <time>2022-07-03T11:16:10.652Z</time>
      </trkpt>
      <trkpt lat="47.04199" lon="6.83879">
        <ele>1413.3999938965</ele>
        <time>2022-07-03T11:16:25.558Z</time>
      </trkpt>
      <trkpt lat="47.04192" lon="6.83872">
        <ele>1414.6999969482</ele>
        <time>2022-07-03T11:16:52.256Z</time>
      </trkpt>
      <trkpt lat="47.04185" lon="6.83863">
        <ele>1415.5999984741</ele>
        <time>2022-07-03T11:17:11.457Z</time>
      </trkpt>
      <trkpt lat="47.04181" lon="6.83859">
        <ele>1415.8999938965</ele>
        <time>2022-07-03T11:17:18.976Z</time>
      </trkpt>
      <trkpt lat="47.04173" lon="6.83843">
        <ele>1416.3999938965</ele>
        <time>2022-07-03T11:17:35.712Z</time>
      </trkpt>
      <trkpt lat="47.04172" lon="6.83839">
        <ele>1416.5999984741</ele>
        <time>2022-07-03T11:17:40.428Z</time>
      </trkpt>
      <trkpt lat="47.04169" lon="6.83835">
        <ele>1416.5</ele>
        <time>2022-07-03T11:17:41.502Z</time>
      </trkpt>
      <trkpt lat="47.04169" lon="6.83834">
        <ele>1416.3999938965</ele>
        <time>2022-07-03T11:17:41.643Z</time>
      </trkpt>
      <trkpt lat="47.04167" lon="6.83831">
        <ele>1416.1999969482</ele>
        <time>2022-07-03T11:17:42.205Z</time>
      </trkpt>
      <trkpt lat="47.04165" lon="6.8383">
        <ele>1415.8999938965</ele>
        <time>2022-07-03T11:17:42.630Z</time>
      </trkpt>
      <trkpt lat="47.04164" lon="6.83827">
        <ele>1415.5999984741</ele>
        <time>2022-07-03T11:17:43.079Z</time>
      </trkpt>
      <trkpt lat="47.04164" lon="6.83824">
        <ele>1415.5</ele>
        <time>2022-07-03T11:17:43.510Z</time>
      </trkpt>
      <trkpt lat="47.04164" lon="6.83822">
        <ele>1415.3999938965</ele>
        <time>2022-07-03T11:17:43.774Z</time>
      </trkpt>
      <trkpt lat="47.04163" lon="6.83818">
        <ele>1415.1999969482</ele>
        <time>2022-07-03T11:17:44.354Z</time>
      </trkpt>
      <trkpt lat="47.04163" lon="6.83816">
        <ele>1415</ele>
        <time>2022-07-03T11:17:44.618Z</time>
      </trkpt>
      <trkpt lat="47.04157" lon="6.83812">
        <ele>1414.1999969482</ele>
        <time>2022-07-03T11:17:45.922Z</time>
      </trkpt>
      <trkpt lat="47.04156" lon="6.83808">
        <ele>1413.8999938965</ele>
        <time>2022-07-03T11:17:46.479Z</time>
      </trkpt>
      <trkpt lat="47.04152" lon="6.83797">
        <ele>1413.2999954224</ele>
        <time>2022-07-03T11:17:48.151Z</time>
      </trkpt>
      <trkpt lat="47.0415" lon="6.8379">
        <ele>1413.1999969482</ele>
        <time>2022-07-03T11:17:49.623Z</time>
      </trkpt>
      <trkpt lat="47.04148" lon="6.83786">
        <ele>1413.0999984741</ele>
        <time>2022-07-03T11:17:50.456Z</time>
      </trkpt>
      <trkpt lat="47.04145" lon="6.83778">
        <ele>1413.0999984741</ele>
        <time>2022-07-03T11:17:55.553Z</time>
      </trkpt>
      <trkpt lat="47.04143" lon="6.83772">
        <ele>1413.6999969482</ele>
        <time>2022-07-03T11:18:09.543Z</time>
      </trkpt>
      <trkpt lat="47.04141" lon="6.83768">
        <ele>1414</ele>
        <time>2022-07-03T11:18:16.045Z</time>
      </trkpt>
      <trkpt lat="47.04135" lon="6.83762">
        <ele>1414.7999954224</ele>
        <time>2022-07-03T11:18:33.228Z</time>
      </trkpt>
      <trkpt lat="47.04129" lon="6.83755">
        <ele>1415.5999984741</ele>
        <time>2022-07-03T11:18:50.289Z</time>
      </trkpt>
      <trkpt lat="47.04125" lon="6.83747">
        <ele>1416.5</ele>
        <time>2022-07-03T11:19:11.577Z</time>
      </trkpt>
      <trkpt lat="47.04122" lon="6.83741">
        <ele>1416.3999938965</ele>
        <time>2022-07-03T11:19:12.997Z</time>
      </trkpt>
      <trkpt lat="47.0412" lon="6.83733">
        <ele>1417.6999969482</ele>
        <time>2022-07-03T11:19:31.373Z</time>
      </trkpt>
      <trkpt lat="47.04116" lon="6.83723">
        <ele>1418.3999938965</ele>
        <time>2022-07-03T11:19:46.543Z</time>
      </trkpt>
      <trkpt lat="47.04111" lon="6.83713">
        <ele>1419.1999969482</ele>
        <time>2022-07-03T11:20:03.645Z</time>
      </trkpt>
      <trkpt lat="47.04105" lon="6.83703">
        <ele>1420.5</ele>
        <time>2022-07-03T11:20:32.412Z</time>
      </trkpt>
      <trkpt lat="47.04102" lon="6.83696">
        <ele>1419.8999938965</ele>
        <time>2022-07-03T11:20:33.513Z</time>
      </trkpt>
      <trkpt lat="47.04096" lon="6.83689">
        <ele>1419.7999954224</ele>
        <time>2022-07-03T11:20:35.836Z</time>
      </trkpt>
      <trkpt lat="47.0409" lon="6.8369">
        <ele>1419</ele>
        <time>2022-07-03T11:20:37.026Z</time>
      </trkpt>
      <trkpt lat="47.04088" lon="6.8369">
        <ele>1418.8999938965</ele>
        <time>2022-07-03T11:20:37.432Z</time>
      </trkpt>
      <trkpt lat="47.04086" lon="6.83682">
        <ele>1420.3999938965</ele>
        <time>2022-07-03T11:20:55.808Z</time>
      </trkpt>
      <trkpt lat="47.04077" lon="6.83669">
        <ele>1421.5999984741</ele>
        <time>2022-07-03T11:21:21.463Z</time>
      </trkpt>
      <trkpt lat="47.04074" lon="6.83662">
        <ele>1421.5999984741</ele>
        <time>2022-07-03T11:21:26.076Z</time>
      </trkpt>
      <trkpt lat="47.04066" lon="6.8365">
        <ele>1422.3999938965</ele>
        <time>2022-07-03T11:21:44.964Z</time>
      </trkpt>
      <trkpt lat="47.04062" lon="6.83647">
        <ele>1422.8999938965</ele>
        <time>2022-07-03T11:21:55.732Z</time>
      </trkpt>
      <trkpt lat="47.04058" lon="6.83639">
        <ele>1423.8999938965</ele>
        <time>2022-07-03T11:22:17.061Z</time>
      </trkpt>
      <trkpt lat="47.04051" lon="6.83627">
        <ele>1425.5999984741</ele>
        <time>2022-07-03T11:22:51.089Z</time>
      </trkpt>
      <trkpt lat="47.04045" lon="6.83619">
        <ele>1425.6999969482</ele>
        <time>2022-07-03T11:22:58.547Z</time>
      </trkpt>
      <trkpt lat="47.04042" lon="6.83613">
        <ele>1425.7999954224</ele>
        <time>2022-07-03T11:23:03.625Z</time>
      </trkpt>
      <trkpt lat="47.04042" lon="6.83603">
        <ele>1425.5999984741</ele>
        <time>2022-07-03T11:23:05.335Z</time>
      </trkpt>
      <trkpt lat="47.04033" lon="6.8359">
        <ele>1425.6999969482</ele>
        <time>2022-07-03T11:23:16.442Z</time>
      </trkpt>
      <trkpt lat="47.04019" lon="6.83575">
        <ele>1427.7999954224</ele>
        <time>2022-07-03T11:24:02.866Z</time>
      </trkpt>
      <trkpt lat="47.04011" lon="6.83569">
        <ele>1428.5999984741</ele>
        <time>2022-07-03T11:24:20.132Z</time>
      </trkpt>
      <trkpt lat="47.04006" lon="6.83563">
        <ele>1428.8999938965</ele>
        <time>2022-07-03T11:24:29.222Z</time>
      </trkpt>
      <trkpt lat="47.04002" lon="6.83556">
        <ele>1428.6999969482</ele>
        <time>2022-07-03T11:24:30.749Z</time>
      </trkpt>
      <trkpt lat="47.04001" lon="6.83555">
        <ele>1428.8999938965</ele>
        <time>2022-07-03T11:24:34.451Z</time>
      </trkpt>
      <trkpt lat="47.03999" lon="6.83554">
        <ele>1429.0999984741</ele>
        <time>2022-07-03T11:24:38.726Z</time>
      </trkpt>
      <trkpt lat="47.03994" lon="6.8355">
        <ele>1428.5999984741</ele>
        <time>2022-07-03T11:24:39.841Z</time>
      </trkpt>
      <trkpt lat="47.0399" lon="6.83548">
        <ele>1428.2999954224</ele>
        <time>2022-07-03T11:24:40.679Z</time>
      </trkpt>
      <trkpt lat="47.03989" lon="6.83547">
        <ele>1428.1999969482</ele>
        <time>2022-07-03T11:24:40.919Z</time>
      </trkpt>
      <trkpt lat="47.03988" lon="6.83545">
        <ele>1428.3999938965</ele>
        <time>2022-07-03T11:24:45.324Z</time>
      </trkpt>
      <trkpt lat="47.03984" lon="6.83544">
        <ele>1427.8999938965</ele>
        <time>2022-07-03T11:24:46.115Z</time>
      </trkpt>
      <trkpt lat="47.0398" lon="6.83544">
        <ele>1426.8999938965</ele>
        <time>2022-07-03T11:24:46.910Z</time>
      </trkpt>
      <trkpt lat="47.03976" lon="6.83541">
        <ele>1426.3999938965</ele>
        <time>2022-07-03T11:24:47.787Z</time>
      </trkpt>
      <trkpt lat="47.03975" lon="6.8354">
        <ele>1426</ele>
        <time>2022-07-03T11:24:48.017Z</time>
      </trkpt>
      <trkpt lat="47.03968" lon="6.83536">
        <ele>1424.6999969482</ele>
        <time>2022-07-03T11:24:49.483Z</time>
      </trkpt>
      <trkpt lat="47.03964" lon="6.83533">
        <ele>1423.3999938965</ele>
        <time>2022-07-03T11:24:50.384Z</time>
      </trkpt>
      <trkpt lat="47.03961" lon="6.83532">
        <ele>1422.7999954224</ele>
        <time>2022-07-03T11:24:50.980Z</time>
      </trkpt>
      <trkpt lat="47.03957" lon="6.83531">
        <ele>1421.3999938965</ele>
        <time>2022-07-03T11:24:51.770Z</time>
      </trkpt>
      <trkpt lat="47.03955" lon="6.83529">
        <ele>1420.7999954224</ele>
        <time>2022-07-03T11:24:52.265Z</time>
      </trkpt>
      <trkpt lat="47.03953" lon="6.83526">
        <ele>1420</ele>
        <time>2022-07-03T11:24:52.826Z</time>
      </trkpt>
      <trkpt lat="47.03951" lon="6.83523">
        <ele>1419.0999984741</ele>
        <time>2022-07-03T11:24:53.388Z</time>
      </trkpt>
      <trkpt lat="47.03949" lon="6.83522">
        <ele>1418.6999969482</ele>
        <time>2022-07-03T11:24:53.796Z</time>
      </trkpt>
      <trkpt lat="47.03946" lon="6.83519">
        <ele>1418.2999954224</ele>
        <time>2022-07-03T11:24:54.516Z</time>
      </trkpt>
      <trkpt lat="47.03944" lon="6.83517">
        <ele>1417.6999969482</ele>
        <time>2022-07-03T11:24:54.986Z</time>
      </trkpt>
      <trkpt lat="47.03941" lon="6.83514">
        <ele>1417.0999984741</ele>
        <time>2022-07-03T11:24:55.696Z</time>
      </trkpt>
      <trkpt lat="47.03938" lon="6.83512">
        <ele>1416.5</ele>
        <time>2022-07-03T11:24:56.353Z</time>
      </trkpt>
      <trkpt lat="47.03935" lon="6.83511">
        <ele>1416</ele>
        <time>2022-07-03T11:24:56.953Z</time>
      </trkpt>
      <trkpt lat="47.03905" lon="6.83487">
        <ele>1412.5</ele>
        <time>2022-07-03T11:25:03.664Z</time>
      </trkpt>
      <trkpt lat="47.03897" lon="6.83477">
        <ele>1411.7999954224</ele>
        <time>2022-07-03T11:25:05.555Z</time>
      </trkpt>
      <trkpt lat="47.03878" lon="6.83458">
        <ele>1413.2999954224</ele>
        <time>2022-07-03T11:25:42.127Z</time>
      </trkpt>
      <trkpt lat="47.03872" lon="6.83454">
        <ele>1415</ele>
        <time>2022-07-03T11:26:03.093Z</time>
      </trkpt>
      <trkpt lat="47.03865" lon="6.83452">
        <ele>1416.5</ele>
        <time>2022-07-03T11:26:25.716Z</time>
      </trkpt>
      <trkpt lat="47.03856" lon="6.83452">
        <ele>1416.5</ele>
        <time>2022-07-03T11:26:33.084Z</time>
      </trkpt>
      <trkpt lat="47.03853" lon="6.8345">
        <ele>1416.5</ele>
        <time>2022-07-03T11:26:35.784Z</time>
      </trkpt>
      <trkpt lat="47.0385" lon="6.83445">
        <ele>1416.8999938965</ele>
        <time>2022-07-03T11:26:44.440Z</time>
      </trkpt>
      <trkpt lat="47.03848" lon="6.83443">
        <ele>1417</ele>
        <time>2022-07-03T11:26:47.642Z</time>
      </trkpt>
      <trkpt lat="47.03844" lon="6.83437">
        <ele>1417.5999984741</ele>
        <time>2022-07-03T11:27:00.448Z</time>
      </trkpt>
      <trkpt lat="47.03835" lon="6.83431">
        <ele>1417.5999984741</ele>
        <time>2022-07-03T11:27:08.584Z</time>
      </trkpt>
      <trkpt lat="47.03831" lon="6.83427">
        <ele>1417.5999984741</ele>
        <time>2022-07-03T11:27:12.545Z</time>
      </trkpt>
      <trkpt lat="47.03829" lon="6.83426">
        <ele>1417.5999984741</ele>
        <time>2022-07-03T11:27:14.245Z</time>
      </trkpt>
      <trkpt lat="47.03826" lon="6.83423">
        <ele>1417.5999984741</ele>
        <time>2022-07-03T11:27:17.206Z</time>
      </trkpt>
      <trkpt lat="47.03823" lon="6.83422">
        <ele>1417.1999969482</ele>
        <time>2022-07-03T11:27:17.823Z</time>
      </trkpt>
      <trkpt lat="47.03818" lon="6.83419">
        <ele>1416.6999969482</ele>
        <time>2022-07-03T11:27:18.876Z</time>
      </trkpt>
      <trkpt lat="47.03817" lon="6.83417">
        <ele>1416.6999969482</ele>
        <time>2022-07-03T11:27:20.303Z</time>
      </trkpt>
      <trkpt lat="47.03813" lon="6.83416">
        <ele>1416.2999954224</ele>
        <time>2022-07-03T11:27:21.111Z</time>
      </trkpt>
      <trkpt lat="47.0381" lon="6.83414">
        <ele>1415.7999954224</ele>
        <time>2022-07-03T11:27:21.751Z</time>
      </trkpt>
      <trkpt lat="47.03806" lon="6.83412">
        <ele>1415.6999969482</ele>
        <time>2022-07-03T11:27:22.874Z</time>
      </trkpt>
      <trkpt lat="47.03803" lon="6.83409">
        <ele>1415.5</ele>
        <time>2022-07-03T11:27:23.586Z</time>
      </trkpt>
      <trkpt lat="47.038" lon="6.83406">
        <ele>1415.6999969482</ele>
        <time>2022-07-03T11:27:29.018Z</time>
      </trkpt>
      <trkpt lat="47.03794" lon="6.83404">
        <ele>1415.0999984741</ele>
        <time>2022-07-03T11:27:30.218Z</time>
      </trkpt>
      <trkpt lat="47.03789" lon="6.83401">
        <ele>1414.6999969482</ele>
        <time>2022-07-03T11:27:31.288Z</time>
      </trkpt>
      <trkpt lat="47.03786" lon="6.83398">
        <ele>1414.2999954224</ele>
        <time>2022-07-03T11:27:31.998Z</time>
      </trkpt>
      <trkpt lat="47.03782" lon="6.83393">
        <ele>1414.0999984741</ele>
        <time>2022-07-03T11:27:33.195Z</time>
      </trkpt>
      <trkpt lat="47.03779" lon="6.8339">
        <ele>1414.1999969482</ele>
        <time>2022-07-03T11:27:37.160Z</time>
      </trkpt>
      <trkpt lat="47.03775" lon="6.83385">
        <ele>1413.8999938965</ele>
        <time>2022-07-03T11:27:38.188Z</time>
      </trkpt>
      <trkpt lat="47.03771" lon="6.83381">
        <ele>1413.7999954224</ele>
        <time>2022-07-03T11:27:39.507Z</time>
      </trkpt>
      <trkpt lat="47.03769" lon="6.83377">
        <ele>1414.1999969482</ele>
        <time>2022-07-03T11:27:48.240Z</time>
      </trkpt>
      <trkpt lat="47.03768" lon="6.83376">
        <ele>1414.1999969482</ele>
        <time>2022-07-03T11:27:49.241Z</time>
      </trkpt>
      <trkpt lat="47.03765" lon="6.83373">
        <ele>1413.8999938965</ele>
        <time>2022-07-03T11:27:49.966Z</time>
      </trkpt>
      <trkpt lat="47.03763" lon="6.83369">
        <ele>1414.0999984741</ele>
        <time>2022-07-03T11:27:55.080Z</time>
      </trkpt>
      <trkpt lat="47.03761" lon="6.83368">
        <ele>1413.7999954224</ele>
        <time>2022-07-03T11:27:55.493Z</time>
      </trkpt>
      <trkpt lat="47.03758" lon="6.83367">
        <ele>1413.3999938965</ele>
        <time>2022-07-03T11:27:56.093Z</time>
      </trkpt>
      <trkpt lat="47.03756" lon="6.83367">
        <ele>1412.6999969482</ele>
        <time>2022-07-03T11:27:56.482Z</time>
      </trkpt>
      <trkpt lat="47.03752" lon="6.83366">
        <ele>1412.0999984741</ele>
        <time>2022-07-03T11:27:57.290Z</time>
      </trkpt>
      <trkpt lat="47.03747" lon="6.8336">
        <ele>1411.7999954224</ele>
        <time>2022-07-03T11:27:58.657Z</time>
      </trkpt>
      <trkpt lat="47.03744" lon="6.83355">
        <ele>1411.8999938965</ele>
        <time>2022-07-03T11:28:03.299Z</time>
      </trkpt>
      <trkpt lat="47.0374" lon="6.83351">
        <ele>1411.3999938965</ele>
        <time>2022-07-03T11:28:04.250Z</time>
      </trkpt>
      <trkpt lat="47.03737" lon="6.83346">
        <ele>1411.2999954224</ele>
        <time>2022-07-03T11:28:05.477Z</time>
      </trkpt>
      <trkpt lat="47.03734" lon="6.8334">
        <ele>1411.2999954224</ele>
        <time>2022-07-03T11:28:09.640Z</time>
      </trkpt>
      <trkpt lat="47.03731" lon="6.83337">
        <ele>1411.7999954224</ele>
        <time>2022-07-03T11:28:21.293Z</time>
      </trkpt>
      <trkpt lat="47.03727" lon="6.83335">
        <ele>1411.5999984741</ele>
        <time>2022-07-03T11:28:22.179Z</time>
      </trkpt>
      <trkpt lat="47.03725" lon="6.83333">
        <ele>1411.6999969482</ele>
        <time>2022-07-03T11:28:25.354Z</time>
      </trkpt>
      <trkpt lat="47.03722" lon="6.83331">
        <ele>1411.5</ele>
        <time>2022-07-03T11:28:25.976Z</time>
      </trkpt>
      <trkpt lat="47.0372" lon="6.83328">
        <ele>1411.3999938965</ele>
        <time>2022-07-03T11:28:26.653Z</time>
      </trkpt>
      <trkpt lat="47.03717" lon="6.83323">
        <ele>1411.7999954224</ele>
        <time>2022-07-03T11:28:35.309Z</time>
      </trkpt>
      <trkpt lat="47.0371" lon="6.83317">
        <ele>1411.8999938965</ele>
        <time>2022-07-03T11:28:42.820Z</time>
      </trkpt>
      <trkpt lat="47.03709" lon="6.83315">
        <ele>1412</ele>
        <time>2022-07-03T11:28:45.377Z</time>
      </trkpt>
      <trkpt lat="47.03707" lon="6.8331">
        <ele>1412.5</ele>
        <time>2022-07-03T11:28:56.750Z</time>
      </trkpt>
      <trkpt lat="47.03706" lon="6.83308">
        <ele>1412.6999969482</ele>
        <time>2022-07-03T11:29:01.085Z</time>
      </trkpt>
      <trkpt lat="47.03703" lon="6.83305">
        <ele>1412.7999954224</ele>
        <time>2022-07-03T11:29:05.050Z</time>
      </trkpt>
      <trkpt lat="47.03701" lon="6.83303">
        <ele>1412.5999984741</ele>
        <time>2022-07-03T11:29:05.520Z</time>
      </trkpt>
      <trkpt lat="47.03698" lon="6.83302">
        <ele>1412.0999984741</ele>
        <time>2022-07-03T11:29:06.120Z</time>
      </trkpt>
      <trkpt lat="47.03696" lon="6.83302">
        <ele>1411.5999984741</ele>
        <time>2022-07-03T11:29:06.527Z</time>
      </trkpt>
      <trkpt lat="47.03693" lon="6.83298">
        <ele>1411.5999984741</ele>
        <time>2022-07-03T11:29:09.857Z</time>
      </trkpt>
      <trkpt lat="47.03691" lon="6.83297">
        <ele>1411.5</ele>
        <time>2022-07-03T11:29:10.301Z</time>
      </trkpt>
      <trkpt lat="47.03688" lon="6.83295">
        <ele>1411.2999954224</ele>
        <time>2022-07-03T11:29:10.912Z</time>
      </trkpt>
      <trkpt lat="47.03686" lon="6.83293">
        <ele>1410.8999938965</ele>
        <time>2022-07-03T11:29:11.382Z</time>
      </trkpt>
      <trkpt lat="47.03684" lon="6.83291">
        <ele>1410.8999938965</ele>
        <time>2022-07-03T11:29:13.384Z</time>
      </trkpt>
      <trkpt lat="47.03683" lon="6.83289">
        <ele>1411</ele>
        <time>2022-07-03T11:29:15.941Z</time>
      </trkpt>
      <trkpt lat="47.03681" lon="6.83287">
        <ele>1410.7999954224</ele>
        <time>2022-07-03T11:29:16.411Z</time>
      </trkpt>
      <trkpt lat="47.03678" lon="6.83285">
        <ele>1410.3999938965</ele>
        <time>2022-07-03T11:29:17.074Z</time>
      </trkpt>
      <trkpt lat="47.03675" lon="6.83283">
        <ele>1410.2999954224</ele>
        <time>2022-07-03T11:29:17.881Z</time>
      </trkpt>
      <trkpt lat="47.03673" lon="6.8328">
        <ele>1410.0999984741</ele>
        <time>2022-07-03T11:29:18.442Z</time>
      </trkpt>
      <trkpt lat="47.03671" lon="6.83277">
        <ele>1410</ele>
        <time>2022-07-03T11:29:19.119Z</time>
      </trkpt>
      <trkpt lat="47.03669" lon="6.83274">
        <ele>1409.8999938965</ele>
        <time>2022-07-03T11:29:19.796Z</time>
      </trkpt>
      <trkpt lat="47.03656" lon="6.8326">
        <ele>1407.8999938965</ele>
        <time>2022-07-03T11:29:22.974Z</time>
      </trkpt>
      <trkpt lat="47.03646" lon="6.83248">
        <ele>1407</ele>
        <time>2022-07-03T11:29:25.505Z</time>
      </trkpt>
      <trkpt lat="47.03643" lon="6.83243">
        <ele>1406.5999984741</ele>
        <time>2022-07-03T11:29:26.392Z</time>
      </trkpt>
      <trkpt lat="47.03641" lon="6.83239">
        <ele>1406.5999984741</ele>
        <time>2022-07-03T11:29:29.187Z</time>
      </trkpt>
      <trkpt lat="47.03637" lon="6.83232">
        <ele>1406.1999969482</ele>
        <time>2022-07-03T11:29:30.317Z</time>
      </trkpt>
      <trkpt lat="47.03635" lon="6.83228">
        <ele>1405.8999938965</ele>
        <time>2022-07-03T11:29:30.988Z</time>
      </trkpt>
      <trkpt lat="47.03632" lon="6.83221">
        <ele>1405.6999969482</ele>
        <time>2022-07-03T11:29:32.306Z</time>
      </trkpt>
      <trkpt lat="47.0363" lon="6.83217">
        <ele>1405.5999984741</ele>
        <time>2022-07-03T11:29:33.162Z</time>
      </trkpt>
      <trkpt lat="47.03627" lon="6.83213">
        <ele>1405.2999954224</ele>
        <time>2022-07-03T11:29:33.961Z</time>
      </trkpt>
      <trkpt lat="47.03625" lon="6.8321">
        <ele>1405.0999984741</ele>
        <time>2022-07-03T11:29:34.523Z</time>
      </trkpt>
      <trkpt lat="47.03622" lon="6.83206">
        <ele>1404.7999954224</ele>
        <time>2022-07-03T11:29:35.323Z</time>
      </trkpt>
      <trkpt lat="47.03619" lon="6.832">
        <ele>1405</ele>
        <time>2022-07-03T11:29:41.831Z</time>
      </trkpt>
      <trkpt lat="47.03617" lon="6.83196">
        <ele>1405</ele>
        <time>2022-07-03T11:29:44.626Z</time>
      </trkpt>
      <trkpt lat="47.03614" lon="6.83192">
        <ele>1405.0999984741</ele>
        <time>2022-07-03T11:29:48.880Z</time>
      </trkpt>
      <trkpt lat="47.03612" lon="6.83189">
        <ele>1405.2999954224</ele>
        <time>2022-07-03T11:29:53.589Z</time>
      </trkpt>
      <trkpt lat="47.03609" lon="6.83189">
        <ele>1405.6999969482</ele>
        <time>2022-07-03T11:30:02.967Z</time>
      </trkpt>
      <trkpt lat="47.03607" lon="6.83188">
        <ele>1405.8999938965</ele>
        <time>2022-07-03T11:30:07.242Z</time>
      </trkpt>
      <trkpt lat="47.03606" lon="6.83185">
        <ele>1406.3999938965</ele>
        <time>2022-07-03T11:30:14.468Z</time>
      </trkpt>
      <trkpt lat="47.03602" lon="6.8318">
        <ele>1407.5</ele>
        <time>2022-07-03T11:30:31.153Z</time>
      </trkpt>
      <trkpt lat="47.03598" lon="6.83177">
        <ele>1408.0999984741</ele>
        <time>2022-07-03T11:30:45.228Z</time>
      </trkpt>
      <trkpt lat="47.03595" lon="6.83172">
        <ele>1409.2999954224</ele>
        <time>2022-07-03T11:30:59.504Z</time>
      </trkpt>
      <trkpt lat="47.03593" lon="6.83169">
        <ele>1410.1999969482</ele>
        <time>2022-07-03T11:31:08.533Z</time>
      </trkpt>
      <trkpt lat="47.03589" lon="6.83164">
        <ele>1411.2999954224</ele>
        <time>2022-07-03T11:31:25.032Z</time>
      </trkpt>
      <trkpt lat="47.03586" lon="6.8316">
        <ele>1412</ele>
        <time>2022-07-03T11:31:37.879Z</time>
      </trkpt>
      <trkpt lat="47.03578" lon="6.83156">
        <ele>1413.7999954224</ele>
        <time>2022-07-03T11:32:04.651Z</time>
      </trkpt>
      <trkpt lat="47.03572" lon="6.83153">
        <ele>1413.8999938965</ele>
        <time>2022-07-03T11:32:10.676Z</time>
      </trkpt>
      <trkpt lat="47.03569" lon="6.83153">
        <ele>1413.8999938965</ele>
        <time>2022-07-03T11:32:13.182Z</time>
      </trkpt>
      <trkpt lat="47.03566" lon="6.83151">
        <ele>1414.0999984741</ele>
        <time>2022-07-03T11:32:18.225Z</time>
      </trkpt>
      <trkpt lat="47.03563" lon="6.83147">
        <ele>1414.2999954224</ele>
        <time>2022-07-03T11:32:24.018Z</time>
      </trkpt>
      <trkpt lat="47.03557" lon="6.83141">
        <ele>1413.7999954224</ele>
        <time>2022-07-03T11:32:25.438Z</time>
      </trkpt>
      <trkpt lat="47.03551" lon="6.83139">
        <ele>1412.7999954224</ele>
        <time>2022-07-03T11:32:26.655Z</time>
      </trkpt>
      <trkpt lat="47.03548" lon="6.83133">
        <ele>1411.7999954224</ele>
        <time>2022-07-03T11:32:27.639Z</time>
      </trkpt>
      <trkpt lat="47.03542" lon="6.83124">
        <ele>1410.1999969482</ele>
        <time>2022-07-03T11:32:29.324Z</time>
      </trkpt>
      <trkpt lat="47.03539" lon="6.83119">
        <ele>1409.5</ele>
        <time>2022-07-03T11:32:30.225Z</time>
      </trkpt>
      <trkpt lat="47.03523" lon="6.83097">
        <ele>1408.3999938965</ele>
        <time>2022-07-03T11:32:34.733Z</time>
      </trkpt>
      <trkpt lat="47.0351" lon="6.83081">
        <ele>1409.7999954224</ele>
        <time>2022-07-03T11:33:05.596Z</time>
      </trkpt>
      <trkpt lat="47.03506" lon="6.83074">
        <ele>1411.0999984741</ele>
        <time>2022-07-03T11:33:25.134Z</time>
      </trkpt>
      <trkpt lat="47.03503" lon="6.83067">
        <ele>1412</ele>
        <time>2022-07-03T11:33:43.077Z</time>
      </trkpt>
      <trkpt lat="47.03498" lon="6.83061">
        <ele>1412.1999969482</ele>
        <time>2022-07-03T11:33:50.497Z</time>
      </trkpt>
      <trkpt lat="47.03486" lon="6.83053">
        <ele>1411.7999954224</ele>
        <time>2022-07-03T11:33:53.747Z</time>
      </trkpt>
      <trkpt lat="47.03467" lon="6.83038">
        <ele>1409.0999984741</ele>
        <time>2022-07-03T11:33:57.991Z</time>
      </trkpt>
      <trkpt lat="47.03461" lon="6.83031">
        <ele>1407.5999984741</ele>
        <time>2022-07-03T11:33:59.496Z</time>
      </trkpt>
      <trkpt lat="47.03454" lon="6.83025">
        <ele>1406</ele>
        <time>2022-07-03T11:34:01.095Z</time>
      </trkpt>
      <trkpt lat="47.03442" lon="6.83012">
        <ele>1403.8999938965</ele>
        <time>2022-07-03T11:34:04.018Z</time>
      </trkpt>
      <trkpt lat="47.03424" lon="6.82986">
        <ele>1403.3999938965</ele>
        <time>2022-07-03T11:34:11.075Z</time>
      </trkpt>
      <trkpt lat="47.03402" lon="6.82957">
        <ele>1402</ele>
        <time>2022-07-03T11:34:17.326Z</time>
      </trkpt>
      <trkpt lat="47.03391" lon="6.82942">
        <ele>1399.2999954224</ele>
        <time>2022-07-03T11:34:20.272Z</time>
      </trkpt>
      <trkpt lat="47.03387" lon="6.82937">
        <ele>1398.1999969482</ele>
        <time>2022-07-03T11:34:21.298Z</time>
      </trkpt>
      <trkpt lat="47.03379" lon="6.82931">
        <ele>1396</ele>
        <time>2022-07-03T11:34:23.067Z</time>
      </trkpt>
      <trkpt lat="47.03375" lon="6.82927">
        <ele>1394.7999954224</ele>
        <time>2022-07-03T11:34:24.018Z</time>
      </trkpt>
      <trkpt lat="47.03371" lon="6.8292">
        <ele>1393.1999969482</ele>
        <time>2022-07-03T11:34:25.246Z</time>
      </trkpt>
      <trkpt lat="47.03367" lon="6.82909">
        <ele>1391.1999969482</ele>
        <time>2022-07-03T11:34:26.918Z</time>
      </trkpt>
      <trkpt lat="47.03363" lon="6.82901">
        <ele>1389.6999969482</ele>
        <time>2022-07-03T11:34:28.244Z</time>
      </trkpt>
      <trkpt lat="47.03347" lon="6.82878">
        <ele>1387.2999954224</ele>
        <time>2022-07-03T11:34:32.636Z</time>
      </trkpt>
      <trkpt lat="47.03336" lon="6.82858">
        <ele>1385</ele>
        <time>2022-07-03T11:34:36.076Z</time>
      </trkpt>
      <trkpt lat="47.03314" lon="6.82824">
        <ele>1379.0999984741</ele>
        <time>2022-07-03T11:34:42.355Z</time>
      </trkpt>
      <trkpt lat="47.03305" lon="6.82814">
        <ele>1377.2999954224</ele>
        <time>2022-07-03T11:34:44.569Z</time>
      </trkpt>
      <trkpt lat="47.03299" lon="6.82804">
        <ele>1375.3999938965</ele>
        <time>2022-07-03T11:34:46.369Z</time>
      </trkpt>
      <trkpt lat="47.03296" lon="6.82797">
        <ele>1374.1999969482</ele>
        <time>2022-07-03T11:34:47.470Z</time>
      </trkpt>
      <trkpt lat="47.03289" lon="6.82784">
        <ele>1372.2999954224</ele>
        <time>2022-07-03T11:34:49.682Z</time>
      </trkpt>
      <trkpt lat="47.03284" lon="6.82772">
        <ele>1370.8999938965</ele>
        <time>2022-07-03T11:34:51.563Z</time>
      </trkpt>
      <trkpt lat="47.03282" lon="6.82764">
        <ele>1370.1999969482</ele>
        <time>2022-07-03T11:34:52.706Z</time>
      </trkpt>
      <trkpt lat="47.03279" lon="6.82758">
        <ele>1369.6999969482</ele>
        <time>2022-07-03T11:34:53.704Z</time>
      </trkpt>
      <trkpt lat="47.03275" lon="6.8275">
        <ele>1369.3999938965</ele>
        <time>2022-07-03T11:34:55.166Z</time>
      </trkpt>
      <trkpt lat="47.03262" lon="6.82735">
        <ele>1367.8999938965</ele>
        <time>2022-07-03T11:34:58.418Z</time>
      </trkpt>
      <trkpt lat="47.03234" lon="6.82709">
        <ele>1365</ele>
        <time>2022-07-03T11:35:04.932Z</time>
      </trkpt>
      <trkpt lat="47.03225" lon="6.82699">
        <ele>1363.7999954224</ele>
        <time>2022-07-03T11:35:07.146Z</time>
      </trkpt>
      <trkpt lat="47.03219" lon="6.82691">
        <ele>1363</ele>
        <time>2022-07-03T11:35:08.732Z</time>
      </trkpt>
      <trkpt lat="47.03215" lon="6.82688">
        <ele>1362.6999969482</ele>
        <time>2022-07-03T11:35:09.553Z</time>
      </trkpt>
      <trkpt lat="47.03211" lon="6.82686">
        <ele>1362.5</ele>
        <time>2022-07-03T11:35:10.440Z</time>
      </trkpt>
      <trkpt lat="47.03206" lon="6.82685">
        <ele>1362.3999938965</ele>
        <time>2022-07-03T11:35:11.832Z</time>
      </trkpt>
      <trkpt lat="47.03196" lon="6.82679">
        <ele>1362.2999954224</ele>
        <time>2022-07-03T11:35:15.286Z</time>
      </trkpt>
      <trkpt lat="47.03162" lon="6.82656">
        <ele>1359.7999954224</ele>
        <time>2022-07-03T11:35:22.642Z</time>
      </trkpt>
      <trkpt lat="47.03152" lon="6.8265">
        <ele>1359.1999969482</ele>
        <time>2022-07-03T11:35:24.775Z</time>
      </trkpt>
      <trkpt lat="47.03134" lon="6.82638">
        <ele>1358.6999969482</ele>
        <time>2022-07-03T11:35:29.952Z</time>
      </trkpt>
      <trkpt lat="47.03123" lon="6.82629">
        <ele>1358.5</ele>
        <time>2022-07-03T11:35:33.638Z</time>
      </trkpt>
      <trkpt lat="47.03103" lon="6.82606">
        <ele>1358.6999969482</ele>
        <time>2022-07-03T11:35:56.089Z</time>
      </trkpt>
      <trkpt lat="47.03075" lon="6.82573">
        <ele>1360.2999954224</ele>
        <time>2022-07-03T11:36:45.713Z</time>
      </trkpt>
      <trkpt lat="47.03058" lon="6.82547">
        <ele>1364.1999969482</ele>
        <time>2022-07-03T11:38:03.183Z</time>
      </trkpt>
      <trkpt lat="47.03052" lon="6.82539">
        <ele>1365.6999969482</ele>
        <time>2022-07-03T11:38:28.895Z</time>
      </trkpt>
      <trkpt lat="47.03045" lon="6.8253">
        <ele>1366.5</ele>
        <time>2022-07-03T11:38:46.321Z</time>
      </trkpt>
      <trkpt lat="47.03039" lon="6.82519">
        <ele>1367.3999938965</ele>
        <time>2022-07-03T11:39:05.591Z</time>
      </trkpt>
      <trkpt lat="47.03034" lon="6.82512">
        <ele>1368.5999984741</ele>
        <time>2022-07-03T11:39:27.461Z</time>
      </trkpt>
      <trkpt lat="47.03026" lon="6.82504">
        <ele>1369.5999984741</ele>
        <time>2022-07-03T11:39:48.759Z</time>
      </trkpt>
      <trkpt lat="47.03017" lon="6.82493">
        <ele>1369.8999938965</ele>
        <time>2022-07-03T11:40:01.256Z</time>
      </trkpt>
      <trkpt lat="47.0301" lon="6.82479">
        <ele>1369.6999969482</ele>
        <time>2022-07-03T11:40:04.676Z</time>
      </trkpt>
      <trkpt lat="47.03" lon="6.82461">
        <ele>1369.2999954224</ele>
        <time>2022-07-03T11:40:08.832Z</time>
      </trkpt>
      <trkpt lat="47.02983" lon="6.82433">
        <ele>1369.1999969482</ele>
        <time>2022-07-03T11:40:28.548Z</time>
      </trkpt>
      <trkpt lat="47.02974" lon="6.82417">
        <ele>1369.1999969482</ele>
        <time>2022-07-03T11:40:40.148Z</time>
      </trkpt>
      <trkpt lat="47.02965" lon="6.82403">
        <ele>1369.3999938965</ele>
        <time>2022-07-03T11:40:52.667Z</time>
      </trkpt>
      <trkpt lat="47.02953" lon="6.82389">
        <ele>1369.3999938965</ele>
        <time>2022-07-03T11:41:05.170Z</time>
      </trkpt>
      <trkpt lat="47.02946" lon="6.82378">
        <ele>1369.7999954224</ele>
        <time>2022-07-03T11:41:18.260Z</time>
      </trkpt>
      <trkpt lat="47.02933" lon="6.82365">
        <ele>1370.3999938965</ele>
        <time>2022-07-03T11:41:38.032Z</time>
      </trkpt>
      <trkpt lat="47.02923" lon="6.82355">
        <ele>1371</ele>
        <time>2022-07-03T11:41:55.352Z</time>
      </trkpt>
      <trkpt lat="47.02915" lon="6.82344">
        <ele>1371.0999984741</ele>
        <time>2022-07-03T11:42:05.120Z</time>
      </trkpt>
      <trkpt lat="47.02906" lon="6.82336">
        <ele>1371.0999984741</ele>
        <time>2022-07-03T11:42:13.781Z</time>
      </trkpt>
      <trkpt lat="47.02887" lon="6.82314">
        <ele>1369.3999938965</ele>
        <time>2022-07-03T11:42:18.539Z</time>
      </trkpt>
      <trkpt lat="47.0288" lon="6.82307">
        <ele>1369.0999984741</ele>
        <time>2022-07-03T11:42:20.530Z</time>
      </trkpt>
      <trkpt lat="47.02854" lon="6.8229">
        <ele>1368.5</ele>
        <time>2022-07-03T11:42:28.351Z</time>
      </trkpt>
      <trkpt lat="47.02839" lon="6.8228">
        <ele>1367.1999969482</ele>
        <time>2022-07-03T11:42:31.591Z</time>
      </trkpt>
      <trkpt lat="47.02819" lon="6.8227">
        <ele>1366.0999984741</ele>
        <time>2022-07-03T11:42:35.867Z</time>
      </trkpt>
      <trkpt lat="47.02784" lon="6.82248">
        <ele>1365.6999969482</ele>
        <time>2022-07-03T11:42:47.815Z</time>
      </trkpt>
      <trkpt lat="47.02766" lon="6.82235">
        <ele>1366.5</ele>
        <time>2022-07-03T11:43:13.679Z</time>
      </trkpt>
      <trkpt lat="47.02743" lon="6.82216">
        <ele>1367.0999984741</ele>
        <time>2022-07-03T11:43:40.994Z</time>
      </trkpt>
      <trkpt lat="47.02733" lon="6.82206">
        <ele>1367.2999954224</ele>
        <time>2022-07-03T11:43:52.645Z</time>
      </trkpt>
      <trkpt lat="47.02711" lon="6.82179">
        <ele>1368.1999969482</ele>
        <time>2022-07-03T11:44:25.607Z</time>
      </trkpt>
      <trkpt lat="47.02685" lon="6.82147">
        <ele>1369</ele>
        <time>2022-07-03T11:45:01.072Z</time>
      </trkpt>
      <trkpt lat="47.02659" lon="6.82113">
        <ele>1368.5</ele>
        <time>2022-07-03T11:45:11.464Z</time>
      </trkpt>
      <trkpt lat="47.02643" lon="6.82095">
        <ele>1368.8999938965</ele>
        <time>2022-07-03T11:45:31.647Z</time>
      </trkpt>
      <trkpt lat="47.02622" lon="6.82067">
        <ele>1370.5</ele>
        <time>2022-07-03T11:46:14.091Z</time>
      </trkpt>
      <trkpt lat="47.02594" lon="6.82029">
        <ele>1375.0999984741</ele>
        <time>2022-07-03T11:47:55.754Z</time>
      </trkpt>
      <trkpt lat="47.02585" lon="6.82019">
        <ele>1376</ele>
        <time>2022-07-03T11:48:15.818Z</time>
      </trkpt>
      <trkpt lat="47.02577" lon="6.82005">
        <ele>1376.7999954224</ele>
        <time>2022-07-03T11:48:35.475Z</time>
      </trkpt>
      <trkpt lat="47.02572" lon="6.81998">
        <ele>1377.1999969482</ele>
        <time>2022-07-03T11:48:45.922Z</time>
      </trkpt>
      <trkpt lat="47.02558" lon="6.8198">
        <ele>1378.1999969482</ele>
        <time>2022-07-03T11:49:13.272Z</time>
      </trkpt>
      <trkpt lat="47.02549" lon="6.81971">
        <ele>1378.8999938965</ele>
        <time>2022-07-03T11:49:30.501Z</time>
      </trkpt>
      <trkpt lat="47.02537" lon="6.81951">
        <ele>1380.3999938965</ele>
        <time>2022-07-03T11:50:03.562Z</time>
      </trkpt>
      <trkpt lat="47.02524" lon="6.81938">
        <ele>1381.6999969482</ele>
        <time>2022-07-03T11:50:32.190Z</time>
      </trkpt>
      <trkpt lat="47.02512" lon="6.81921">
        <ele>1383.5</ele>
        <time>2022-07-03T11:51:10.677Z</time>
      </trkpt>
      <trkpt lat="47.02508" lon="6.81914">
        <ele>1384.1999969482</ele>
        <time>2022-07-03T11:51:25.749Z</time>
      </trkpt>
      <trkpt lat="47.02505" lon="6.81911">
        <ele>1384.5</ele>
        <time>2022-07-03T11:51:32.353Z</time>
      </trkpt>
      <trkpt lat="47.02502" lon="6.81908">
        <ele>1384.8999938965</ele>
        <time>2022-07-03T11:51:40.944Z</time>
      </trkpt>
      <trkpt lat="47.025" lon="6.81897">
        <ele>1385.6999969482</ele>
        <time>2022-07-03T11:51:57.984Z</time>
      </trkpt>
      <trkpt lat="47.025" lon="6.81885">
        <ele>1386.1999969482</ele>
        <time>2022-07-03T11:52:10.602Z</time>
      </trkpt>
      <trkpt lat="47.025" lon="6.81872">
        <ele>1387</ele>
        <time>2022-07-03T11:52:27.849Z</time>
      </trkpt>
      <trkpt lat="47.02501" lon="6.81864">
        <ele>1387.5999984741</ele>
        <time>2022-07-03T11:52:40.713Z</time>
      </trkpt>
      <trkpt lat="47.02501" lon="6.81858">
        <ele>1388.1999969482</ele>
        <time>2022-07-03T11:52:53.747Z</time>
      </trkpt>
      <trkpt lat="47.02499" lon="6.81851">
        <ele>1389.2999954224</ele>
        <time>2022-07-03T11:53:10.010Z</time>
      </trkpt>
      <trkpt lat="47.02499" lon="6.81845">
        <ele>1390.1999969482</ele>
        <time>2022-07-03T11:53:23.040Z</time>
      </trkpt>
      <trkpt lat="47.02498" lon="6.8184">
        <ele>1390.6999969482</ele>
        <time>2022-07-03T11:53:34.249Z</time>
      </trkpt>
      <trkpt lat="47.02494" lon="6.8183">
        <ele>1391.5999984741</ele>
        <time>2022-07-03T11:53:53.707Z</time>
      </trkpt>
      <trkpt lat="47.02489" lon="6.81818">
        <ele>1393.6999969482</ele>
        <time>2022-07-03T11:54:23.853Z</time>
      </trkpt>
      <trkpt lat="47.02485" lon="6.81806">
        <ele>1395.1999969482</ele>
        <time>2022-07-03T11:54:52.758Z</time>
      </trkpt>
      <trkpt lat="47.02483" lon="6.818">
        <ele>1396.3999938965</ele>
        <time>2022-07-03T11:55:07.211Z</time>
      </trkpt>
      <trkpt lat="47.0248" lon="6.81797">
        <ele>1397.2999954224</ele>
        <time>2022-07-03T11:55:18.630Z</time>
      </trkpt>
      <trkpt lat="47.02478" lon="6.81796">
        <ele>1397.7999954224</ele>
        <time>2022-07-03T11:55:25.188Z</time>
      </trkpt>
      <trkpt lat="47.02477" lon="6.81795">
        <ele>1398.2999954224</ele>
        <time>2022-07-03T11:55:29.049Z</time>
      </trkpt>
      <trkpt lat="47.02473" lon="6.81786">
        <ele>1400.2999954224</ele>
        <time>2022-07-03T11:55:52.252Z</time>
      </trkpt>
      <trkpt lat="47.0247" lon="6.81779">
        <ele>1401.6999969482</ele>
        <time>2022-07-03T11:56:09.953Z</time>
      </trkpt>
      <trkpt lat="47.02468" lon="6.81776">
        <ele>1402.5999984741</ele>
        <time>2022-07-03T11:56:18.983Z</time>
      </trkpt>
      <trkpt lat="47.02465" lon="6.81773">
        <ele>1403.8999938965</ele>
        <time>2022-07-03T11:56:30.402Z</time>
      </trkpt>
      <trkpt lat="47.0246" lon="6.81769">
        <ele>1404.7999954224</ele>
        <time>2022-07-03T11:56:48.577Z</time>
      </trkpt>
      <trkpt lat="47.02457" lon="6.81764">
        <ele>1405.6999969482</ele>
        <time>2022-07-03T11:57:03.068Z</time>
      </trkpt>
      <trkpt lat="47.02456" lon="6.81762">
        <ele>1405.8999938965</ele>
        <time>2022-07-03T11:57:07.473Z</time>
      </trkpt>
      <trkpt lat="47.02455" lon="6.8176">
        <ele>1406.5</ele>
        <time>2022-07-03T11:57:12.748Z</time>
      </trkpt>
      <trkpt lat="47.0245" lon="6.81755">
        <ele>1407.5</ele>
        <time>2022-07-03T11:57:31.888Z</time>
      </trkpt>
      <trkpt lat="47.02449" lon="6.81753">
        <ele>1407.6999969482</ele>
        <time>2022-07-03T11:57:36.293Z</time>
      </trkpt>
      <trkpt lat="47.02447" lon="6.81751">
        <ele>1408</ele>
        <time>2022-07-03T11:57:43.063Z</time>
      </trkpt>
      <trkpt lat="47.02444" lon="6.81749">
        <ele>1408.2999954224</ele>
        <time>2022-07-03T11:57:49.519Z</time>
      </trkpt>
      <trkpt lat="47.02441" lon="6.81747">
        <ele>1408.8999938965</ele>
        <time>2022-07-03T11:58:00.073Z</time>
      </trkpt>
      <trkpt lat="47.0244" lon="6.81746">
        <ele>1409</ele>
        <time>2022-07-03T11:58:02.285Z</time>
      </trkpt>
      <trkpt lat="47.02436" lon="6.81745">
        <ele>1409.2999954224</ele>
        <time>2022-07-03T11:58:09.151Z</time>
      </trkpt>
      <trkpt lat="47.02435" lon="6.81743">
        <ele>1409.5999984741</ele>
        <time>2022-07-03T11:58:14.426Z</time>
      </trkpt>
      <trkpt lat="47.02433" lon="6.81743">
        <ele>1409.6999969482</ele>
        <time>2022-07-03T11:58:17.270Z</time>
      </trkpt>
      <trkpt lat="47.02432" lon="6.81742">
        <ele>1410</ele>
        <time>2022-07-03T11:58:21.131Z</time>
      </trkpt>
      <trkpt lat="47.02431" lon="6.81741">
        <ele>1410.5</ele>
        <time>2022-07-03T11:58:24.992Z</time>
      </trkpt>
      <trkpt lat="47.02429" lon="6.81739">
        <ele>1410.5999984741</ele>
        <time>2022-07-03T11:58:28.206Z</time>
      </trkpt>
      <trkpt lat="47.02424" lon="6.81733">
        <ele>1411.3999938965</ele>
        <time>2022-07-03T11:58:46.158Z</time>
      </trkpt>
      <trkpt lat="47.02419" lon="6.81729">
        <ele>1412</ele>
        <time>2022-07-03T11:58:58.959Z</time>
      </trkpt>
      <trkpt lat="47.02417" lon="6.81726">
        <ele>1412.2999954224</ele>
        <time>2022-07-03T11:59:05.356Z</time>
      </trkpt>
      <trkpt lat="47.02412" lon="6.81722">
        <ele>1412.7999954224</ele>
        <time>2022-07-03T11:59:16.223Z</time>
      </trkpt>
      <trkpt lat="47.02409" lon="6.81718">
        <ele>1413.1999969482</ele>
        <time>2022-07-03T11:59:24.743Z</time>
      </trkpt>
      <trkpt lat="47.02407" lon="6.81715">
        <ele>1413.6999969482</ele>
        <time>2022-07-03T11:59:33.772Z</time>
      </trkpt>
      <trkpt lat="47.02405" lon="6.81714">
        <ele>1414.0999984741</ele>
        <time>2022-07-03T11:59:40.422Z</time>
      </trkpt>
      <trkpt lat="47.02402" lon="6.81711">
        <ele>1414.2999954224</ele>
        <time>2022-07-03T11:59:45.786Z</time>
      </trkpt>
      <trkpt lat="47.02397" lon="6.81709">
        <ele>1414.5999984741</ele>
        <time>2022-07-03T11:59:53.662Z</time>
      </trkpt>
      <trkpt lat="47.02393" lon="6.81706">
        <ele>1414.8999938965</ele>
        <time>2022-07-03T12:00:00.866Z</time>
      </trkpt>
      <trkpt lat="47.02391" lon="6.81704">
        <ele>1415.0999984741</ele>
        <time>2022-07-03T12:00:05.260Z</time>
      </trkpt>
      <trkpt lat="47.02388" lon="6.81701">
        <ele>1415.3999938965</ele>
        <time>2022-07-03T12:00:11.894Z</time>
      </trkpt>
      <trkpt lat="47.02386" lon="6.817">
        <ele>1415.6999969482</ele>
        <time>2022-07-03T12:00:18.452Z</time>
      </trkpt>
      <trkpt lat="47.02384" lon="6.81698">
        <ele>1416</ele>
        <time>2022-07-03T12:00:25.140Z</time>
      </trkpt>
      <trkpt lat="47.02383" lon="6.81699">
        <ele>1415.7999954224</ele>
        <time>2022-07-03T12:00:25.394Z</time>
      </trkpt>
      <trkpt lat="47.02381" lon="6.817">
        <ele>1415.8999938965</ele>
        <time>2022-07-03T12:00:28.332Z</time>
      </trkpt>
      <trkpt lat="47.02379" lon="6.81699">
        <ele>1416.1999969482</ele>
        <time>2022-07-03T12:00:34.982Z</time>
      </trkpt>
      <trkpt lat="47.02369" lon="6.81695">
        <ele>1417.8999938965</ele>
        <time>2022-07-03T12:01:07.723Z</time>
      </trkpt>
      <trkpt lat="47.02368" lon="6.81693">
        <ele>1418.5</ele>
        <time>2022-07-03T12:01:12.998Z</time>
      </trkpt>
      <trkpt lat="47.02366" lon="6.81692">
        <ele>1418.7999954224</ele>
        <time>2022-07-03T12:01:19.648Z</time>
      </trkpt>
      <trkpt lat="47.02363" lon="6.81691">
        <ele>1419.3999938965</ele>
        <time>2022-07-03T12:01:29.295Z</time>
      </trkpt>
      <trkpt lat="47.02358" lon="6.81691">
        <ele>1420.2999954224</ele>
        <time>2022-07-03T12:01:45.208Z</time>
      </trkpt>
      <trkpt lat="47.02352" lon="6.81689">
        <ele>1421.2999954224</ele>
        <time>2022-07-03T12:02:04.779Z</time>
      </trkpt>
      <trkpt lat="47.02346" lon="6.81686">
        <ele>1422</ele>
        <time>2022-07-03T12:02:19.834Z</time>
      </trkpt>
      <trkpt lat="47.02342" lon="6.81686">
        <ele>1422.2999954224</ele>
        <time>2022-07-03T12:02:26.719Z</time>
      </trkpt>
      <trkpt lat="47.0234" lon="6.81686">
        <ele>1422.3999938965</ele>
        <time>2022-07-03T12:02:29.563Z</time>
      </trkpt>
      <trkpt lat="47.02336" lon="6.81684">
        <ele>1422.8999938965</ele>
        <time>2022-07-03T12:02:40.570Z</time>
      </trkpt>
      <trkpt lat="47.02333" lon="6.81682">
        <ele>1423.0999984741</ele>
        <time>2022-07-03T12:02:45.646Z</time>
      </trkpt>
      <trkpt lat="47.0233" lon="6.8168">
        <ele>1423.2999954224</ele>
        <time>2022-07-03T12:02:50.761Z</time>
      </trkpt>
      <trkpt lat="47.0232" lon="6.81677">
        <ele>1424.1999969482</ele>
        <time>2022-07-03T12:03:10.257Z</time>
      </trkpt>
      <trkpt lat="47.02318" lon="6.81675">
        <ele>1424.5999984741</ele>
        <time>2022-07-03T12:03:17.816Z</time>
      </trkpt>
      <trkpt lat="47.02317" lon="6.81674">
        <ele>1424.7999954224</ele>
        <time>2022-07-03T12:03:21.677Z</time>
      </trkpt>
      <trkpt lat="47.02316" lon="6.81673">
        <ele>1425</ele>
        <time>2022-07-03T12:03:25.538Z</time>
      </trkpt>
      <trkpt lat="47.02308" lon="6.81673">
        <ele>1426.2999954224</ele>
        <time>2022-07-03T12:03:50.828Z</time>
      </trkpt>
      <trkpt lat="47.02307" lon="6.81674">
        <ele>1426.5</ele>
        <time>2022-07-03T12:03:54.530Z</time>
      </trkpt>
      <trkpt lat="47.02306" lon="6.81674">
        <ele>1426.7999954224</ele>
        <time>2022-07-03T12:03:57.655Z</time>
      </trkpt>
      <trkpt lat="47.02304" lon="6.81675">
        <ele>1426.8999938965</ele>
        <time>2022-07-03T12:04:00.593Z</time>
      </trkpt>
      <trkpt lat="47.02303" lon="6.81675">
        <ele>1427.0999984741</ele>
        <time>2022-07-03T12:04:03.719Z</time>
      </trkpt>
      <trkpt lat="47.02302" lon="6.81674">
        <ele>1427.5</ele>
        <time>2022-07-03T12:04:07.664Z</time>
      </trkpt>
      <trkpt lat="47.02297" lon="6.81676">
        <ele>1428.1999969482</ele>
        <time>2022-07-03T12:04:23.787Z</time>
      </trkpt>
      <trkpt lat="47.02296" lon="6.81676">
        <ele>1428.5</ele>
        <time>2022-07-03T12:04:26.913Z</time>
      </trkpt>
      <trkpt lat="47.02294" lon="6.81676">
        <ele>1429</ele>
        <time>2022-07-03T12:04:33.449Z</time>
      </trkpt>
      <trkpt lat="47.02292" lon="6.81675">
        <ele>1429.8999938965</ele>
        <time>2022-07-03T12:04:40.098Z</time>
      </trkpt>
      <trkpt lat="47.0229" lon="6.81675">
        <ele>1430.2999954224</ele>
        <time>2022-07-03T12:04:46.350Z</time>
      </trkpt>
      <trkpt lat="47.02289" lon="6.81674">
        <ele>1430.6999969482</ele>
        <time>2022-07-03T12:04:50.211Z</time>
      </trkpt>
      <trkpt lat="47.02287" lon="6.81674">
        <ele>1431.5999984741</ele>
        <time>2022-07-03T12:04:56.462Z</time>
      </trkpt>
      <trkpt lat="47.02285" lon="6.81674">
        <ele>1431.8999938965</ele>
        <time>2022-07-03T12:05:02.713Z</time>
      </trkpt>
      <trkpt lat="47.02283" lon="6.81675">
        <ele>1432.5</ele>
        <time>2022-07-03T12:05:09.631Z</time>
      </trkpt>
      <trkpt lat="47.0228" lon="6.81674">
        <ele>1433.3999938965</ele>
        <time>2022-07-03T12:05:19.278Z</time>
      </trkpt>
      <trkpt lat="47.02279" lon="6.81674">
        <ele>1433.5999984741</ele>
        <time>2022-07-03T12:05:22.404Z</time>
      </trkpt>
      <trkpt lat="47.02278" lon="6.81672">
        <ele>1434</ele>
        <time>2022-07-03T12:05:27.909Z</time>
      </trkpt>
      <trkpt lat="47.02277" lon="6.81672">
        <ele>1434.5</ele>
        <time>2022-07-03T12:05:31.035Z</time>
      </trkpt>
      <trkpt lat="47.02276" lon="6.81672">
        <ele>1434.8999938965</ele>
        <time>2022-07-03T12:05:34.161Z</time>
      </trkpt>
      <trkpt lat="47.02274" lon="6.81671">
        <ele>1435.6999969482</ele>
        <time>2022-07-03T12:05:41.078Z</time>
      </trkpt>
      <trkpt lat="47.02271" lon="6.81669">
        <ele>1436.2999954224</ele>
        <time>2022-07-03T12:05:51.373Z</time>
      </trkpt>
      <trkpt lat="47.02268" lon="6.81669">
        <ele>1436.3999938965</ele>
        <time>2022-07-03T12:05:54.890Z</time>
      </trkpt>
      <trkpt lat="47.02266" lon="6.81667">
        <ele>1436.5</ele>
        <time>2022-07-03T12:05:58.091Z</time>
      </trkpt>
      <trkpt lat="47.02262" lon="6.81665">
        <ele>1436.7999954224</ele>
        <time>2022-07-03T12:06:05.139Z</time>
      </trkpt>
      <trkpt lat="47.02261" lon="6.81664">
        <ele>1437</ele>
        <time>2022-07-03T12:06:09.000Z</time>
      </trkpt>
      <trkpt lat="47.02257" lon="6.81663">
        <ele>1436.5</ele>
        <time>2022-07-03T12:06:09.790Z</time>
      </trkpt>
      <trkpt lat="47.02255" lon="6.81662">
        <ele>1436.5999984741</ele>
        <time>2022-07-03T12:06:12.756Z</time>
      </trkpt>
      <trkpt lat="47.02254" lon="6.8166">
        <ele>1437.0999984741</ele>
        <time>2022-07-03T12:06:18.031Z</time>
      </trkpt>
      <trkpt lat="47.02252" lon="6.81658">
        <ele>1437.2999954224</ele>
        <time>2022-07-03T12:06:22.424Z</time>
      </trkpt>
      <trkpt lat="47.02251" lon="6.81657">
        <ele>1437.5</ele>
        <time>2022-07-03T12:06:26.285Z</time>
      </trkpt>
      <trkpt lat="47.0225" lon="6.81655">
        <ele>1437.6999969482</ele>
        <time>2022-07-03T12:06:30.690Z</time>
      </trkpt>
      <trkpt lat="47.02243" lon="6.81649">
        <ele>1437.2999954224</ele>
        <time>2022-07-03T12:06:32.393Z</time>
      </trkpt>
      <trkpt lat="47.02237" lon="6.81646">
        <ele>1436.7999954224</ele>
        <time>2022-07-03T12:06:33.628Z</time>
      </trkpt>
      <trkpt lat="47.02234" lon="6.81645">
        <ele>1436.6999969482</ele>
        <time>2022-07-03T12:06:34.396Z</time>
      </trkpt>
      <trkpt lat="47.02232" lon="6.81645">
        <ele>1436.3999938965</ele>
        <time>2022-07-03T12:06:34.785Z</time>
      </trkpt>
      <trkpt lat="47.0223" lon="6.81644">
        <ele>1436.1999969482</ele>
        <time>2022-07-03T12:06:35.198Z</time>
      </trkpt>
      <trkpt lat="47.02229" lon="6.81642">
        <ele>1436.1999969482</ele>
        <time>2022-07-03T12:06:36.566Z</time>
      </trkpt>
      <trkpt lat="47.02228" lon="6.8164">
        <ele>1436</ele>
        <time>2022-07-03T12:06:36.894Z</time>
      </trkpt>
      <trkpt lat="47.02227" lon="6.81639">
        <ele>1435.7999954224</ele>
        <time>2022-07-03T12:06:37.134Z</time>
      </trkpt>
      <trkpt lat="47.02223" lon="6.81635">
        <ele>1435.1999969482</ele>
        <time>2022-07-03T12:06:38.084Z</time>
      </trkpt>
      <trkpt lat="47.02221" lon="6.81634">
        <ele>1434.7999954224</ele>
        <time>2022-07-03T12:06:38.515Z</time>
      </trkpt>
      <trkpt lat="47.02207" lon="6.81627">
        <ele>1434.8999938965</ele>
        <time>2022-07-03T12:06:51.403Z</time>
      </trkpt>
      <trkpt lat="47.02203" lon="6.81623">
        <ele>1436</ele>
        <time>2022-07-03T12:07:06.682Z</time>
      </trkpt>
      <trkpt lat="47.022" lon="6.81621">
        <ele>1436.6999969482</ele>
        <time>2022-07-03T12:07:16.977Z</time>
      </trkpt>
      <trkpt lat="47.02196" lon="6.81621">
        <ele>1436.5999984741</ele>
        <time>2022-07-03T12:07:18.045Z</time>
      </trkpt>
      <trkpt lat="47.02193" lon="6.8162">
        <ele>1437.0999984741</ele>
        <time>2022-07-03T12:07:27.693Z</time>
      </trkpt>
      <trkpt lat="47.02193" lon="6.81619">
        <ele>1437.0999984741</ele>
        <time>2022-07-03T12:07:28.207Z</time>
      </trkpt>
      <trkpt lat="47.0219" lon="6.81619">
        <ele>1437.2999954224</ele>
        <time>2022-07-03T12:07:33.004Z</time>
      </trkpt>
      <trkpt lat="47.02187" lon="6.8162">
        <ele>1437.5</ele>
        <time>2022-07-03T12:07:37.929Z</time>
      </trkpt>
      <trkpt lat="47.02184" lon="6.81619">
        <ele>1437.5</ele>
        <time>2022-07-03T12:07:40.430Z</time>
      </trkpt>
      <trkpt lat="47.0218" lon="6.81618">
        <ele>1437.5999984741</ele>
        <time>2022-07-03T12:07:44.695Z</time>
      </trkpt>
      <trkpt lat="47.02168" lon="6.81612">
        <ele>1436.8999938965</ele>
        <time>2022-07-03T12:07:47.196Z</time>
      </trkpt>
      <trkpt lat="47.02166" lon="6.81612">
        <ele>1436.2999954224</ele>
        <time>2022-07-03T12:07:47.602Z</time>
      </trkpt>
      <trkpt lat="47.02164" lon="6.8161">
        <ele>1436.1999969482</ele>
        <time>2022-07-03T12:07:48.133Z</time>
      </trkpt>
      <trkpt lat="47.02163" lon="6.81607">
        <ele>1436.1999969482</ele>
        <time>2022-07-03T12:07:50.007Z</time>
      </trkpt>
      <trkpt lat="47.02162" lon="6.81606">
        <ele>1436</ele>
        <time>2022-07-03T12:07:50.247Z</time>
      </trkpt>
      <trkpt lat="47.0216" lon="6.81607">
        <ele>1435.5999984741</ele>
        <time>2022-07-03T12:07:50.660Z</time>
      </trkpt>
      <trkpt lat="47.02154" lon="6.81606">
        <ele>1434.2999954224</ele>
        <time>2022-07-03T12:07:51.852Z</time>
      </trkpt>
      <trkpt lat="47.0215" lon="6.81604">
        <ele>1433.3999938965</ele>
        <time>2022-07-03T12:07:52.680Z</time>
      </trkpt>
      <trkpt lat="47.02145" lon="6.81601">
        <ele>1432.6999969482</ele>
        <time>2022-07-03T12:07:53.733Z</time>
      </trkpt>
      <trkpt lat="47.02137" lon="6.81595">
        <ele>1433.5</ele>
        <time>2022-07-03T12:08:11.049Z</time>
      </trkpt>
      <trkpt lat="47.02131" lon="6.81593">
        <ele>1433.8999938965</ele>
        <time>2022-07-03T12:08:20.840Z</time>
      </trkpt>
      <trkpt lat="47.0212" lon="6.8159">
        <ele>1434.7999954224</ele>
        <time>2022-07-03T12:08:40.851Z</time>
      </trkpt>
      <trkpt lat="47.02116" lon="6.81589">
        <ele>1434.5999984741</ele>
        <time>2022-07-03T12:08:41.682Z</time>
      </trkpt>
      <trkpt lat="47.02113" lon="6.81588">
        <ele>1434.6999969482</ele>
        <time>2022-07-03T12:08:45.255Z</time>
      </trkpt>
      <trkpt lat="47.02109" lon="6.81585">
        <ele>1434.6999969482</ele>
        <time>2022-07-03T12:08:48.976Z</time>
      </trkpt>
      <trkpt lat="47.02099" lon="6.81582">
        <ele>1434.3999938965</ele>
        <time>2022-07-03T12:08:51.538Z</time>
      </trkpt>
      <trkpt lat="47.02096" lon="6.81579">
        <ele>1434.7999954224</ele>
        <time>2022-07-03T12:09:00.129Z</time>
      </trkpt>
      <trkpt lat="47.02093" lon="6.81579">
        <ele>1434.8999938965</ele>
        <time>2022-07-03T12:09:03.645Z</time>
      </trkpt>
      <trkpt lat="47.02089" lon="6.81578">
        <ele>1434.6999969482</ele>
        <time>2022-07-03T12:09:04.502Z</time>
      </trkpt>
      <trkpt lat="47.02083" lon="6.81574">
        <ele>1435.6999969482</ele>
        <time>2022-07-03T12:09:25.211Z</time>
      </trkpt>
      <trkpt lat="47.0208" lon="6.81574">
        <ele>1435.5</ele>
        <time>2022-07-03T12:09:25.794Z</time>
      </trkpt>
      <trkpt lat="47.02076" lon="6.81574">
        <ele>1435.1999969482</ele>
        <time>2022-07-03T12:09:26.590Z</time>
      </trkpt>
      <trkpt lat="47.02073" lon="6.81573">
        <ele>1435.1999969482</ele>
        <time>2022-07-03T12:09:29.075Z</time>
      </trkpt>
      <trkpt lat="47.02069" lon="6.8157">
        <ele>1434.8999938965</ele>
        <time>2022-07-03T12:09:29.886Z</time>
      </trkpt>
      <trkpt lat="47.02066" lon="6.81568">
        <ele>1434.8999938965</ele>
        <time>2022-07-03T12:09:32.622Z</time>
      </trkpt>
      <trkpt lat="47.02062" lon="6.81565">
        <ele>1434.7999954224</ele>
        <time>2022-07-03T12:09:33.831Z</time>
      </trkpt>
      <trkpt lat="47.02057" lon="6.81563">
        <ele>1434.7999954224</ele>
        <time>2022-07-03T12:09:38.050Z</time>
      </trkpt>
      <trkpt lat="47.02052" lon="6.81558">
        <ele>1435.2999954224</ele>
        <time>2022-07-03T12:09:49.090Z</time>
      </trkpt>
      <trkpt lat="47.02048" lon="6.81556">
        <ele>1435.5</ele>
        <time>2022-07-03T12:09:55.022Z</time>
      </trkpt>
      <trkpt lat="47.02046" lon="6.81555">
        <ele>1435.5999984741</ele>
        <time>2022-07-03T12:09:57.988Z</time>
      </trkpt>
      <trkpt lat="47.0204" lon="6.81551">
        <ele>1436.1999969482</ele>
        <time>2022-07-03T12:10:10.915Z</time>
      </trkpt>
      <trkpt lat="47.02034" lon="6.81548">
        <ele>1436.5</ele>
        <time>2022-07-03T12:10:19.783Z</time>
      </trkpt>
      <trkpt lat="47.02028" lon="6.81546">
        <ele>1436.3999938965</ele>
        <time>2022-07-03T12:10:21.590Z</time>
      </trkpt>
      <trkpt lat="47.02023" lon="6.81544">
        <ele>1436.1999969482</ele>
        <time>2022-07-03T12:10:22.758Z</time>
      </trkpt>
      <trkpt lat="47.02018" lon="6.8154">
        <ele>1435.7999954224</ele>
        <time>2022-07-03T12:10:23.888Z</time>
      </trkpt>
      <trkpt lat="47.02014" lon="6.81537">
        <ele>1435.5</ele>
        <time>2022-07-03T12:10:24.765Z</time>
      </trkpt>
      <trkpt lat="47.02008" lon="6.81534">
        <ele>1435</ele>
        <time>2022-07-03T12:10:26.006Z</time>
      </trkpt>
      <trkpt lat="47.01997" lon="6.8153">
        <ele>1433.8999938965</ele>
        <time>2022-07-03T12:10:28.230Z</time>
      </trkpt>
      <trkpt lat="47.01988" lon="6.81529">
        <ele>1433.3999938965</ele>
        <time>2022-07-03T12:10:30.007Z</time>
      </trkpt>
      <trkpt lat="47.01982" lon="6.81526">
        <ele>1432.3999938965</ele>
        <time>2022-07-03T12:10:31.259Z</time>
      </trkpt>
      <trkpt lat="47.01973" lon="6.81522">
        <ele>1431.2999954224</ele>
        <time>2022-07-03T12:10:33.108Z</time>
      </trkpt>
      <trkpt lat="47.01967" lon="6.81521">
        <ele>1430.6999969482</ele>
        <time>2022-07-03T12:10:34.283Z</time>
      </trkpt>
      <trkpt lat="47.01962" lon="6.81519">
        <ele>1430.5999984741</ele>
        <time>2022-07-03T12:10:35.757Z</time>
      </trkpt>
      <trkpt lat="47.01951" lon="6.8151">
        <ele>1431.7999954224</ele>
        <time>2022-07-03T12:11:01.403Z</time>
      </trkpt>
      <trkpt lat="47.01946" lon="6.81507">
        <ele>1432.1999969482</ele>
        <time>2022-07-03T12:11:10.556Z</time>
      </trkpt>
      <trkpt lat="47.01936" lon="6.81501">
        <ele>1430.7999954224</ele>
        <time>2022-07-03T12:11:12.685Z</time>
      </trkpt>
      <trkpt lat="47.01926" lon="6.81496">
        <ele>1430</ele>
        <time>2022-07-03T12:11:14.763Z</time>
      </trkpt>
      <trkpt lat="47.01918" lon="6.81493">
        <ele>1429.3999938965</ele>
        <time>2022-07-03T12:11:16.370Z</time>
      </trkpt>
      <trkpt lat="47.01913" lon="6.81493">
        <ele>1429.6999969482</ele>
        <time>2022-07-03T12:11:24.067Z</time>
      </trkpt>
      <trkpt lat="47.01907" lon="6.81491">
        <ele>1428.3999938965</ele>
        <time>2022-07-03T12:11:25.284Z</time>
      </trkpt>
      <trkpt lat="47.01897" lon="6.81488">
        <ele>1426.1999969482</ele>
        <time>2022-07-03T12:11:27.287Z</time>
      </trkpt>
      <trkpt lat="47.01893" lon="6.81484">
        <ele>1425.3999938965</ele>
        <time>2022-07-03T12:11:28.237Z</time>
      </trkpt>
      <trkpt lat="47.01886" lon="6.8148">
        <ele>1424</ele>
        <time>2022-07-03T12:11:29.703Z</time>
      </trkpt>
      <trkpt lat="47.01881" lon="6.81476">
        <ele>1423.6999969482</ele>
        <time>2022-07-03T12:11:30.867Z</time>
      </trkpt>
      <trkpt lat="47.01878" lon="6.81471">
        <ele>1423.3999938965</ele>
        <time>2022-07-03T12:11:31.682Z</time>
      </trkpt>
      <trkpt lat="47.01875" lon="6.81468">
        <ele>1423.3999938965</ele>
        <time>2022-07-03T12:11:34.642Z</time>
      </trkpt>
      <trkpt lat="47.01869" lon="6.81465">
        <ele>1423</ele>
        <time>2022-07-03T12:11:35.808Z</time>
      </trkpt>
      <trkpt lat="47.01866" lon="6.81465">
        <ele>1423</ele>
        <time>2022-07-03T12:11:38.313Z</time>
      </trkpt>
      <trkpt lat="47.01859" lon="6.81466">
        <ele>1423.6999969482</ele>
        <time>2022-07-03T12:11:53.225Z</time>
      </trkpt>
      <trkpt lat="47.01852" lon="6.81464">
        <ele>1422.5999984741</ele>
        <time>2022-07-03T12:11:54.615Z</time>
      </trkpt>
      <trkpt lat="47.01842" lon="6.8145">
        <ele>1420.1999969482</ele>
        <time>2022-07-03T12:11:57.335Z</time>
      </trkpt>
      <trkpt lat="47.01838" lon="6.81445">
        <ele>1420</ele>
        <time>2022-07-03T12:11:58.532Z</time>
      </trkpt>
      <trkpt lat="47.01836" lon="6.81444">
        <ele>1420.0999984741</ele>
        <time>2022-07-03T12:12:01.499Z</time>
      </trkpt>
      <trkpt lat="47.01828" lon="6.81441">
        <ele>1420</ele>
        <time>2022-07-03T12:12:04.044Z</time>
      </trkpt>
      <trkpt lat="47.01827" lon="6.81441">
        <ele>1420</ele>
        <time>2022-07-03T12:12:04.854Z</time>
      </trkpt>
      <trkpt lat="47.0182" lon="6.8144">
        <ele>1420.0999984741</ele>
        <time>2022-07-03T12:12:11.493Z</time>
      </trkpt>
      <trkpt lat="47.01819" lon="6.81439">
        <ele>1420.1999969482</ele>
        <time>2022-07-03T12:12:13.704Z</time>
      </trkpt>
      <trkpt lat="47.01817" lon="6.81433">
        <ele>1421</ele>
        <time>2022-07-03T12:12:28.157Z</time>
      </trkpt>
      <trkpt lat="47.01815" lon="6.81432">
        <ele>1421.1999969482</ele>
        <time>2022-07-03T12:12:32.426Z</time>
      </trkpt>
      <trkpt lat="47.01814" lon="6.8143">
        <ele>1421.6999969482</ele>
        <time>2022-07-03T12:12:37.932Z</time>
      </trkpt>
      <trkpt lat="47.01812" lon="6.81428">
        <ele>1421.5</ele>
        <time>2022-07-03T12:12:38.402Z</time>
      </trkpt>
      <trkpt lat="47.01808" lon="6.81427">
        <ele>1420.5</ele>
        <time>2022-07-03T12:12:39.192Z</time>
      </trkpt>
      <trkpt lat="47.01802" lon="6.81423">
        <ele>1419.3999938965</ele>
        <time>2022-07-03T12:12:40.496Z</time>
      </trkpt>
      <trkpt lat="47.018" lon="6.81423">
        <ele>1418.3999938965</ele>
        <time>2022-07-03T12:12:40.885Z</time>
      </trkpt>
      <trkpt lat="47.01798" lon="6.81422">
        <ele>1418.0999984741</ele>
        <time>2022-07-03T12:12:41.298Z</time>
      </trkpt>
      <trkpt lat="47.01794" lon="6.81419">
        <ele>1417</ele>
        <time>2022-07-03T12:12:42.175Z</time>
      </trkpt>
      <trkpt lat="47.01792" lon="6.81417">
        <ele>1416.8999938965</ele>
        <time>2022-07-03T12:12:42.729Z</time>
      </trkpt>
      <trkpt lat="47.01791" lon="6.81416">
        <ele>1416.6999969482</ele>
        <time>2022-07-03T12:12:42.969Z</time>
      </trkpt>
      <trkpt lat="47.01789" lon="6.81416">
        <ele>1416.5</ele>
        <time>2022-07-03T12:12:43.358Z</time>
      </trkpt>
      <trkpt lat="47.01788" lon="6.81416">
        <ele>1416.5</ele>
        <time>2022-07-03T12:12:44.168Z</time>
      </trkpt>
      <trkpt lat="47.01787" lon="6.81416">
        <ele>1416.3999938965</ele>
        <time>2022-07-03T12:12:44.363Z</time>
      </trkpt>
      <trkpt lat="47.01785" lon="6.81414">
        <ele>1416.2999954224</ele>
        <time>2022-07-03T12:12:44.909Z</time>
      </trkpt>
      <trkpt lat="47.01783" lon="6.81412">
        <ele>1415.5999984741</ele>
        <time>2022-07-03T12:12:45.379Z</time>
      </trkpt>
      <trkpt lat="47.0178" lon="6.81409">
        <ele>1414.6999969482</ele>
        <time>2022-07-03T12:12:46.090Z</time>
      </trkpt>
      <trkpt lat="47.01777" lon="6.81408">
        <ele>1414.0999984741</ele>
        <time>2022-07-03T12:12:46.707Z</time>
      </trkpt>
      <trkpt lat="47.01775" lon="6.81405">
        <ele>1413.3999938965</ele>
        <time>2022-07-03T12:12:47.268Z</time>
      </trkpt>
      <trkpt lat="47.01773" lon="6.81405">
        <ele>1413.0999984741</ele>
        <time>2022-07-03T12:12:47.657Z</time>
      </trkpt>
      <trkpt lat="47.01771" lon="6.81403">
        <ele>1412.7999954224</ele>
        <time>2022-07-03T12:12:48.137Z</time>
      </trkpt>
      <trkpt lat="47.01769" lon="6.814">
        <ele>1412.5</ele>
        <time>2022-07-03T12:12:48.699Z</time>
      </trkpt>
      <trkpt lat="47.01767" lon="6.81398">
        <ele>1412.1999969482</ele>
        <time>2022-07-03T12:12:49.169Z</time>
      </trkpt>
      <trkpt lat="47.01764" lon="6.81396">
        <ele>1412</ele>
        <time>2022-07-03T12:12:49.813Z</time>
      </trkpt>
      <trkpt lat="47.01761" lon="6.81394">
        <ele>1411.7999954224</ele>
        <time>2022-07-03T12:12:50.424Z</time>
      </trkpt>
      <trkpt lat="47.01757" lon="6.81392">
        <ele>1411.5999984741</ele>
        <time>2022-07-03T12:12:51.311Z</time>
      </trkpt>
      <trkpt lat="47.01755" lon="6.8139">
        <ele>1411.5</ele>
        <time>2022-07-03T12:12:51.841Z</time>
      </trkpt>
      <trkpt lat="47.01752" lon="6.81386">
        <ele>1411.5</ele>
        <time>2022-07-03T12:12:55.172Z</time>
      </trkpt>
      <trkpt lat="47.01751" lon="6.81384">
        <ele>1411.1999969482</ele>
        <time>2022-07-03T12:12:55.500Z</time>
      </trkpt>
      <trkpt lat="47.01749" lon="6.81381">
        <ele>1411.2999954224</ele>
        <time>2022-07-03T12:12:58.945Z</time>
      </trkpt>
      <trkpt lat="47.01748" lon="6.81381">
        <ele>1411.0999984741</ele>
        <time>2022-07-03T12:12:59.157Z</time>
      </trkpt>
      <trkpt lat="47.01748" lon="6.8138">
        <ele>1411.0999984741</ele>
        <time>2022-07-03T12:12:59.749Z</time>
      </trkpt>
      <trkpt lat="47.01741" lon="6.81373">
        <ele>1410</ele>
        <time>2022-07-03T12:13:01.414Z</time>
      </trkpt>
      <trkpt lat="47.01739" lon="6.81371">
        <ele>1409.5999984741</ele>
        <time>2022-07-03T12:13:01.895Z</time>
      </trkpt>
      <trkpt lat="47.01738" lon="6.81369">
        <ele>1409.5</ele>
        <time>2022-07-03T12:13:02.211Z</time>
      </trkpt>
      <trkpt lat="47.01736" lon="6.81367">
        <ele>1409.1999969482</ele>
        <time>2022-07-03T12:13:02.681Z</time>
      </trkpt>
      <trkpt lat="47.01734" lon="6.81364">
        <ele>1408.7999954224</ele>
        <time>2022-07-03T12:13:03.243Z</time>
      </trkpt>
      <trkpt lat="47.01731" lon="6.8136">
        <ele>1408.0999984741</ele>
        <time>2022-07-03T12:13:04.042Z</time>
      </trkpt>
      <trkpt lat="47.01728" lon="6.81355">
        <ele>1407.2999954224</ele>
        <time>2022-07-03T12:13:04.930Z</time>
      </trkpt>
      <trkpt lat="47.01726" lon="6.81354">
        <ele>1406.5999984741</ele>
        <time>2022-07-03T12:13:05.343Z</time>
      </trkpt>
      <trkpt lat="47.01723" lon="6.81352">
        <ele>1406</ele>
        <time>2022-07-03T12:13:06.007Z</time>
      </trkpt>
      <trkpt lat="47.01722" lon="6.8135">
        <ele>1405.0999984741</ele>
        <time>2022-07-03T12:13:06.335Z</time>
      </trkpt>
      <trkpt lat="47.01719" lon="6.81348">
        <ele>1404.5</ele>
        <time>2022-07-03T12:13:06.975Z</time>
      </trkpt>
      <trkpt lat="47.01713" lon="6.81341">
        <ele>1403.2999954224</ele>
        <time>2022-07-03T12:13:08.480Z</time>
      </trkpt>
      <trkpt lat="47.01708" lon="6.81337">
        <ele>1402.6999969482</ele>
        <time>2022-07-03T12:13:09.611Z</time>
      </trkpt>
      <trkpt lat="47.01695" lon="6.81323">
        <ele>1402.3999938965</ele>
        <time>2022-07-03T12:13:14.168Z</time>
      </trkpt>
      <trkpt lat="47.01683" lon="6.81313">
        <ele>1400.7999954224</ele>
        <time>2022-07-03T12:13:16.881Z</time>
      </trkpt>
      <trkpt lat="47.01674" lon="6.81307">
        <ele>1399.8999938965</ele>
        <time>2022-07-03T12:13:18.825Z</time>
      </trkpt>
      <trkpt lat="47.01662" lon="6.81296">
        <ele>1399.3999938965</ele>
        <time>2022-07-03T12:13:22.152Z</time>
      </trkpt>
      <trkpt lat="47.01649" lon="6.81287">
        <ele>1398.7999954224</ele>
        <time>2022-07-03T12:13:25.336Z</time>
      </trkpt>
      <trkpt lat="47.01637" lon="6.81276">
        <ele>1398.0999984741</ele>
        <time>2022-07-03T12:13:28.275Z</time>
      </trkpt>
      <trkpt lat="47.01621" lon="6.81264">
        <ele>1397.5999984741</ele>
        <time>2022-07-03T12:13:32.860Z</time>
      </trkpt>
      <trkpt lat="47.01608" lon="6.81252">
        <ele>1397.3999938965</ele>
        <time>2022-07-03T12:13:37.517Z</time>
      </trkpt>
      <trkpt lat="47.01604" lon="6.81247">
        <ele>1397</ele>
        <time>2022-07-03T12:13:38.555Z</time>
      </trkpt>
      <trkpt lat="47.01602" lon="6.81245">
        <ele>1396.5999984741</ele>
        <time>2022-07-03T12:13:39.025Z</time>
      </trkpt>
      <trkpt lat="47.01595" lon="6.81239">
        <ele>1395.8999938965</ele>
        <time>2022-07-03T12:13:40.624Z</time>
      </trkpt>
      <trkpt lat="47.01586" lon="6.81235">
        <ele>1395.1999969482</ele>
        <time>2022-07-03T12:13:42.474Z</time>
      </trkpt>
      <trkpt lat="47.01583" lon="6.81233">
        <ele>1394.8999938965</ele>
        <time>2022-07-03T12:13:43.121Z</time>
      </trkpt>
      <trkpt lat="47.0158" lon="6.8123">
        <ele>1394.3999938965</ele>
        <time>2022-07-03T12:13:43.831Z</time>
      </trkpt>
      <trkpt lat="47.01575" lon="6.81224">
        <ele>1393.1999969482</ele>
        <time>2022-07-03T12:13:45.097Z</time>
      </trkpt>
      <trkpt lat="47.01571" lon="6.81222">
        <ele>1392</ele>
        <time>2022-07-03T12:13:45.941Z</time>
      </trkpt>
      <trkpt lat="47.01568" lon="6.81223">
        <ele>1391.2999954224</ele>
        <time>2022-07-03T12:13:46.541Z</time>
      </trkpt>
      <trkpt lat="47.01562" lon="6.81221">
        <ele>1390.1999969482</ele>
        <time>2022-07-03T12:13:47.758Z</time>
      </trkpt>
      <trkpt lat="47.01558" lon="6.81218">
        <ele>1389</ele>
        <time>2022-07-03T12:13:48.635Z</time>
      </trkpt>
      <trkpt lat="47.01554" lon="6.81215">
        <ele>1388.0999984741</ele>
        <time>2022-07-03T12:13:49.511Z</time>
      </trkpt>
      <trkpt lat="47.01552" lon="6.81213">
        <ele>1387.3999938965</ele>
        <time>2022-07-03T12:13:49.992Z</time>
      </trkpt>
      <trkpt lat="47.01549" lon="6.81211">
        <ele>1386.6999969482</ele>
        <time>2022-07-03T12:13:50.632Z</time>
      </trkpt>
      <trkpt lat="47.01543" lon="6.812">
        <ele>1385.0999984741</ele>
        <time>2022-07-03T12:13:52.516Z</time>
      </trkpt>
      <trkpt lat="47.01539" lon="6.81196">
        <ele>1385</ele>
        <time>2022-07-03T12:13:53.878Z</time>
      </trkpt>
      <trkpt lat="47.01537" lon="6.81189">
        <ele>1384.5</ele>
        <time>2022-07-03T12:13:54.899Z</time>
      </trkpt>
      <trkpt lat="47.01536" lon="6.81183">
        <ele>1383.8999938965</ele>
        <time>2022-07-03T12:13:55.715Z</time>
      </trkpt>
      <trkpt lat="47.01535" lon="6.81178">
        <ele>1383.6999969482</ele>
        <time>2022-07-03T12:13:56.408Z</time>
      </trkpt>
      <trkpt lat="47.01536" lon="6.8117">
        <ele>1383.5</ele>
        <time>2022-07-03T12:13:57.717Z</time>
      </trkpt>
      <trkpt lat="47.01537" lon="6.81165">
        <ele>1383.3999938965</ele>
        <time>2022-07-03T12:13:58.618Z</time>
      </trkpt>
      <trkpt lat="47.01537" lon="6.81156">
        <ele>1382.5</ele>
        <time>2022-07-03T12:13:59.816Z</time>
      </trkpt>
      <trkpt lat="47.01537" lon="6.81154">
        <ele>1382.2999954224</ele>
        <time>2022-07-03T12:14:00.098Z</time>
      </trkpt>
      <trkpt lat="47.01538" lon="6.81152">
        <ele>1382.2999954224</ele>
        <time>2022-07-03T12:14:01.466Z</time>
      </trkpt>
      <trkpt lat="47.0154" lon="6.8115">
        <ele>1382.3999938965</ele>
        <time>2022-07-03T12:14:04.641Z</time>
      </trkpt>
      <trkpt lat="47.01541" lon="6.81146">
        <ele>1381.3999938965</ele>
        <time>2022-07-03T12:14:05.210Z</time>
      </trkpt>
      <trkpt lat="47.01541" lon="6.81139">
        <ele>1380.3999938965</ele>
        <time>2022-07-03T12:14:06.144Z</time>
      </trkpt>
      <trkpt lat="47.01541" lon="6.81132">
        <ele>1379.5</ele>
        <time>2022-07-03T12:14:07.095Z</time>
      </trkpt>
      <trkpt lat="47.01541" lon="6.81117">
        <ele>1377.6999969482</ele>
        <time>2022-07-03T12:14:09.103Z</time>
      </trkpt>
      <trkpt lat="47.01544" lon="6.81106">
        <ele>1375</ele>
        <time>2022-07-03T12:14:10.684Z</time>
      </trkpt>
      <trkpt lat="47.01544" lon="6.811">
        <ele>1373.7999954224</ele>
        <time>2022-07-03T12:14:11.495Z</time>
      </trkpt>
      <trkpt lat="47.01543" lon="6.81087">
        <ele>1370.6999969482</ele>
        <time>2022-07-03T12:14:13.250Z</time>
      </trkpt>
      <trkpt lat="47.01542" lon="6.81083">
        <ele>1370.0999984741</ele>
        <time>2022-07-03T12:14:13.807Z</time>
      </trkpt>
      <trkpt lat="47.01542" lon="6.81078">
        <ele>1369</ele>
        <time>2022-07-03T12:14:14.476Z</time>
      </trkpt>
      <trkpt lat="47.01542" lon="6.81076">
        <ele>1368.5</ele>
        <time>2022-07-03T12:14:14.740Z</time>
      </trkpt>
      <trkpt lat="47.01544" lon="6.81075">
        <ele>1367.8999938965</ele>
        <time>2022-07-03T12:14:15.154Z</time>
      </trkpt>
      <trkpt lat="47.01544" lon="6.81074">
        <ele>1367.3999938965</ele>
        <time>2022-07-03T12:14:15.277Z</time>
      </trkpt>
      <trkpt lat="47.01544" lon="6.81071">
        <ele>1366.8999938965</ele>
        <time>2022-07-03T12:14:15.683Z</time>
      </trkpt>
      <trkpt lat="47.01546" lon="6.81069">
        <ele>1365.8999938965</ele>
        <time>2022-07-03T12:14:16.153Z</time>
      </trkpt>
      <trkpt lat="47.01546" lon="6.81066">
        <ele>1365.0999984741</ele>
        <time>2022-07-03T12:14:16.558Z</time>
      </trkpt>
      <trkpt lat="47.01546" lon="6.81061">
        <ele>1364</ele>
        <time>2022-07-03T12:14:17.228Z</time>
      </trkpt>
      <trkpt lat="47.01545" lon="6.81056">
        <ele>1362.3999938965</ele>
        <time>2022-07-03T12:14:17.920Z</time>
      </trkpt>
      <trkpt lat="47.01545" lon="6.81056">
        <ele>1362.3999938965</ele>
        <time>2022-07-03T12:14:18.224Z</time>
      </trkpt>
      <trkpt lat="47.01545" lon="6.81056">
        <ele>1362.3999938965</ele>
        <time>2022-07-03T12:14:18.527Z</time>
      </trkpt>
      <trkpt lat="47.01544" lon="6.81048">
        <ele>1360.8999938965</ele>
        <time>2022-07-03T12:14:19.619Z</time>
      </trkpt>
      <trkpt lat="47.0154" lon="6.81037">
        <ele>1358.5999984741</ele>
        <time>2022-07-03T12:14:21.291Z</time>
      </trkpt>
      <trkpt lat="47.0154" lon="6.81031">
        <ele>1356.7999954224</ele>
        <time>2022-07-03T12:14:22.101Z</time>
      </trkpt>
      <trkpt lat="47.01538" lon="6.81022">
        <ele>1355.2999954224</ele>
        <time>2022-07-03T12:14:23.355Z</time>
      </trkpt>
      <trkpt lat="47.01533" lon="6.81002">
        <ele>1351.3999938965</ele>
        <time>2022-07-03T12:14:26.221Z</time>
      </trkpt>
      <trkpt lat="47.01529" lon="6.80995">
        <ele>1350.5</ele>
        <time>2022-07-03T12:14:27.436Z</time>
      </trkpt>
      <trkpt lat="47.01527" lon="6.80989">
        <ele>1349.5</ele>
        <time>2022-07-03T12:14:28.327Z</time>
      </trkpt>
      <trkpt lat="47.01524" lon="6.80973">
        <ele>1347.3999938965</ele>
        <time>2022-07-03T12:14:30.554Z</time>
      </trkpt>
      <trkpt lat="47.0152" lon="6.80958">
        <ele>1344.8999938965</ele>
        <time>2022-07-03T12:14:32.701Z</time>
      </trkpt>
      <trkpt lat="47.01517" lon="6.80951">
        <ele>1343.5999984741</ele>
        <time>2022-07-03T12:14:33.817Z</time>
      </trkpt>
      <trkpt lat="47.01516" lon="6.80945">
        <ele>1342.3999938965</ele>
        <time>2022-07-03T12:14:34.650Z</time>
      </trkpt>
      <trkpt lat="47.01513" lon="6.80939">
        <ele>1341.5</ele>
        <time>2022-07-03T12:14:35.635Z</time>
      </trkpt>
      <trkpt lat="47.01513" lon="6.80938">
        <ele>1341.1999969482</ele>
        <time>2022-07-03T12:14:35.775Z</time>
      </trkpt>
      <trkpt lat="47.01512" lon="6.80932">
        <ele>1339.8999938965</ele>
        <time>2022-07-03T12:14:36.609Z</time>
      </trkpt>
      <trkpt lat="47.01511" lon="6.8093">
        <ele>1339.6999969482</ele>
        <time>2022-07-03T12:14:36.937Z</time>
      </trkpt>
      <trkpt lat="47.0151" lon="6.80928">
        <ele>1339.3999938965</ele>
        <time>2022-07-03T12:14:37.265Z</time>
      </trkpt>
      <trkpt lat="47.01504" lon="6.80911">
        <ele>1336.5999984741</ele>
        <time>2022-07-03T12:14:39.827Z</time>
      </trkpt>
      <trkpt lat="47.01503" lon="6.80905">
        <ele>1335.7999954224</ele>
        <time>2022-07-03T12:14:40.660Z</time>
      </trkpt>
      <trkpt lat="47.01502" lon="6.80903">
        <ele>1335.2999954224</ele>
        <time>2022-07-03T12:14:40.988Z</time>
      </trkpt>
      <trkpt lat="47.015" lon="6.80897">
        <ele>1334.3999938965</ele>
        <time>2022-07-03T12:14:41.887Z</time>
      </trkpt>
      <trkpt lat="47.01499" lon="6.80892">
        <ele>1333.5</ele>
        <time>2022-07-03T12:14:42.584Z</time>
      </trkpt>
      <trkpt lat="47.01499" lon="6.80888">
        <ele>1332.6999969482</ele>
        <time>2022-07-03T12:14:43.130Z</time>
      </trkpt>
      <trkpt lat="47.01498" lon="6.80882">
        <ele>1331.3999938965</ele>
        <time>2022-07-03T12:14:43.943Z</time>
      </trkpt>
      <trkpt lat="47.01497" lon="6.80876">
        <ele>1330.3999938965</ele>
        <time>2022-07-03T12:14:44.776Z</time>
      </trkpt>
      <trkpt lat="47.01492" lon="6.8086">
        <ele>1328</ele>
        <time>2022-07-03T12:14:47.135Z</time>
      </trkpt>
      <trkpt lat="47.01491" lon="6.80852">
        <ele>1327</ele>
        <time>2022-07-03T12:14:48.224Z</time>
      </trkpt>
      <trkpt lat="47.01491" lon="6.80842">
        <ele>1325.6999969482</ele>
        <time>2022-07-03T12:14:49.563Z</time>
      </trkpt>
      <trkpt lat="47.01491" lon="6.80834">
        <ele>1324.8999938965</ele>
        <time>2022-07-03T12:14:50.637Z</time>
      </trkpt>
      <trkpt lat="47.0149" lon="6.8082">
        <ele>1324</ele>
        <time>2022-07-03T12:14:52.513Z</time>
      </trkpt>
      <trkpt lat="47.0149" lon="6.80813">
        <ele>1323.5</ele>
        <time>2022-07-03T12:14:53.464Z</time>
      </trkpt>
      <trkpt lat="47.01493" lon="6.80818">
        <ele>1326.7999954224</ele>
        <time>2022-07-03T12:15:07.956Z</time>
      </trkpt>
      <trkpt lat="47.01494" lon="6.80818">
        <ele>1326.7999954224</ele>
        <time>2022-07-03T12:15:08.779Z</time>
      </trkpt>
      <trkpt lat="47.01494" lon="6.80818">
        <ele>1323.6999969482</ele>
        <time>2022-07-03T12:15:08.779Z</time>
      </trkpt>
      <trkpt lat="47.015" lon="6.80808">
        <ele>1323.2999954224</ele>
        <time>2022-07-03T12:15:10.724Z</time>
      </trkpt>
      <trkpt lat="47.01505" lon="6.80798">
        <ele>1322.7999954224</ele>
        <time>2022-07-03T12:15:12.473Z</time>
      </trkpt>
      <trkpt lat="47.01511" lon="6.80788">
        <ele>1322.3999938965</ele>
        <time>2022-07-03T12:15:14.439Z</time>
      </trkpt>
      <trkpt lat="47.01517" lon="6.80777">
        <ele>1322.0999984741</ele>
        <time>2022-07-03T12:15:16.584Z</time>
      </trkpt>
      <trkpt lat="47.01522" lon="6.80767">
        <ele>1321.5999984741</ele>
        <time>2022-07-03T12:15:18.350Z</time>
      </trkpt>
      <trkpt lat="47.01528" lon="6.80757">
        <ele>1321</ele>
        <time>2022-07-03T12:15:20.105Z</time>
      </trkpt>
      <trkpt lat="47.01534" lon="6.80747">
        <ele>1319.8999938965</ele>
        <time>2022-07-03T12:15:21.871Z</time>
      </trkpt>
      <trkpt lat="47.01543" lon="6.80731">
        <ele>1318.7999954224</ele>
        <time>2022-07-03T12:15:24.628Z</time>
      </trkpt>
      <trkpt lat="47.01543" lon="6.80731">
        <ele>1317.5</ele>
        <time>2022-07-03T12:15:24.628Z</time>
      </trkpt>
      <trkpt lat="47.01548" lon="6.8072">
        <ele>1316.3999938965</ele>
        <time>2022-07-03T12:15:26.392Z</time>
      </trkpt>
      <trkpt lat="47.01553" lon="6.8071">
        <ele>1314.7999954224</ele>
        <time>2022-07-03T12:15:28.152Z</time>
      </trkpt>
      <trkpt lat="47.01559" lon="6.80699">
        <ele>1313.1999969482</ele>
        <time>2022-07-03T12:15:29.916Z</time>
      </trkpt>
      <trkpt lat="47.01564" lon="6.80689">
        <ele>1311.6999969482</ele>
        <time>2022-07-03T12:15:31.690Z</time>
      </trkpt>
      <trkpt lat="47.01569" lon="6.80678">
        <ele>1310.2999954224</ele>
        <time>2022-07-03T12:15:33.440Z</time>
      </trkpt>
      <trkpt lat="47.01575" lon="6.80668">
        <ele>1309.1999969482</ele>
        <time>2022-07-03T12:15:35.214Z</time>
      </trkpt>
      <trkpt lat="47.01581" lon="6.80655">
        <ele>1308.3999938965</ele>
        <time>2022-07-03T12:15:37.355Z</time>
      </trkpt>
      <trkpt lat="47.01581" lon="6.80655">
        <ele>1308</ele>
        <time>2022-07-03T12:15:37.355Z</time>
      </trkpt>
      <trkpt lat="47.01589" lon="6.80661">
        <ele>1308</ele>
        <time>2022-07-03T12:15:44.678Z</time>
      </trkpt>
      <trkpt lat="47.01597" lon="6.80668">
        <ele>1308</ele>
        <time>2022-07-03T12:15:52.102Z</time>
      </trkpt>
      <trkpt lat="47.01605" lon="6.80674">
        <ele>1307.6999969482</ele>
        <time>2022-07-03T12:15:54.250Z</time>
      </trkpt>
      <trkpt lat="47.01612" lon="6.80681">
        <ele>1307.5</ele>
        <time>2022-07-03T12:15:56.688Z</time>
      </trkpt>
      <trkpt lat="47.0162" lon="6.80687">
        <ele>1307.2999954224</ele>
        <time>2022-07-03T12:15:59.137Z</time>
      </trkpt>
      <trkpt lat="47.01632" lon="6.80697">
        <ele>1307.1999969482</ele>
        <time>2022-07-03T12:16:03.416Z</time>
      </trkpt>
      <trkpt lat="47.01631" lon="6.80697">
        <ele>1307.5</ele>
        <time>2022-07-03T12:16:05.405Z</time>
      </trkpt>
      <trkpt lat="47.01651" lon="6.80711">
        <ele>1307.3999938965</ele>
        <time>2022-07-03T12:16:22.343Z</time>
      </trkpt>
      <trkpt lat="47.01676" lon="6.80728">
        <ele>1307.2999954224</ele>
        <time>2022-07-03T12:16:43.747Z</time>
      </trkpt>
      <trkpt lat="47.01698" lon="6.8074">
        <ele>1306.0999984741</ele>
        <time>2022-07-03T12:16:48.537Z</time>
      </trkpt>
      <trkpt lat="47.01717" lon="6.80749">
        <ele>1303.5999984741</ele>
        <time>2022-07-03T12:16:52.448Z</time>
      </trkpt>
      <trkpt lat="47.01749" lon="6.80764">
        <ele>1299.3999938965</ele>
        <time>2022-07-03T12:16:59.051Z</time>
      </trkpt>
      <trkpt lat="47.01772" lon="6.80771">
        <ele>1297.2999954224</ele>
        <time>2022-07-03T12:17:03.660Z</time>
      </trkpt>
      <trkpt lat="47.01787" lon="6.80774">
        <ele>1295.5999984741</ele>
        <time>2022-07-03T12:17:06.644Z</time>
      </trkpt>
      <trkpt lat="47.01798" lon="6.80771">
        <ele>1294.2999954224</ele>
        <time>2022-07-03T12:17:08.852Z</time>
      </trkpt>
      <trkpt lat="47.01806" lon="6.80768">
        <ele>1294.2999954224</ele>
        <time>2022-07-03T12:17:15.605Z</time>
      </trkpt>
      <trkpt lat="47.01809" lon="6.80765">
        <ele>1294.3999938965</ele>
        <time>2022-07-03T12:17:19.570Z</time>
      </trkpt>
      <trkpt lat="47.01809" lon="6.80766">
        <ele>1294.3999938965</ele>
        <time>2022-07-03T12:17:20.035Z</time>
      </trkpt>
      <trkpt lat="47.01809" lon="6.80765">
        <ele>1294.3999938965</ele>
        <time>2022-07-03T12:17:20.499Z</time>
      </trkpt>
      <trkpt lat="47.0181" lon="6.80764">
        <ele>1294.5</ele>
        <time>2022-07-03T12:17:22.683Z</time>
      </trkpt>
      <trkpt lat="47.01814" lon="6.80759">
        <ele>1294.3999938965</ele>
        <time>2022-07-03T12:17:24.176Z</time>
      </trkpt>
      <trkpt lat="47.01817" lon="6.80751">
        <ele>1294.3999938965</ele>
        <time>2022-07-03T12:17:29.308Z</time>
      </trkpt>
      <trkpt lat="47.0182" lon="6.80742">
        <ele>1294.3999938965</ele>
        <time>2022-07-03T12:17:34.895Z</time>
      </trkpt>
      <trkpt lat="47.01823" lon="6.80726">
        <ele>1294.5999984741</ele>
        <time>2022-07-03T12:17:45.919Z</time>
      </trkpt>
      <trkpt lat="47.01827" lon="6.80708">
        <ele>1294.5999984741</ele>
        <time>2022-07-03T12:17:56.536Z</time>
      </trkpt>
      <trkpt lat="47.01833" lon="6.80686">
        <ele>1294.5999984741</ele>
        <time>2022-07-03T12:18:09.716Z</time>
      </trkpt>
      <trkpt lat="47.01838" lon="6.80667">
        <ele>1294.5999984741</ele>
        <time>2022-07-03T12:18:21.094Z</time>
      </trkpt>
      <trkpt lat="47.01846" lon="6.80632">
        <ele>1295.0999984741</ele>
        <time>2022-07-03T12:18:46.331Z</time>
      </trkpt>
      <trkpt lat="47.01858" lon="6.80584">
        <ele>1295.5999984741</ele>
        <time>2022-07-03T12:19:19.197Z</time>
      </trkpt>
      <trkpt lat="47.01866" lon="6.8055">
        <ele>1296.0999984741</ele>
        <time>2022-07-03T12:19:43.842Z</time>
      </trkpt>
      <trkpt lat="47.01871" lon="6.80536">
        <ele>1296.5999984741</ele>
        <time>2022-07-03T12:19:58.900Z</time>
      </trkpt>
      <trkpt lat="47.01874" lon="6.80529">
        <ele>1297</ele>
        <time>2022-07-03T12:20:08.268Z</time>
      </trkpt>
      <trkpt lat="47.01878" lon="6.80526">
        <ele>1297.2999954224</ele>
        <time>2022-07-03T12:20:15.538Z</time>
      </trkpt>
      <trkpt lat="47.01888" lon="6.80525">
        <ele>1298</ele>
        <time>2022-07-03T12:20:32.022Z</time>
      </trkpt>
      <trkpt lat="47.01895" lon="6.80525">
        <ele>1296.7999954224</ele>
        <time>2022-07-03T12:20:33.400Z</time>
      </trkpt>
      <trkpt lat="47.01902" lon="6.80526">
        <ele>1296</ele>
        <time>2022-07-03T12:20:34.786Z</time>
      </trkpt>
      <trkpt lat="47.01908" lon="6.80531">
        <ele>1295.2999954224</ele>
        <time>2022-07-03T12:20:36.140Z</time>
      </trkpt>
      <trkpt lat="47.01918" lon="6.80541">
        <ele>1293.8999938965</ele>
        <time>2022-07-03T12:20:38.525Z</time>
      </trkpt>
      <trkpt lat="47.01938" lon="6.8056">
        <ele>1293.1999969482</ele>
        <time>2022-07-03T12:20:44.495Z</time>
      </trkpt>
      <trkpt lat="47.01966" lon="6.80586">
        <ele>1292.2999954224</ele>
        <time>2022-07-03T12:20:53.013Z</time>
      </trkpt>
      <trkpt lat="47.01987" lon="6.8061">
        <ele>1291.1999969482</ele>
        <time>2022-07-03T12:20:58.934Z</time>
      </trkpt>
      <trkpt lat="47.01992" lon="6.80615">
        <ele>1291.0999984741</ele>
        <time>2022-07-03T12:21:00.701Z</time>
      </trkpt>
      <trkpt lat="47.02011" lon="6.80628">
        <ele>1291.5999984741</ele>
        <time>2022-07-03T12:21:22.659Z</time>
      </trkpt>
      <trkpt lat="47.02025" lon="6.80636">
        <ele>1292.7999954224</ele>
        <time>2022-07-03T12:21:49.402Z</time>
      </trkpt>
      <trkpt lat="47.02041" lon="6.80639">
        <ele>1294.8999938965</ele>
        <time>2022-07-03T12:22:38.017Z</time>
      </trkpt>
      <trkpt lat="47.02056" lon="6.8064">
        <ele>1295.8999938965</ele>
        <time>2022-07-03T12:23:02.167Z</time>
      </trkpt>
      <trkpt lat="47.02063" lon="6.80643">
        <ele>1295.6999969482</ele>
        <time>2022-07-03T12:23:04.013Z</time>
      </trkpt>
      <trkpt lat="47.02076" lon="6.80641">
        <ele>1295.5999984741</ele>
        <time>2022-07-03T12:23:08.281Z</time>
      </trkpt>
      <trkpt lat="47.02082" lon="6.80642">
        <ele>1295.2999954224</ele>
        <time>2022-07-03T12:23:09.538Z</time>
      </trkpt>
      <trkpt lat="47.02083" lon="6.80642">
        <ele>1295.2999954224</ele>
        <time>2022-07-03T12:23:10.145Z</time>
      </trkpt>
      <trkpt lat="47.02082" lon="6.80642">
        <ele>1295.2999954224</ele>
        <time>2022-07-03T12:23:10.753Z</time>
      </trkpt>
      <trkpt lat="47.02087" lon="6.80642">
        <ele>1295.0999984741</ele>
        <time>2022-07-03T12:23:11.864Z</time>
      </trkpt>
      <trkpt lat="47.02105" lon="6.80647">
        <ele>1292.8999938965</ele>
        <time>2022-07-03T12:23:15.468Z</time>
      </trkpt>
      <trkpt lat="47.02116" lon="6.80648">
        <ele>1291.0999984741</ele>
        <time>2022-07-03T12:23:17.629Z</time>
      </trkpt>
      <trkpt lat="47.02126" lon="6.80648">
        <ele>1289.7999954224</ele>
        <time>2022-07-03T12:23:19.590Z</time>
      </trkpt>
      <trkpt lat="47.02142" lon="6.80647">
        <ele>1287.1999969482</ele>
        <time>2022-07-03T12:23:22.738Z</time>
      </trkpt>
      <trkpt lat="47.02151" lon="6.80645">
        <ele>1285.1999969482</ele>
        <time>2022-07-03T12:23:24.542Z</time>
      </trkpt>
      <trkpt lat="47.02162" lon="6.80639">
        <ele>1283.1999969482</ele>
        <time>2022-07-03T12:23:26.833Z</time>
      </trkpt>
      <trkpt lat="47.02173" lon="6.80636">
        <ele>1280.7999954224</ele>
        <time>2022-07-03T12:23:29.041Z</time>
      </trkpt>
      <trkpt lat="47.02182" lon="6.80633">
        <ele>1278</ele>
        <time>2022-07-03T12:23:30.850Z</time>
      </trkpt>
      <trkpt lat="47.02195" lon="6.8063">
        <ele>1274.2999954224</ele>
        <time>2022-07-03T12:23:33.441Z</time>
      </trkpt>
      <trkpt lat="47.02205" lon="6.8063">
        <ele>1271.5</ele>
        <time>2022-07-03T12:23:35.403Z</time>
      </trkpt>
      <trkpt lat="47.0223" lon="6.80638">
        <ele>1264.5999984741</ele>
        <time>2022-07-03T12:23:40.422Z</time>
      </trkpt>
      <trkpt lat="47.02242" lon="6.80642">
        <ele>1261.6999969482</ele>
        <time>2022-07-03T12:23:42.839Z</time>
      </trkpt>
      <trkpt lat="47.0225" lon="6.80648">
        <ele>1260.1999969482</ele>
        <time>2022-07-03T12:23:44.608Z</time>
      </trkpt>
      <trkpt lat="47.02262" lon="6.8066">
        <ele>1257.5</ele>
        <time>2022-07-03T12:23:47.463Z</time>
      </trkpt>
      <trkpt lat="47.0227" lon="6.80668">
        <ele>1255.3999938965</ele>
        <time>2022-07-03T12:23:49.364Z</time>
      </trkpt>
      <trkpt lat="47.02277" lon="6.80671">
        <ele>1253.3999938965</ele>
        <time>2022-07-03T12:23:50.800Z</time>
      </trkpt>
      <trkpt lat="47.02284" lon="6.80671">
        <ele>1251.5</ele>
        <time>2022-07-03T12:23:52.161Z</time>
      </trkpt>
      <trkpt lat="47.02297" lon="6.80673">
        <ele>1248.5</ele>
        <time>2022-07-03T12:23:54.739Z</time>
      </trkpt>
      <trkpt lat="47.02326" lon="6.8068">
        <ele>1243.2999954224</ele>
        <time>2022-07-03T12:24:00.514Z</time>
      </trkpt>
      <trkpt lat="47.02349" lon="6.80684">
        <ele>1237.5999984741</ele>
        <time>2022-07-03T12:24:05.058Z</time>
      </trkpt>
      <trkpt lat="47.02356" lon="6.80689">
        <ele>1235.6999969482</ele>
        <time>2022-07-03T12:24:06.590Z</time>
      </trkpt>
      <trkpt lat="47.02365" lon="6.80694">
        <ele>1234.8999938965</ele>
        <time>2022-07-03T12:24:08.486Z</time>
      </trkpt>
      <trkpt lat="47.02371" lon="6.80697">
        <ele>1233.5999984741</ele>
        <time>2022-07-03T12:24:09.721Z</time>
      </trkpt>
      <trkpt lat="47.02381" lon="6.80697">
        <ele>1231.0999984741</ele>
        <time>2022-07-03T12:24:11.682Z</time>
      </trkpt>
      <trkpt lat="47.02389" lon="6.80698">
        <ele>1229.2999954224</ele>
        <time>2022-07-03T12:24:13.263Z</time>
      </trkpt>
      <trkpt lat="47.02397" lon="6.80702">
        <ele>1228.2999954224</ele>
        <time>2022-07-03T12:24:14.928Z</time>
      </trkpt>
      <trkpt lat="47.02407" lon="6.80702">
        <ele>1226</ele>
        <time>2022-07-03T12:24:16.890Z</time>
      </trkpt>
      <trkpt lat="47.02411" lon="6.80701">
        <ele>1224.5999984741</ele>
        <time>2022-07-03T12:24:17.680Z</time>
      </trkpt>
      <trkpt lat="47.02418" lon="6.80701">
        <ele>1222.7999954224</ele>
        <time>2022-07-03T12:24:19.058Z</time>
      </trkpt>
      <trkpt lat="47.02439" lon="6.80704">
        <ele>1217.1999969482</ele>
        <time>2022-07-03T12:24:23.217Z</time>
      </trkpt>
      <trkpt lat="47.02458" lon="6.80709">
        <ele>1211.0999984741</ele>
        <time>2022-07-03T12:24:26.994Z</time>
      </trkpt>
      <trkpt lat="47.02469" lon="6.80714">
        <ele>1208</ele>
        <time>2022-07-03T12:24:29.257Z</time>
      </trkpt>
      <trkpt lat="47.02484" lon="6.8072">
        <ele>1204.3999938965</ele>
        <time>2022-07-03T12:24:32.317Z</time>
      </trkpt>
      <trkpt lat="47.0249" lon="6.80725">
        <ele>1203.5999984741</ele>
        <time>2022-07-03T12:24:33.671Z</time>
      </trkpt>
      <trkpt lat="47.02496" lon="6.80727">
        <ele>1201.5999984741</ele>
        <time>2022-07-03T12:24:34.888Z</time>
      </trkpt>
      <trkpt lat="47.02503" lon="6.80729">
        <ele>1199.8999938965</ele>
        <time>2022-07-03T12:24:36.278Z</time>
      </trkpt>
      <trkpt lat="47.02511" lon="6.80732">
        <ele>1197.5</ele>
        <time>2022-07-03T12:24:37.902Z</time>
      </trkpt>
      <trkpt lat="47.02524" lon="6.80735">
        <ele>1193.2999954224</ele>
        <time>2022-07-03T12:24:40.499Z</time>
      </trkpt>
      <trkpt lat="47.02538" lon="6.8074">
        <ele>1189.1999969482</ele>
        <time>2022-07-03T12:24:43.323Z</time>
      </trkpt>
      <trkpt lat="47.02561" lon="6.80744">
        <ele>1180.7999954224</ele>
        <time>2022-07-03T12:24:47.866Z</time>
      </trkpt>
      <trkpt lat="47.02571" lon="6.80745">
        <ele>1176.8999938965</ele>
        <time>2022-07-03T12:24:49.833Z</time>
      </trkpt>
      <trkpt lat="47.02581" lon="6.80745">
        <ele>1172.8999938965</ele>
        <time>2022-07-03T12:24:51.812Z</time>
      </trkpt>
      <trkpt lat="47.02593" lon="6.80749">
        <ele>1169.8999938965</ele>
        <time>2022-07-03T12:24:54.229Z</time>
      </trkpt>
      <trkpt lat="47.02603" lon="6.80752">
        <ele>1166.7999954224</ele>
        <time>2022-07-03T12:24:56.232Z</time>
      </trkpt>
      <trkpt lat="47.02615" lon="6.80756">
        <ele>1162.5999984741</ele>
        <time>2022-07-03T12:24:58.649Z</time>
      </trkpt>
      <trkpt lat="47.02631" lon="6.80756">
        <ele>1156.0999984741</ele>
        <time>2022-07-03T12:25:01.795Z</time>
      </trkpt>
      <trkpt lat="47.02647" lon="6.80758">
        <ele>1150.7999954224</ele>
        <time>2022-07-03T12:25:04.954Z</time>
      </trkpt>
      <trkpt lat="47.02665" lon="6.80761">
        <ele>1145.6999969482</ele>
        <time>2022-07-03T12:25:08.496Z</time>
      </trkpt>
      <trkpt lat="47.02683" lon="6.80762">
        <ele>1139.5</ele>
        <time>2022-07-03T12:25:12.053Z</time>
      </trkpt>
      <trkpt lat="47.02696" lon="6.8076">
        <ele>1134.1999969482</ele>
        <time>2022-07-03T12:25:14.609Z</time>
      </trkpt>
      <trkpt lat="47.02704" lon="6.80763">
        <ele>1131.5</ele>
        <time>2022-07-03T12:25:16.233Z</time>
      </trkpt>
      <trkpt lat="47.02711" lon="6.80763">
        <ele>1128.6999969482</ele>
        <time>2022-07-03T12:25:17.612Z</time>
      </trkpt>
      <trkpt lat="47.0272" lon="6.80765">
        <ele>1126.3999938965</ele>
        <time>2022-07-03T12:25:19.401Z</time>
      </trkpt>
      <trkpt lat="47.02724" lon="6.80769">
        <ele>1125.5999984741</ele>
        <time>2022-07-03T12:25:20.341Z</time>
      </trkpt>
      <trkpt lat="47.02734" lon="6.8077">
        <ele>1122.1999969482</ele>
        <time>2022-07-03T12:25:22.309Z</time>
      </trkpt>
      <trkpt lat="47.02739" lon="6.80772">
        <ele>1121</ele>
        <time>2022-07-03T12:25:23.321Z</time>
      </trkpt>
      <trkpt lat="47.02755" lon="6.80771">
        <ele>1115.0999984741</ele>
        <time>2022-07-03T12:25:26.469Z</time>
      </trkpt>
      <trkpt lat="47.02764" lon="6.80773">
        <ele>1112.5</ele>
        <time>2022-07-03T12:25:28.259Z</time>
      </trkpt>
      <trkpt lat="47.02777" lon="6.8078">
        <ele>1109.7999954224</ele>
        <time>2022-07-03T12:25:30.982Z</time>
      </trkpt>
      <trkpt lat="47.02789" lon="6.80782">
        <ele>1106.2999954224</ele>
        <time>2022-07-03T12:25:33.366Z</time>
      </trkpt>
      <trkpt lat="47.02792" lon="6.80784">
        <ele>1106.2999954224</ele>
        <time>2022-07-03T12:25:36.067Z</time>
      </trkpt>
      <trkpt lat="47.028" lon="6.80787">
        <ele>1103.5999984741</ele>
        <time>2022-07-03T12:25:37.691Z</time>
      </trkpt>
      <trkpt lat="47.02814" lon="6.80787">
        <ele>1098.5</ele>
        <time>2022-07-03T12:25:40.430Z</time>
      </trkpt>
      <trkpt lat="47.02824" lon="6.80789">
        <ele>1095.5999984741</ele>
        <time>2022-07-03T12:25:42.411Z</time>
      </trkpt>
      <trkpt lat="47.02833" lon="6.80796">
        <ele>1094.0999984741</ele>
        <time>2022-07-03T12:25:44.418Z</time>
      </trkpt>
      <trkpt lat="47.02846" lon="6.80803">
        <ele>1091.5999984741</ele>
        <time>2022-07-03T12:25:47.141Z</time>
      </trkpt>
      <trkpt lat="47.02859" lon="6.80806">
        <ele>1088.6999969482</ele>
        <time>2022-07-03T12:25:49.721Z</time>
      </trkpt>
      <trkpt lat="47.02863" lon="6.80806">
        <ele>1087.5</ele>
        <time>2022-07-03T12:25:50.516Z</time>
      </trkpt>
      <trkpt lat="47.02867" lon="6.80803">
        <ele>1085.2999954224</ele>
        <time>2022-07-03T12:25:51.385Z</time>
      </trkpt>
      <trkpt lat="47.02872" lon="6.80796">
        <ele>1082.0999984741</ele>
        <time>2022-07-03T12:25:52.758Z</time>
      </trkpt>
      <trkpt lat="47.02878" lon="6.80793">
        <ele>1079.1999969482</ele>
        <time>2022-07-03T12:25:53.987Z</time>
      </trkpt>
      <trkpt lat="47.02883" lon="6.80792">
        <ele>1077.3999938965</ele>
        <time>2022-07-03T12:25:54.984Z</time>
      </trkpt>
      <trkpt lat="47.02889" lon="6.80793">
        <ele>1075.8999938965</ele>
        <time>2022-07-03T12:25:56.177Z</time>
      </trkpt>
      <trkpt lat="47.02893" lon="6.80796">
        <ele>1075.2999954224</ele>
        <time>2022-07-03T12:25:57.054Z</time>
      </trkpt>
      <trkpt lat="47.02899" lon="6.80804">
        <ele>1075.1999969482</ele>
        <time>2022-07-03T12:25:59.522Z</time>
      </trkpt>
      <trkpt lat="47.02905" lon="6.80812">
        <ele>1074.5999984741</ele>
        <time>2022-07-03T12:26:01.120Z</time>
      </trkpt>
      <trkpt lat="47.02912" lon="6.80819">
        <ele>1074.3999938965</ele>
        <time>2022-07-03T12:26:03.384Z</time>
      </trkpt>
      <trkpt lat="47.02944" lon="6.80841">
        <ele>1074.5</ele>
        <time>2022-07-03T12:26:33.069Z</time>
      </trkpt>
      <trkpt lat="47.02955" lon="6.80847">
        <ele>1074.5</ele>
        <time>2022-07-03T12:26:42.697Z</time>
      </trkpt>
      <trkpt lat="47.02969" lon="6.80858">
        <ele>1075.1999969482</ele>
        <time>2022-07-03T12:27:04.515Z</time>
      </trkpt>
      <trkpt lat="47.02984" lon="6.8087">
        <ele>1074.5</ele>
        <time>2022-07-03T12:27:08.325Z</time>
      </trkpt>
      <trkpt lat="47.02996" lon="6.80879">
        <ele>1073.6999969482</ele>
        <time>2022-07-03T12:27:10.903Z</time>
      </trkpt>
      <trkpt lat="47.03011" lon="6.80889">
        <ele>1073.6999969482</ele>
        <time>2022-07-03T12:27:24.376Z</time>
      </trkpt>
      <trkpt lat="47.03045" lon="6.8091">
        <ele>1073.3999938965</ele>
        <time>2022-07-03T12:27:36.324Z</time>
      </trkpt>
      <trkpt lat="47.03061" lon="6.80923">
        <ele>1074.0999984741</ele>
        <time>2022-07-03T12:27:59.380Z</time>
      </trkpt>
      <trkpt lat="47.03067" lon="6.8093">
        <ele>1074.6999969482</ele>
        <time>2022-07-03T12:28:12.851Z</time>
      </trkpt>
      <trkpt lat="47.03074" lon="6.80936">
        <ele>1075.0999984741</ele>
        <time>2022-07-03T12:28:24.442Z</time>
      </trkpt>
      <trkpt lat="47.03096" lon="6.80942">
        <ele>1071.3999938965</ele>
        <time>2022-07-03T12:28:28.836Z</time>
      </trkpt>
      <trkpt lat="47.03107" lon="6.80943">
        <ele>1070.2999954224</ele>
        <time>2022-07-03T12:28:30.996Z</time>
      </trkpt>
      <trkpt lat="47.03114" lon="6.80945">
        <ele>1069.5999984741</ele>
        <time>2022-07-03T12:28:32.403Z</time>
      </trkpt>
      <trkpt lat="47.03118" lon="6.80948">
        <ele>1069</ele>
        <time>2022-07-03T12:28:33.280Z</time>
      </trkpt>
      <trkpt lat="47.03121" lon="6.8095">
        <ele>1068.5999984741</ele>
        <time>2022-07-03T12:28:33.928Z</time>
      </trkpt>
      <trkpt lat="47.03126" lon="6.8095">
        <ele>1067</ele>
        <time>2022-07-03T12:28:34.917Z</time>
      </trkpt>
      <trkpt lat="47.03131" lon="6.80951">
        <ele>1066.3999938965</ele>
        <time>2022-07-03T12:28:35.899Z</time>
      </trkpt>
      <trkpt lat="47.03136" lon="6.8095">
        <ele>1065.8999938965</ele>
        <time>2022-07-03T12:28:36.897Z</time>
      </trkpt>
      <trkpt lat="47.03139" lon="6.80952">
        <ele>1065.5</ele>
        <time>2022-07-03T12:28:37.544Z</time>
      </trkpt>
      <trkpt lat="47.03143" lon="6.80952">
        <ele>1065.0999984741</ele>
        <time>2022-07-03T12:28:38.340Z</time>
      </trkpt>
      <trkpt lat="47.03146" lon="6.80954">
        <ele>1065.0999984741</ele>
        <time>2022-07-03T12:28:41.009Z</time>
      </trkpt>
      <trkpt lat="47.03148" lon="6.80955">
        <ele>1064.7999954224</ele>
        <time>2022-07-03T12:28:41.422Z</time>
      </trkpt>
      <trkpt lat="47.03153" lon="6.80959">
        <ele>1064.7999954224</ele>
        <time>2022-07-03T12:28:46.070Z</time>
      </trkpt>
      <trkpt lat="47.03154" lon="6.8096">
        <ele>1064.6999969482</ele>
        <time>2022-07-03T12:28:46.310Z</time>
      </trkpt>
      <trkpt lat="47.03159" lon="6.80956">
        <ele>1063.6999969482</ele>
        <time>2022-07-03T12:28:47.432Z</time>
      </trkpt>
      <trkpt lat="47.03167" lon="6.80949">
        <ele>1061.6999969482</ele>
        <time>2022-07-03T12:28:49.276Z</time>
      </trkpt>
      <trkpt lat="47.03171" lon="6.80945">
        <ele>1060.3999938965</ele>
        <time>2022-07-03T12:28:50.216Z</time>
      </trkpt>
      <trkpt lat="47.03172" lon="6.80946">
        <ele>1060.1999969482</ele>
        <time>2022-07-03T12:28:50.456Z</time>
      </trkpt>
      <trkpt lat="47.03176" lon="6.80934">
        <ele>1058.0999984741</ele>
        <time>2022-07-03T12:28:52.254Z</time>
      </trkpt>
      <trkpt lat="47.03188" lon="6.80895">
        <ele>1052.5</ele>
        <time>2022-07-03T12:28:57.972Z</time>
      </trkpt>
      <trkpt lat="47.03198" lon="6.80864">
        <ele>1048.5</ele>
        <time>2022-07-03T12:29:02.568Z</time>
      </trkpt>
      <trkpt lat="47.03203" lon="6.80844">
        <ele>1046.1999969482</ele>
        <time>2022-07-03T12:29:05.429Z</time>
      </trkpt>
      <trkpt lat="47.03209" lon="6.80831">
        <ele>1044.6999969482</ele>
        <time>2022-07-03T12:29:07.532Z</time>
      </trkpt>
      <trkpt lat="47.03216" lon="6.80816">
        <ele>1043.0999984741</ele>
        <time>2022-07-03T12:29:09.953Z</time>
      </trkpt>
      <trkpt lat="47.03221" lon="6.8081">
        <ele>1042.2999954224</ele>
        <time>2022-07-03T12:29:11.221Z</time>
      </trkpt>
      <trkpt lat="47.03222" lon="6.80807">
        <ele>1042</ele>
        <time>2022-07-03T12:29:11.679Z</time>
      </trkpt>
      <trkpt lat="47.03227" lon="6.80798">
        <ele>1041.3999938965</ele>
        <time>2022-07-03T12:29:13.232Z</time>
      </trkpt>
      <trkpt lat="47.0323" lon="6.80803">
        <ele>1041.3999938965</ele>
        <time>2022-07-03T12:29:16.934Z</time>
      </trkpt>
      <trkpt lat="47.03231" lon="6.80803">
        <ele>1041.3999938965</ele>
        <time>2022-07-03T12:29:17.363Z</time>
      </trkpt>
      <trkpt lat="47.0323" lon="6.80803">
        <ele>1041.3999938965</ele>
        <time>2022-07-03T12:29:17.792Z</time>
      </trkpt>
      <trkpt lat="47.03231" lon="6.80805">
        <ele>1041.5</ele>
        <time>2022-07-03T12:29:20.415Z</time>
      </trkpt>
      <trkpt lat="47.03256" lon="6.80834">
        <ele>1042.3999938965</ele>
        <time>2022-07-03T12:29:55.590Z</time>
      </trkpt>
      <trkpt lat="47.03295" lon="6.80883">
        <ele>1044.5999984741</ele>
        <time>2022-07-03T12:31:04.826Z</time>
      </trkpt>
      <trkpt lat="47.03324" lon="6.80922">
        <ele>1045.6999969482</ele>
        <time>2022-07-03T12:31:48.137Z</time>
      </trkpt>
      <trkpt lat="47.03353" lon="6.8096">
        <ele>1046.5999984741</ele>
        <time>2022-07-03T12:32:28.574Z</time>
      </trkpt>
      <trkpt lat="47.03358" lon="6.8096">
        <ele>1046.2999954224</ele>
        <time>2022-07-03T12:32:29.507Z</time>
      </trkpt>
      <trkpt lat="47.03361" lon="6.8096">
        <ele>1045.6999969482</ele>
        <time>2022-07-03T12:32:30.108Z</time>
      </trkpt>
      <trkpt lat="47.03367" lon="6.80962">
        <ele>1044.8999938965</ele>
        <time>2022-07-03T12:32:31.308Z</time>
      </trkpt>
      <trkpt lat="47.03372" lon="6.80962">
        <ele>1044.1999969482</ele>
        <time>2022-07-03T12:32:32.297Z</time>
      </trkpt>
      <trkpt lat="47.0338" lon="6.80961">
        <ele>1043.1999969482</ele>
        <time>2022-07-03T12:32:33.873Z</time>
      </trkpt>
      <trkpt lat="47.0339" lon="6.80958">
        <ele>1041.7999954224</ele>
        <time>2022-07-03T12:32:35.873Z</time>
      </trkpt>
      <trkpt lat="47.03396" lon="6.80956">
        <ele>1041.0999984741</ele>
        <time>2022-07-03T12:32:37.086Z</time>
      </trkpt>
      <trkpt lat="47.03401" lon="6.80951">
        <ele>1040.2999954224</ele>
        <time>2022-07-03T12:32:38.281Z</time>
      </trkpt>
      <trkpt lat="47.03407" lon="6.80946">
        <ele>1039.5</ele>
        <time>2022-07-03T12:32:39.632Z</time>
      </trkpt>
      <trkpt lat="47.03413" lon="6.80937">
        <ele>1038.0999984741</ele>
        <time>2022-07-03T12:32:41.316Z</time>
      </trkpt>
      <trkpt lat="47.03438" lon="6.80893">
        <ele>1034.8999938965</ele>
        <time>2022-07-03T12:32:48.988Z</time>
      </trkpt>
      <trkpt lat="47.03456" lon="6.80865">
        <ele>1033.1999969482</ele>
        <time>2022-07-03T12:32:53.777Z</time>
      </trkpt>
      <trkpt lat="47.03473" lon="6.80835">
        <ele>1031.5</ele>
        <time>2022-07-03T12:32:58.660Z</time>
      </trkpt>
      <trkpt lat="47.03494" lon="6.80803">
        <ele>1030.5</ele>
        <time>2022-07-03T12:33:05.979Z</time>
      </trkpt>
      <trkpt lat="47.03502" lon="6.80789">
        <ele>1030.1999969482</ele>
        <time>2022-07-03T12:33:09.299Z</time>
      </trkpt>
      <trkpt lat="47.03502" lon="6.8079">
        <ele>1030.1999969482</ele>
        <time>2022-07-03T12:33:09.715Z</time>
      </trkpt>
      <trkpt lat="47.03502" lon="6.80789">
        <ele>1030.1999969482</ele>
        <time>2022-07-03T12:33:10.131Z</time>
      </trkpt>
      <trkpt lat="47.03506" lon="6.80782">
        <ele>1029.7999954224</ele>
        <time>2022-07-03T12:33:11.261Z</time>
      </trkpt>
      <trkpt lat="47.03515" lon="6.80769">
        <ele>1029.6999969482</ele>
        <time>2022-07-03T12:33:15.362Z</time>
      </trkpt>
      <trkpt lat="47.03534" lon="6.80739">
        <ele>1029.5</ele>
        <time>2022-07-03T12:33:35.942Z</time>
      </trkpt>
      <trkpt lat="47.03544" lon="6.80725">
        <ele>1029.5999984741</ele>
        <time>2022-07-03T12:33:48.038Z</time>
      </trkpt>
      <trkpt lat="47.03552" lon="6.80719">
        <ele>1029.6999969482</ele>
        <time>2022-07-03T12:33:56.281Z</time>
      </trkpt>
      <trkpt lat="47.03557" lon="6.80719">
        <ele>1029.6999969482</ele>
        <time>2022-07-03T12:34:00.333Z</time>
      </trkpt>
      <trkpt lat="47.03561" lon="6.80723">
        <ele>1029.6999969482</ele>
        <time>2022-07-03T12:34:04.355Z</time>
      </trkpt>
      <trkpt lat="47.03569" lon="6.80736">
        <ele>1030.0999984741</ele>
        <time>2022-07-03T12:34:18.433Z</time>
      </trkpt>
      <trkpt lat="47.03575" lon="6.80748">
        <ele>1030.2999954224</ele>
        <time>2022-07-03T12:34:28.588Z</time>
      </trkpt>
      <trkpt lat="47.03579" lon="6.80751">
        <ele>1030.3999938965</ele>
        <time>2022-07-03T12:34:33.187Z</time>
      </trkpt>
      <trkpt lat="47.03579" lon="6.80751">
        <ele>1030.0999984741</ele>
        <time>2022-07-03T12:34:33.187Z</time>
      </trkpt>
      <trkpt lat="47.03582" lon="6.8075">
        <ele>1030.2999954224</ele>
        <time>2022-07-03T12:34:38.038Z</time>
      </trkpt>
      <trkpt lat="47.03583" lon="6.80748">
        <ele>1030.0999984741</ele>
        <time>2022-07-03T12:34:38.377Z</time>
      </trkpt>
      <trkpt lat="47.03586" lon="6.80743">
        <ele>1030.2999954224</ele>
        <time>2022-07-03T12:34:44.601Z</time>
      </trkpt>
      <trkpt lat="47.03623" lon="6.80691">
        <ele>1030.3999938965</ele>
        <time>2022-07-03T12:35:27.358Z</time>
      </trkpt>
      <trkpt lat="47.03698" lon="6.80587">
        <ele>1029.6999969482</ele>
        <time>2022-07-03T12:36:43.925Z</time>
      </trkpt>
      <trkpt lat="47.03795" lon="6.80448">
        <ele>1028.6999969482</ele>
        <time>2022-07-03T12:37:28.231Z</time>
      </trkpt>
      <trkpt lat="47.03808" lon="6.80427">
        <ele>1028.5999984741</ele>
        <time>2022-07-03T12:37:42.943Z</time>
      </trkpt>
      <trkpt lat="47.03833" lon="6.80391">
        <ele>1028.2999954224</ele>
        <time>2022-07-03T12:37:54.198Z</time>
      </trkpt>
      <trkpt lat="47.0387" lon="6.80337">
        <ele>1027.0999984741</ele>
        <time>2022-07-03T12:38:08.221Z</time>
      </trkpt>
      <trkpt lat="47.03894" lon="6.80302">
        <ele>1026.2999954224</ele>
        <time>2022-07-03T12:38:17.262Z</time>
      </trkpt>
      <trkpt lat="47.03951" lon="6.80218">
        <ele>1025.7999954224</ele>
        <time>2022-07-03T12:39:17.691Z</time>
      </trkpt>
      <trkpt lat="47.03961" lon="6.80202">
        <ele>1026.1999969482</ele>
        <time>2022-07-03T12:39:33.804Z</time>
      </trkpt>
      <trkpt lat="47.03964" lon="6.80195">
        <ele>1026.3999938965</ele>
        <time>2022-07-03T12:39:40.653Z</time>
      </trkpt>
      <trkpt lat="47.03964" lon="6.80189">
        <ele>1026.7999954224</ele>
        <time>2022-07-03T12:39:49.175Z</time>
      </trkpt>
      <trkpt lat="47.03963" lon="6.80181">
        <ele>1027</ele>
        <time>2022-07-03T12:39:55.956Z</time>
      </trkpt>
      <trkpt lat="47.03963" lon="6.80175">
        <ele>1027</ele>
        <time>2022-07-03T12:39:59.334Z</time>
      </trkpt>
      <trkpt lat="47.03965" lon="6.80169">
        <ele>1027.0999984741</ele>
        <time>2022-07-03T12:40:03.988Z</time>
      </trkpt>
      <trkpt lat="47.03971" lon="6.80156">
        <ele>1027</ele>
        <time>2022-07-03T12:40:07.377Z</time>
      </trkpt>
      <trkpt lat="47.03989" lon="6.80183">
        <ele>1027.1999969482</ele>
        <time>2022-07-03T12:40:30.060Z</time>
      </trkpt>
      <trkpt lat="47.03994" lon="6.80191">
        <ele>1027.1999969482</ele>
        <time>2022-07-03T12:40:36.155Z</time>
      </trkpt>
      <trkpt lat="47.04008" lon="6.8021">
        <ele>1027.0999984741</ele>
        <time>2022-07-03T12:40:50.554Z</time>
      </trkpt>
      <trkpt lat="47.04016" lon="6.80223">
        <ele>1027</ele>
        <time>2022-07-03T12:40:54.412Z</time>
      </trkpt>
      <trkpt lat="47.04025" lon="6.80237">
        <ele>1027</ele>
        <time>2022-07-03T12:41:05.183Z</time>
      </trkpt>
      <trkpt lat="47.04028" lon="6.80243">
        <ele>1027.0999984741</ele>
        <time>2022-07-03T12:41:10.261Z</time>
      </trkpt>
      <trkpt lat="47.04035" lon="6.80255">
        <ele>1027.1999969482</ele>
        <time>2022-07-03T12:41:19.903Z</time>
      </trkpt>
      <trkpt lat="47.04045" lon="6.80274">
        <ele>1027.2999954224</ele>
        <time>2022-07-03T12:41:34.080Z</time>
      </trkpt>
      <trkpt lat="47.04047" lon="6.80277">
        <ele>1027.3999938965</ele>
        <time>2022-07-03T12:41:37.525Z</time>
      </trkpt>
      <trkpt lat="47.04049" lon="6.8028">
        <ele>1027.5</ele>
        <time>2022-07-03T12:41:40.970Z</time>
      </trkpt>
      <trkpt lat="47.04052" lon="6.80283">
        <ele>1027.5</ele>
        <time>2022-07-03T12:41:43.930Z</time>
      </trkpt>
      <trkpt lat="47.04069" lon="6.80297">
        <ele>1027.6999969482</ele>
        <time>2022-07-03T12:42:01.547Z</time>
      </trkpt>
      <trkpt lat="47.04081" lon="6.80307">
        <ele>1027.8999938965</ele>
        <time>2022-07-03T12:42:14.590Z</time>
      </trkpt>
      <trkpt lat="47.04082" lon="6.80307">
        <ele>1028.0999984741</ele>
        <time>2022-07-03T12:42:17.488Z</time>
      </trkpt>
    </trkseg>
  </trk>
</gpx>